
Distance (Route):
Temperature : 18.9°C
Humidity : 56.1%
Pressure : 960.0hPa| Receiver | Frames | First received | Last received |
|---|---|---|---|
| SP9KGR-15 | 314 | 2026-09-03 23:19:50 | 2026-09-04 01:09:32 |
| SQ9EZE-13 | 276 | 2026-09-03 23:20:36 | 2026-09-04 01:03:54 |
| HA6NAB-11 | 160 | 2026-09-03 23:31:00 | 2026-09-04 01:03:48 |
| GYPAP8-17 | 113 | 2026-09-03 23:19:46 | 2026-09-04 01:25:47 |
| OE5DRO-10 | 113 | 2026-09-04 00:16:44 | 2026-09-04 00:59:07 |
| SQ9EZE-14 | 87 | 2026-09-03 23:22:46 | 2026-09-04 01:03:11 |
| OE5DXL-15 | 41 | 2026-09-04 00:31:44 | 2026-09-04 00:53:19 |
| LZ4TU-5 | 28 | 2026-09-04 00:19:20 | 2026-09-04 00:57:07 |
| PETON7-10 | 13 | 2026-09-04 00:31:40 | 2026-09-04 00:46:10 |
| S52SK | 2 | 2026-09-04 00:19:03 | 2026-09-04 00:19:08 |
| OM5KV | 1 | 2026-09-03 23:21:28 | 2026-09-03 23:21:28 |
| Receiver | Date | Latitude | Longitude | Direction | Speed | Altitude | Climb | Temperature | Humidity | Pressure | Voltage | Killtimer | Uptime | BKT | XDATA |
|---|---|---|---|---|---|---|---|---|---|---|---|---|---|---|---|
| GYPAP8-17 | 2026-09-04 01:25:47 | 48.20001 | 21.10166 | 175° | 5km/h | 553m | -6.8m/s | 18.9°C | 56.1% | 960.0hPa | 2.5V | 00:00:00 | 00:00:00 | 00:00:00 | |
| GYPAP8-17 | 2026-09-04 01:25:03 | 48.20042 | 21.10079 | 98° | 9km/h | 893m | -7.4m/s | 16.7°C | 57.9% | 922.9hPa | 2.5V | 00:00:00 | 00:00:00 | 00:00:00 | |
| GYPAP8-17 | 2026-09-04 01:24:24 | 48.20054 | 21.09906 | 80° | 9km/h | 1194m | -9.8m/s | 14.3°C | 59.3% | 890.4hPa | 2.5V | 00:00:00 | 00:00:00 | 00:00:00 | |
| GYPAP8-17 | 2026-09-04 01:23:34 | 48.20019 | 21.09756 | 68° | 5km/h | 1597m | -7.8m/s | 10.8°C | 68.2% | 848.2hPa | 2.5V | 07:57:00 | 00:00:00 | 00:00:00 | |
| GYPAP8-17 | 2026-09-04 01:22:51 | 48.20069 | 21.09506 | 122° | 27km/h | 1957m | -9.0m/s | 9.3°C | 67.8% | 812.2hPa | 2.5V | 00:00:00 | 00:00:00 | 00:00:00 | |
| GYPAP8-17 | 2026-09-04 01:22:08 | 48.20247 | 21.09140 | 131° | 27km/h | 2320m | -9.5m/s | 6.2°C | 80.8% | 777.3hPa | 2.5V | 00:00:00 | 00:00:00 | 00:00:00 | |
| GYPAP8-17 | 2026-09-04 01:21:25 | 48.20452 | 21.08779 | 126° | 35km/h | 2729m | -9.2m/s | 5.2°C | 43.8% | 739.8hPa | 2.5V | 00:00:00 | 00:00:00 | 00:00:00 | |
| GYPAP8-17 | 2026-09-04 01:20:42 | 48.20681 | 21.08290 | 123° | 40km/h | 3107m | -9.0m/s | 2.5°C | 63.0% | 706.1hPa | 2.5V | 00:00:00 | 00:00:00 | 00:00:00 | |
| GYPAP8-17 | 2026-09-04 01:19:58 | 48.20917 | 21.07721 | 129° | 42km/h | 3504m | -8.8m/s | -0.8°C | 73.9% | 672.3hPa | 2.5V | 00:00:00 | 00:00:00 | 00:00:00 | |
| GYPAP8-17 | 2026-09-04 01:19:14 | 48.21219 | 21.07173 | 139° | 46km/h | 3890m | -9.6m/s | -3.6°C | 36.1% | 640.3hPa | 2.5V | 08:01:00 | 00:00:00 | 00:00:00 | |
| GYPAP8-17 | 2026-09-04 01:18:30 | 48.21673 | 21.06631 | 143° | 55km/h | 4364m | -11.7m/s | -5.0°C | 15.5% | 602.8hPa | 2.5V | 08:02:00 | 00:00:00 | 00:00:00 | |
| GYPAP8-17 | 2026-09-04 01:17:41 | 48.22162 | 21.05967 | 134° | 57km/h | 4823m | -11.2m/s | -8.2°C | 13.0% | 568.3hPa | 2.5V | 08:03:00 | 00:00:00 | 00:00:00 | |
| GYPAP8-17 | 2026-09-04 01:16:57 | 48.22578 | 21.05303 | 133° | 57km/h | 5231m | -8.6m/s | -11.2°C | 15.0% | 538.8hPa | 2.5V | 08:03:00 | 00:00:00 | 00:00:00 | |
| GYPAP8-17 | 2026-09-04 01:16:16 | 48.22975 | 21.04569 | 129° | 55km/h | 5621m | -10.8m/s | -13.8°C | 17.9% | 511.6hPa | 2.5V | 00:00:00 | 00:00:00 | 00:00:00 | |
| GYPAP8-17 | 2026-09-04 01:15:33 | 48.23347 | 21.03908 | 132° | 53km/h | 5982m | -10.8m/s | -16.2°C | 28.6% | 487.4hPa | 2.5V | 00:00:00 | 00:00:00 | 00:00:00 | |
| GYPAP8-17 | 2026-09-04 01:14:43 | 48.23799 | 21.03164 | 138° | 55km/h | 6453m | -9.3m/s | -20.3°C | 38.7% | 457.8hPa | 2.5V | 00:00:00 | 00:00:00 | 00:00:00 | |
| GYPAP8-17 | 2026-09-04 01:14:02 | 48.24336 | 21.02619 | 154° | 66km/h | 6843m | -10.0m/s | -21.6°C | 6.2% | 434.2hPa | 2.5V | 00:00:00 | 00:00:00 | 00:00:00 | |
| GYPAP8-17 | 2026-09-04 01:13:14 | 48.25072 | 21.02001 | 151° | 75km/h | 7303m | -8.7m/s | -25.6°C | 7.4% | 407.7hPa | 2.5V | 00:00:00 | 00:00:00 | 00:00:00 | |
| GYPAP8-17 | 2026-09-04 01:12:31 | 48.25856 | 21.01416 | 158° | 91km/h | 7728m | -8.2m/s | -28.4°C | 53.0% | 384.5hPa | 2.5V | 08:08:00 | 00:00:00 | 00:00:00 | |
| GYPAP8-17 | 2026-09-04 01:11:47 | 48.27039 | 21.00681 | 157° | 128km/h | 8165m | -8.8m/s | -29.9°C | 71.5% | 361.3hPa | 2.5V | 00:00:00 | 00:00:00 | 00:00:00 | |
| GYPAP8-17 | 2026-09-04 01:11:08 | 48.28131 | 20.99944 | 158° | 115km/h | 8560m | -9.8m/s | -33.2°C | 68.1% | 342.0hPa | 2.5V | 00:00:00 | 00:00:00 | 00:00:00 | |
| GYPAP8-17 | 2026-09-04 01:10:21 | 48.29556 | 20.99230 | 165° | 142km/h | 9039m | -10.0m/s | -36.7°C | 66.0% | 319.3hPa | 2.5V | 00:00:00 | 00:00:00 | 00:00:00 | |
| GYPAP8-17 | 2026-09-04 01:09:37 | 48.31173 | 20.98547 | 166° | 162km/h | 9502m | -11.5m/s | -39.9°C | 67.1% | 298.6hPa | 2.5V | 00:00:00 | 00:00:00 | 00:00:00 | |
| SP9KGR-15 | 2026-09-04 01:09:32 | 48.31370 | 20.98469 | 166° | 161km/h | 9562m | -13.3m/s | -40.4°C | 66.4% | 296.2hPa | 2.5V | 00:00:00 | 00:00:00 | 00:00:00 | |
| SP9KGR-15 | 2026-09-04 01:09:07 | 48.32429 | 20.98118 | 170° | 172km/h | 9838m | -11.3m/s | -42.7°C | 64.4% | 284.3hPa | 2.5V | 08:11:00 | 00:00:00 | 00:00:00 | |
| GYPAP8-17 | 2026-09-04 01:08:55 | 48.32948 | 20.97961 | 169° | 175km/h | 9965m | -9.7m/s | -43.6°C | 61.2% | 279.0hPa | 2.5V | 00:00:00 | 00:00:00 | 00:00:00 | |
| SP9KGR-15 | 2026-09-04 01:08:47 | 48.33253 | 20.97860 | 168° | 175km/h | 10037m | -13.3m/s | -44.3°C | 62.0% | 276.1hPa | 2.5V | 08:11:00 | 00:00:00 | 00:00:00 | |
| SP9KGR-15 | 2026-09-04 01:08:31 | 48.33954 | 20.97631 | 169° | 175km/h | 10221m | -11.7m/s | -46.1°C | 65.5% | 268.4hPa | 2.5V | 08:11:00 | 00:00:00 | 00:00:00 | |
| SP9KGR-15 | 2026-09-04 01:08:17 | 48.34610 | 20.97425 | 169° | 175km/h | 10399m | -11.5m/s | -47.7°C | 66.3% | 261.6hPa | 2.5V | 08:12:00 | 00:00:00 | 00:00:00 | |
| GYPAP8-17 | 2026-09-04 01:08:10 | 48.34874 | 20.97340 | 169° | 179km/h | 10481m | -13.9m/s | -48.4°C | 62.3% | 258.4hPa | 2.5V | 08:12:00 | 00:00:00 | 00:00:00 | |
| SP9KGR-15 | 2026-09-04 01:08:00 | 48.35317 | 20.97206 | 170° | 179km/h | 10614m | -14.2m/s | -49.6°C | 63.3% | 253.0hPa | 2.5V | 08:12:00 | 00:00:00 | 00:00:00 | |
| SP9KGR-15 | 2026-09-04 01:07:44 | 48.36040 | 20.97033 | 174° | 184km/h | 10837m | -14.2m/s | -51.4°C | 63.2% | 244.8hPa | 2.5V | 08:12:00 | 00:00:00 | 00:00:00 | |
| SP9KGR-15 | 2026-09-04 01:07:29 | 48.36743 | 20.96913 | 175° | 188km/h | 11050m | -13.3m/s | -53.3°C | 63.9% | 236.9hPa | 2.5V | 08:13:00 | 00:00:00 | 00:00:00 | |
| GYPAP8-17 | 2026-09-04 01:07:27 | 48.36839 | 20.96900 | 176° | 190km/h | 11077m | -15.8m/s | -53.5°C | 62.7% | 235.9hPa | 2.5V | 08:13:00 | 00:00:00 | 00:00:00 | |
| SP9KGR-15 | 2026-09-04 01:07:15 | 48.37462 | 20.96823 | 178° | 190km/h | 11274m | -12.6m/s | -55.1°C | 56.7% | 228.7hPa | 2.5V | 08:13:00 | 00:00:00 | 00:00:00 | |
| SP9KGR-15 | 2026-09-04 01:06:59 | 48.38189 | 20.96747 | 178° | 195km/h | 11500m | -15.9m/s | -57.1°C | 48.8% | 220.6hPa | 2.5V | 08:13:00 | 00:00:00 | 00:00:00 | |
| GYPAP8-17 | 2026-09-04 01:06:43 | 48.38943 | 20.96693 | 178° | 175km/h | 11775m | -14.8m/s | -59.0°C | 39.8% | 211.4hPa | 2.5V | 00:00:00 | 00:00:00 | 00:00:00 | |
| SP9KGR-15 | 2026-09-04 01:06:11 | 48.40153 | 20.96541 | 164° | 119km/h | 12233m | -15.7m/s | -57.8°C | 7.0% | 196.3hPa | 2.5V | 08:14:00 | 00:00:00 | 00:00:00 | |
| GYPAP8-17 | 2026-09-04 01:05:59 | 48.40487 | 20.96374 | 159° | 119km/h | 12422m | -12.2m/s | -57.2°C | 4.8% | 190.4hPa | 2.5V | 00:00:00 | 00:00:00 | 00:00:00 | |
| SP9KGR-15 | 2026-09-04 01:05:55 | 48.40601 | 20.96310 | 160° | 119km/h | 12478m | -17.4m/s | -57.2°C | 4.3% | 188.9hPa | 2.5V | 08:14:00 | 00:00:00 | 00:00:00 | |
| SP9KGR-15 | 2026-09-04 01:05:40 | 48.41012 | 20.96064 | 160° | 110km/h | 12721m | -16.7m/s | -55.5°C | 3.0% | 181.7hPa | 2.5V | 00:00:00 | 00:00:00 | 00:00:00 | |
| SP9KGR-15 | 2026-09-04 01:05:25 | 48.41358 | 20.95845 | 154° | 84km/h | 12975m | -15.1m/s | -55.4°C | 2.6% | 174.7hPa | 2.5V | 00:00:00 | 00:00:00 | 00:00:00 | |
| GYPAP8-17 | 2026-09-04 01:05:19 | 48.41468 | 20.95753 | 148° | 84km/h | 13076m | -17.1m/s | -55.5°C | 2.5% | 172.0hPa | 2.5V | 00:00:00 | 00:00:00 | 00:00:00 | |
| SP9KGR-15 | 2026-09-04 01:05:10 | 48.41646 | 20.95568 | 144° | 88km/h | 13227m | -16.2m/s | -55.0°C | 2.4% | 167.9hPa | 2.5V | 00:00:00 | 00:00:00 | 00:00:00 | |
| SP9KGR-15 | 2026-09-04 01:04:49 | 48.41953 | 20.95211 | 142° | 73km/h | 13586m | -15.2m/s | -54.4°C | 2.1% | 158.7hPa | 2.5V | 00:00:00 | 00:00:00 | 00:00:00 | |
| SP9KGR-15 | 2026-09-04 01:04:33 | 48.42205 | 20.94895 | 143° | 78km/h | 13864m | -16.1m/s | -53.8°C | 2.0% | 152.1hPa | 2.5V | 00:00:00 | 00:00:00 | 00:00:00 | |
| SP9KGR-15 | 2026-09-04 01:04:18 | 48.42427 | 20.94619 | 134° | 80km/h | 14114m | -18.9m/s | -53.0°C | 1.8% | 146.4hPa | 2.5V | 00:00:00 | 00:00:00 | 00:00:00 | |
| SP9KGR-15 | 2026-09-04 01:04:02 | 48.42643 | 20.94306 | 138° | 75km/h | 14369m | -16.7m/s | -52.4°C | 1.8% | 140.6hPa | 2.5V | 08:16:00 | 00:00:00 | 00:00:00 | |
| SQ9EZE-13 | 2026-09-04 01:03:54 | 48.42749 | 20.94171 | 143° | 68km/h | 14498m | -15.5m/s | -52.2°C | 1.7% | 137.8hPa | 2.5V | 08:16:00 | 00:00:00 | 00:00:00 | |
| HA6NAB-11 | 2026-09-04 01:03:48 | 48.42829 | 20.94073 | 143° | 64km/h | 14588m | -15.5m/s | -51.6°C | 1.6% | 135.8hPa | 2.5V | 00:00:00 | 00:00:00 | 00:00:00 | |
| SP9KGR-15 | 2026-09-04 01:03:46 | 48.42855 | 20.94043 | 143° | 64km/h | 14622m | -19.9m/s | -51.5°C | 1.6% | 135.3hPa | 2.5V | 08:16:00 | 00:00:00 | 00:00:00 | |
| HA6NAB-11 | 2026-09-04 01:03:43 | 48.42892 | 20.93999 | 142° | 62km/h | 14683m | -19.5m/s | -51.8°C | 1.6% | 134.0hPa | 2.5V | 00:00:00 | 00:00:00 | 00:00:00 | |
| HA6NAB-11 | 2026-09-04 01:03:38 | 48.42953 | 20.93932 | 144° | 53km/h | 14770m | -18.2m/s | -51.9°C | 1.7% | 132.1hPa | 2.5V | 00:00:00 | 00:00:00 | 00:00:00 | |
| HA6NAB-11 | 2026-09-04 01:03:33 | 48.43005 | 20.93873 | 141° | 51km/h | 14857m | -17.3m/s | -52.5°C | 1.8% | 130.4hPa | 2.5V | 00:00:00 | 00:00:00 | 00:00:00 | |
| SP9KGR-15 | 2026-09-04 01:03:31 | 48.43024 | 20.93847 | 137° | 49km/h | 14895m | -19.6m/s | -52.8°C | 1.8% | 129.7hPa | 2.5V | 08:16:00 | 00:00:00 | 00:00:00 | |
| GYPAP8-17 | 2026-09-04 01:03:28 | 48.43051 | 20.93807 | 134° | 49km/h | 14949m | -16.9m/s | -53.1°C | 1.9% | 128.5hPa | 2.5V | 00:00:00 | 00:00:00 | 00:00:00 | |
| HA6NAB-11 | 2026-09-04 01:03:25 | 48.43075 | 20.93766 | 133° | 49km/h | 15000m | -17.1m/s | -52.8°C | 1.8% | 127.6hPa | 2.5V | 00:00:00 | 00:00:00 | 00:00:00 | |
| SQ9EZE-13 | 2026-09-04 01:03:21 | 48.43110 | 20.93714 | 140° | 47km/h | 15066m | -19.9m/s | -52.5°C | 1.7% | 126.3hPa | 2.5V | 08:16:00 | 00:00:00 | 00:00:00 | |
| HA6NAB-11 | 2026-09-04 01:03:19 | 48.43129 | 20.93690 | 139° | 47km/h | 15103m | -17.5m/s | -52.3°C | 1.8% | 125.6hPa | 2.5V | 00:00:00 | 00:00:00 | 00:00:00 | |
| SP9KGR-15 | 2026-09-04 01:03:15 | 48.43161 | 20.93643 | 134° | 42km/h | 15168m | -15.0m/s | -52.1°C | 1.7% | 124.3hPa | 2.5V | 08:17:00 | 00:00:00 | 00:00:00 | |
| SQ9EZE-14 | 2026-09-04 01:03:11 | 48.43189 | 20.93596 | 132° | 38km/h | 15238m | -16.5m/s | -52.0°C | 1.7% | 123.0hPa | 2.5V | 00:00:00 | 00:00:00 | 00:00:00 | |
| SQ9EZE-13 | 2026-09-04 01:03:06 | 48.43221 | 20.93539 | 130° | 40km/h | 15324m | -16.0m/s | -52.4°C | 1.7% | 121.3hPa | 2.5V | 08:17:00 | 00:00:00 | 00:00:00 | |
| SP9KGR-15 | 2026-09-04 01:03:00 | 48.43263 | 20.93465 | 134° | 44km/h | 15424m | -21.3m/s | -52.5°C | 1.6% | 119.6hPa | 2.5V | 08:17:00 | 00:00:00 | 00:00:00 | |
| SQ9EZE-14 | 2026-09-04 01:02:56 | 48.43297 | 20.93411 | 135° | 53km/h | 15497m | -17.7m/s | -52.7°C | 1.7% | 118.2hPa | 2.5V | 00:00:00 | 00:00:00 | 00:00:00 | |
| SQ9EZE-13 | 2026-09-04 01:02:50 | 48.43351 | 20.93322 | 132° | 51km/h | 15599m | -15.5m/s | -53.2°C | 1.7% | 116.2hPa | 2.5V | 08:17:00 | 00:00:00 | 00:00:00 | |
| GYPAP8-17 | 2026-09-04 01:02:45 | 48.43395 | 20.93242 | 130° | 58km/h | 15681m | -15.5m/s | -53.6°C | 1.7% | 114.8hPa | 2.5V | 00:00:00 | 00:00:00 | 00:00:00 | |
| SQ9EZE-13 | 2026-09-04 01:02:34 | 48.43510 | 20.93072 | 138° | 57km/h | 15875m | -18.0m/s | -54.2°C | 1.7% | 111.6hPa | 2.5V | 08:17:00 | 00:00:00 | 00:00:00 | |
| SP9KGR-15 | 2026-09-04 01:02:29 | 48.43560 | 20.93007 | 136° | 53km/h | 15955m | -17.2m/s | -54.5°C | 1.7% | 110.1hPa | 2.5V | 08:18:00 | 00:00:00 | 00:00:00 | |
| SQ9EZE-13 | 2026-09-04 01:02:18 | 48.43662 | 20.92850 | 139° | 53km/h | 16144m | -16.3m/s | -55.0°C | 1.8% | 106.8hPa | 2.5V | 08:18:00 | 00:00:00 | 00:00:00 | |
| SP9KGR-15 | 2026-09-04 01:02:13 | 48.43712 | 20.92788 | 145° | 47km/h | 16214m | -12.0m/s | -55.1°C | 1.8% | 105.5hPa | 2.5V | 08:18:00 | 00:00:00 | 00:00:00 | |
| SQ9EZE-13 | 2026-09-04 01:02:03 | 48.43799 | 20.92679 | 135° | 46km/h | 16384m | -19.7m/s | -55.2°C | 1.7% | 102.9hPa | 2.5V | 08:18:00 | 00:00:00 | 00:00:00 | |
| GYPAP8-17 | 2026-09-04 01:01:59 | 48.43829 | 20.92629 | 130° | 44km/h | 16462m | -18.9m/s | -55.3°C | 1.7% | 101.6hPa | 2.5V | 00:00:00 | 00:00:00 | 00:00:00 | |
| SP9KGR-15 | 2026-09-04 01:01:58 | 48.43836 | 20.92617 | 135° | 44km/h | 16481m | -17.7m/s | -55.2°C | 1.8% | 101.3hPa | 2.5V | 08:18:00 | 00:00:00 | 00:00:00 | |
| SQ9EZE-13 | 2026-09-04 01:01:45 | 48.43927 | 20.92454 | 129° | 46km/h | 16716m | -18.1m/s | -54.8°C | 1.6% | 97.7hPa | 2.5V | 08:18:00 | 00:00:00 | 00:00:00 | |
| SP9KGR-15 | 2026-09-04 01:01:42 | 48.43949 | 20.92416 | 132° | 42km/h | 16775m | -20.1m/s | -54.6°C | 1.6% | 96.9hPa | 2.5V | 08:18:00 | 00:00:00 | 00:00:00 | |
| HA6NAB-11 | 2026-09-04 01:01:37 | 48.43982 | 20.92356 | 125° | 38km/h | 16873m | -17.5m/s | -55.1°C | 1.7% | 95.4hPa | 2.5V | 00:00:00 | 00:00:00 | 00:00:00 | |
| HA6NAB-11 | 2026-09-04 01:01:32 | 48.44009 | 20.92299 | 125° | 37km/h | 16960m | -18.2m/s | -55.2°C | 1.7% | 94.1hPa | 2.5V | 00:00:00 | 00:00:00 | 00:00:00 | |
| SQ9EZE-13 | 2026-09-04 01:01:28 | 48.44031 | 20.92251 | 124° | 37km/h | 17033m | -21.0m/s | -55.1°C | 1.7% | 93.1hPa | 2.5V | 08:19:00 | 00:00:00 | 00:00:00 | |
| SP9KGR-15 | 2026-09-04 01:01:27 | 48.44036 | 20.92239 | 125° | 38km/h | 17053m | -18.9m/s | -55.3°C | 0% | 0hPa | 2.5V | 08:19:00 | 00:00:00 | 00:00:00 | |
| HA6NAB-11 | 2026-09-04 01:01:26 | 48.44042 | 20.92227 | 129° | 38km/h | 17069m | -15.2m/s | -55.2°C | 1.7% | 92.4hPa | 2.5V | 00:00:00 | 00:00:00 | 00:00:00 | |
| HA6NAB-11 | 2026-09-04 01:01:20 | 48.44077 | 20.92161 | 131° | 37km/h | 17172m | -19.4m/s | -55.0°C | 1.6% | 91.1hPa | 2.5V | 00:00:00 | 00:00:00 | 00:00:00 | |
| HA6NAB-11 | 2026-09-04 01:01:14 | 48.44103 | 20.92100 | 114° | 33km/h | 17284m | -19.3m/s | -54.9°C | 1.7% | 89.5hPa | 2.5V | 00:00:00 | 00:00:00 | 00:00:00 | |
| SP9KGR-15 | 2026-09-04 01:01:12 | 48.44110 | 20.92078 | 111° | 31km/h | 17322m | -18.3m/s | -54.9°C | 0% | 0hPa | 2.5V | 08:19:00 | 00:00:00 | 00:00:00 | |
| SQ9EZE-13 | 2026-09-04 01:01:11 | 48.44112 | 20.92066 | 107° | 35km/h | 17340m | -18.5m/s | -54.9°C | 1.6% | 88.7hPa | 2.5V | 08:19:00 | 00:00:00 | 00:00:00 | |
| HA6NAB-11 | 2026-09-04 01:01:08 | 48.44118 | 20.92029 | 105° | 33km/h | 17396m | -18.0m/s | -54.6°C | 1.6% | 87.9hPa | 2.5V | 00:00:00 | 00:00:00 | 00:00:00 | |
| GYPAP8-17 | 2026-09-04 01:00:58 | 48.44140 | 20.91877 | 111° | 46km/h | 17596m | -17.1m/s | -54.7°C | 1.6% | 85.1hPa | 2.5V | 00:00:00 | 00:00:00 | 00:00:00 | |
| SP9KGR-15 | 2026-09-04 01:00:56 | 48.44149 | 20.91842 | 110° | 49km/h | 17633m | -20.3m/s | -54.9°C | 0% | 0hPa | 2.5V | 08:19:00 | 00:00:00 | 00:00:00 | |
| SQ9EZE-13 | 2026-09-04 01:00:48 | 48.44188 | 20.91701 | 116° | 51km/h | 17782m | -17.5m/s | -54.1°C | 1.6% | 82.8hPa | 2.5V | 08:19:00 | 00:00:00 | 00:00:00 | |
| SQ9EZE-14 | 2026-09-04 01:00:45 | 48.44207 | 20.91652 | 124° | 51km/h | 17831m | -18.7m/s | -54.1°C | 1.5% | 82.2hPa | 2.5V | 00:00:00 | 00:00:00 | 00:00:00 | |
| SP9KGR-15 | 2026-09-04 01:00:40 | 48.44249 | 20.91573 | 133° | 51km/h | 17921m | -19.0m/s | 0°C | 0% | 0hPa | 2.5V | 00:00:00 | 00:00:00 | 00:00:00 | |
| SQ9EZE-13 | 2026-09-04 01:00:31 | 48.44320 | 20.91466 | 140° | 29km/h | 18083m | -15.6m/s | -53.9°C | 1.5% | 78.9hPa | 2.5V | 08:20:00 | 00:00:00 | 00:00:00 | |
| SQ9EZE-14 | 2026-09-04 01:00:30 | 48.44325 | 20.91459 | 141° | 29km/h | 18099m | -16.0m/s | -53.8°C | 1.5% | 78.8hPa | 2.5V | 00:00:00 | 00:00:00 | 00:00:00 | |
| SQ9EZE-13 | 2026-09-04 01:00:15 | 48.44410 | 20.91362 | 138° | 27km/h | 18380m | -17.9m/s | -54.2°C | 1.5% | 75.4hPa | 2.5V | 08:20:00 | 00:00:00 | 00:00:00 | |
| GYPAP8-17 | 2026-09-04 01:00:08 | 48.44429 | 20.91317 | 94° | 16km/h | 18514m | -16.1m/s | -54.3°C | 1.5% | 73.8hPa | 2.5V | 00:00:00 | 00:00:00 | 00:00:00 | |
| SQ9EZE-13 | 2026-09-04 00:59:59 | 48.44419 | 20.91242 | 84° | 29km/h | 18677m | -16.1m/s | -54.5°C | 1.5% | 71.9hPa | 2.5V | 08:20:00 | 00:00:00 | 00:00:00 | |
| SP9KGR-15 | 2026-09-04 00:59:58 | 48.44418 | 20.91231 | 89° | 27km/h | 18694m | -17.4m/s | -54.6°C | 1.6% | 71.8hPa | 2.5V | 08:20:00 | 00:00:00 | 00:00:00 | |
| SQ9EZE-13 | 2026-09-04 00:59:43 | 48.44452 | 20.91057 | 122° | 33km/h | 18962m | -18.7m/s | -54.6°C | 1.6% | 68.9hPa | 2.5V | 00:00:00 | 00:00:00 | 00:00:00 | |
| SP9KGR-15 | 2026-09-04 00:59:42 | 48.44456 | 20.91046 | 120° | 37km/h | 18980m | -17.6m/s | -54.6°C | 1.5% | 68.7hPa | 2.5V | 08:21:00 | 00:00:00 | 00:00:00 | |
| GYPAP8-17 | 2026-09-04 00:59:32 | 48.44506 | 20.90942 | 137° | 33km/h | 19183m | -22.9m/s | -54.3°C | 1.5% | 66.7hPa | 2.5V | 00:00:00 | 00:00:00 | 00:00:00 | |
| SQ9EZE-13 | 2026-09-04 00:59:28 | 48.44536 | 20.90904 | 152° | 27km/h | 19272m | -17.8m/s | -54.2°C | 1.5% | 65.7hPa | 2.5V | 00:00:00 | 00:00:00 | 00:00:00 | |
| HA6NAB-11 | 2026-09-04 00:59:27 | 48.44536 | 20.90904 | 152° | 27km/h | 19272m | -17.8m/s | -54.2°C | 1.5% | 65.7hPa | 2.5V | 08:21:00 | 00:00:00 | 00:00:00 | |
| SP9KGR-15 | 2026-09-04 00:59:26 | 48.44541 | 20.90899 | 154° | 24km/h | 19289m | -16.5m/s | -54.2°C | 1.5% | 65.5hPa | 2.5V | 08:21:00 | 00:00:00 | 00:00:00 | |
| HA6NAB-11 | 2026-09-04 00:59:21 | 48.44560 | 20.90880 | 146° | 15km/h | 19382m | -18.0m/s | -53.8°C | 1.5% | 64.6hPa | 2.5V | 08:21:00 | 00:00:00 | 00:00:00 | |
| HA6NAB-11 | 2026-09-04 00:59:17 | 48.44572 | 20.90860 | 116° | 18km/h | 19466m | -19.3m/s | -53.4°C | 1.4% | 63.8hPa | 2.5V | 08:21:00 | 00:00:00 | 00:00:00 | |
| HA6NAB-11 | 2026-09-04 00:59:10 | 48.44579 | 20.90815 | 101° | 24km/h | 19575m | -17.2m/s | -53.9°C | 1.5% | 62.6hPa | 2.5V | 08:21:00 | 00:00:00 | 00:00:00 | |
| SP9KGR-15 | 2026-09-04 00:59:08 | 48.44582 | 20.90797 | 103° | 26km/h | 19610m | -17.2m/s | -54.0°C | 1.5% | 62.3hPa | 2.5V | 08:21:00 | 00:00:00 | 00:00:00 | |
| OE5DRO-10 | 2026-09-04 00:59:07 | 48.44583 | 20.90780 | 104° | 20km/h | 19647m | -18.8m/s | -54.2°C | 4.5% | 61.9hPa | 2.5V | 00:00:00 | 00:00:00 | 00:00:00 | |
| HA6NAB-11 | 2026-09-04 00:59:05 | 48.44584 | 20.90773 | 102° | 18km/h | 19666m | -19.0m/s | -54.4°C | 1.5% | 61.8hPa | 2.5V | 00:00:00 | 00:00:00 | 00:00:00 | |
| HA6NAB-11 | 2026-09-04 00:58:59 | 48.44592 | 20.90734 | 123° | 20km/h | 19790m | -20.1m/s | -54.0°C | 1.4% | 60.7hPa | 2.5V | 00:00:00 | 00:00:00 | 00:00:00 | |
| SP9KGR-15 | 2026-09-04 00:58:52 | 48.44614 | 20.90693 | 129° | 20km/h | 19921m | -18.1m/s | -54.5°C | 1.5% | 59.4hPa | 2.5V | 08:22:00 | 00:00:00 | 00:00:00 | |
| OE5DRO-10 | 2026-09-04 00:58:48 | 48.44623 | 20.90660 | 90° | 16km/h | 20018m | -21.3m/s | -54.1°C | 4.5% | 58.5hPa | 2.5V | 00:00:00 | 00:00:00 | 00:00:00 | |
| SP9KGR-15 | 2026-09-04 00:58:36 | 48.44636 | 20.90553 | 118° | 31km/h | 20229m | -16.9m/s | -55.0°C | 1.6% | 56.5hPa | 2.5V | 08:22:00 | 00:00:00 | 00:00:00 | |
| SQ9EZE-14 | 2026-09-04 00:58:29 | 48.44662 | 20.90501 | 142° | 20km/h | 20363m | -17.9m/s | -53.0°C | 1.3% | 55.4hPa | 2.5V | 08:22:00 | 00:00:00 | 00:00:00 | |
| SQ9EZE-13 | 2026-09-04 00:58:25 | 48.44674 | 20.90486 | 136° | 13km/h | 20441m | -20.8m/s | -53.2°C | 1.3% | 54.8hPa | 2.5V | 00:00:00 | 00:00:00 | 00:00:00 | |
| SP9KGR-15 | 2026-09-04 00:58:20 | 48.44680 | 20.90468 | 103° | 11km/h | 20546m | -18.6m/s | -53.4°C | 1.3% | 53.8hPa | 2.5V | 08:22:00 | 00:00:00 | 00:00:00 | |
| OE5DRO-10 | 2026-09-04 00:58:18 | 48.44683 | 20.90455 | 107° | 20km/h | 20608m | -21.5m/s | -53.7°C | 4.1% | 53.3hPa | 2.5V | 00:00:00 | 00:00:00 | 00:00:00 | |
| SQ9EZE-14 | 2026-09-04 00:58:15 | 48.44684 | 20.90442 | 98° | 11km/h | 20675m | -20.6m/s | -54.2°C | 1.4% | 52.8hPa | 2.6V | 00:00:00 | 00:00:00 | 00:00:00 | |
| SP9KGR-15 | 2026-09-04 00:58:05 | 48.44674 | 20.90384 | 89° | 24km/h | 20859m | -17.7m/s | -55.5°C | 1.6% | 51.3hPa | 2.6V | 08:22:00 | 00:00:00 | 00:00:00 | |
| SQ9EZE-14 | 2026-09-04 00:57:57 | 48.44684 | 20.90325 | 130° | 16km/h | 21010m | -17.8m/s | -55.3°C | 1.6% | 50.1hPa | 2.6V | 00:00:00 | 00:00:00 | 00:00:00 | |
| SQ9EZE-13 | 2026-09-04 00:57:54 | 48.44691 | 20.90313 | 132° | 13km/h | 21071m | -19.4m/s | -54.7°C | 1.5% | 49.6hPa | 2.6V | 00:00:00 | 00:00:00 | 00:00:00 | |
| SP9KGR-15 | 2026-09-04 00:57:49 | 48.44698 | 20.90289 | 106° | 18km/h | 21178m | -21.0m/s | -54.4°C | 1.4% | 48.8hPa | 2.6V | 08:22:00 | 00:00:00 | 00:00:00 | |
| SQ9EZE-14 | 2026-09-04 00:57:42 | 48.44706 | 20.90228 | 108° | 24km/h | 21312m | -19.2m/s | -55.1°C | 1.5% | 47.8hPa | 2.6V | 00:00:00 | 00:00:00 | 00:00:00 | |
| OE5DRO-10 | 2026-09-04 00:57:34 | 48.44725 | 20.90171 | 115° | 16km/h | 21496m | -20.7m/s | -55.1°C | 4.8% | 46.5hPa | 2.6V | 00:00:00 | 00:00:00 | 00:00:00 | |
| SP9KGR-15 | 2026-09-04 00:57:33 | 48.44725 | 20.90171 | 115° | 15km/h | 21496m | -20.8m/s | -55.2°C | 1.6% | 46.5hPa | 2.6V | 08:22:00 | 00:00:00 | 00:00:00 | |
| GYPAP8-17 | 2026-09-04 00:57:28 | 48.44734 | 20.90142 | 120° | 20km/h | 21597m | -21.7m/s | -55.0°C | 1.5% | 45.8hPa | 2.6V | 08:22:00 | 00:00:00 | 00:00:00 | |
| HA6NAB-11 | 2026-09-04 00:57:17 | 48.44752 | 20.90079 | 109° | 18km/h | 21812m | -19.5m/s | -54.2°C | 1.4% | 44.1hPa | 2.6V | 00:00:00 | 00:00:00 | 00:00:00 | |
| OE5DRO-10 | 2026-09-04 00:57:15 | 48.44756 | 20.90058 | 124° | 9km/h | 21876m | -22.8m/s | -54.0°C | 4.5% | 43.7hPa | 2.6V | 00:00:00 | 00:00:00 | 00:00:00 | |
| SQ9EZE-13 | 2026-09-04 00:57:11 | 48.44759 | 20.90039 | 114° | 16km/h | 21947m | -22.1m/s | -53.9°C | 1.4% | 43.3hPa | 2.6V | 00:00:00 | 00:00:00 | 00:00:00 | |
| LZ4TU-5 | 2026-09-04 00:57:07 | 48.44767 | 20.90016 | 126° | 20km/h | 22018m | -16.2m/s | -53.8°C | 1.4% | 42.8hPa | 2.6V | 00:00:00 | 00:00:00 | 00:00:00 | |
| HA6NAB-11 | 2026-09-04 00:57:06 | 48.44770 | 20.90010 | 132° | 22km/h | 22035m | -17.1m/s | -53.8°C | 1.4% | 42.7hPa | 2.6V | 00:00:00 | 00:00:00 | 00:00:00 | |
| SP9KGR-15 | 2026-09-04 00:57:01 | 48.44793 | 20.89984 | 155° | 20km/h | 22128m | -22.0m/s | -53.5°C | 1.4% | 42.1hPa | 2.6V | 08:23:00 | 00:00:00 | 00:00:00 | |
| HA6NAB-11 | 2026-09-04 00:56:56 | 48.44812 | 20.89982 | 208° | 11km/h | 22256m | -22.1m/s | -53.5°C | 1.3% | 41.3hPa | 2.6V | 00:00:00 | 00:00:00 | 00:00:00 | |
| SQ9EZE-13 | 2026-09-04 00:56:55 | 48.44812 | 20.89982 | 208° | 11km/h | 22256m | -22.1m/s | -53.5°C | 1.3% | 41.3hPa | 2.6V | 00:00:00 | 00:00:00 | 00:00:00 | |
| HA6NAB-11 | 2026-09-04 00:56:49 | 48.44825 | 20.89995 | 211° | 13km/h | 22381m | -19.2m/s | -54.1°C | 1.5% | 40.4hPa | 2.6V | 00:00:00 | 00:00:00 | 00:00:00 | |
| SP9KGR-15 | 2026-09-04 00:56:46 | 48.44835 | 20.89999 | 187° | 16km/h | 22446m | -21.5m/s | -53.9°C | 1.4% | 40.1hPa | 2.6V | 08:23:00 | 00:00:00 | 00:00:00 | |
| SQ9EZE-13 | 2026-09-04 00:56:39 | 48.44864 | 20.90012 | 198° | 11km/h | 22605m | -24.1m/s | -54.1°C | 1.5% | 39.1hPa | 2.6V | 00:00:00 | 00:00:00 | 00:00:00 | |
| SP9KGR-15 | 2026-09-04 00:56:30 | 48.44880 | 20.90000 | 165° | 9km/h | 22862m | -29.4m/s | -53.2°C | 1.4% | 37.7hPa | 2.6V | 08:24:00 | 00:00:00 | 00:00:00 | |
| SQ9EZE-13 | 2026-09-04 00:56:23 | 48.44897 | 20.90000 | 180° | 11km/h | 23013m | -24.7m/s | -53.1°C | 1.4% | 36.7hPa | 2.6V | 00:00:00 | 00:00:00 | 00:00:00 | |
| SP9KGR-15 | 2026-09-04 00:56:14 | 48.44910 | 20.90005 | 206° | 5km/h | 23232m | -24.1m/s | -52.8°C | 1.4% | 35.5hPa | 2.6V | 08:24:00 | 00:00:00 | 00:00:00 | |
| OE5DRO-10 | 2026-09-04 00:56:01 | 48.44939 | 20.90022 | 173° | 7km/h | 23561m | -22.2m/s | -50.7°C | 3.9% | 33.6hPa | 2.6V | 08:24:00 | 00:00:00 | 00:00:00 | |
| SP9KGR-15 | 2026-09-04 00:55:57 | 48.44940 | 20.90022 | 5° | 2km/h | 23623m | -19.2m/s | -51.0°C | 1.2% | 33.3hPa | 2.5V | 08:24:00 | 00:00:00 | 00:00:00 | |
| OE5DRO-10 | 2026-09-04 00:55:42 | 48.44912 | 20.90034 | 22° | 16km/h | 23953m | -19.6m/s | -50.3°C | 3.8% | 31.7hPa | 2.5V | 00:00:00 | 00:00:00 | 00:00:00 | |
| SQ9EZE-13 | 2026-09-04 00:55:35 | 48.44912 | 20.90004 | 112° | 20km/h | 24065m | -19.7m/s | -50.6°C | 1.1% | 31.2hPa | 2.5V | 00:00:00 | 00:00:00 | 00:00:00 | |
| SP9KGR-15 | 2026-09-04 00:55:28 | 48.44930 | 20.89951 | 136° | 16km/h | 24261m | -21.7m/s | -50.7°C | 1.2% | 30.2hPa | 2.5V | 00:00:00 | 00:00:00 | 00:00:00 | |
| LZ4TU-5 | 2026-09-04 00:55:24 | 48.44941 | 20.89940 | 154° | 16km/h | 24324m | -21.6m/s | -51.1°C | 1.2% | 30.0hPa | 2.5V | 00:00:00 | 00:00:00 | 00:00:00 | |
| OE5DRO-10 | 2026-09-04 00:55:23 | 48.44949 | 20.89935 | 161° | 15km/h | 24364m | -18.9m/s | -51.2°C | 3.9% | 29.7hPa | 2.5V | 00:00:00 | 00:00:00 | 00:00:00 | |
| LZ4TU-5 | 2026-09-04 00:55:20 | 48.44957 | 20.89933 | 191° | 18km/h | 24403m | -18.2m/s | -51.4°C | 1.2% | 29.6hPa | 2.5V | 00:00:00 | 00:00:00 | 00:00:00 | |
| SQ9EZE-14 | 2026-09-04 00:55:13 | 48.44984 | 20.89951 | 213° | 16km/h | 24549m | -19.0m/s | -51.9°C | 1.3% | 28.9hPa | 2.5V | 08:25:00 | 00:00:00 | 00:00:00 | |
| SP9KGR-15 | 2026-09-04 00:55:11 | 48.44990 | 20.89958 | 206° | 16km/h | 24592m | -21.4m/s | -51.7°C | 1.3% | 28.8hPa | 2.5V | 00:00:00 | 00:00:00 | 00:00:00 | |
| OE5DRO-10 | 2026-09-04 00:55:04 | 48.44999 | 20.89986 | 328° | 11km/h | 24783m | -21.4m/s | -51.2°C | 4.1% | 27.9hPa | 2.5V | 00:00:00 | 00:00:00 | 00:00:00 | |
| SQ9EZE-14 | 2026-09-04 00:54:57 | 48.44993 | 20.89972 | 85° | 15km/h | 24923m | -24.1m/s | -50.5°C | 1.2% | 27.3hPa | 2.6V | 08:25:00 | 00:00:00 | 00:00:00 | |
| SQ9EZE-13 | 2026-09-04 00:54:47 | 48.45010 | 20.89955 | 222° | 13km/h | 25203m | -29.3m/s | -50.3°C | 1.2% | 26.2hPa | 2.6V | 00:00:00 | 00:00:00 | 00:00:00 | |
| OE5DRO-10 | 2026-09-04 00:54:45 | 48.45016 | 20.89967 | 232° | 7km/h | 25296m | -34.0m/s | -50.3°C | 3.6% | 25.8hPa | 2.6V | 00:00:00 | 00:00:00 | 00:00:00 | |
| SQ9EZE-14 | 2026-09-04 00:54:42 | 48.45018 | 20.89973 | 235° | 7km/h | 25359m | -27.6m/s | -50.5°C | 1.2% | 25.6hPa | 2.6V | 08:26:00 | 00:00:00 | 00:00:00 | |
| SQ9EZE-13 | 2026-09-04 00:54:30 | 48.45009 | 20.89961 | 63° | 7km/h | 25707m | -23.4m/s | -51.5°C | 1.3% | 24.3hPa | 2.6V | 00:00:00 | 00:00:00 | 00:00:00 | |
| HA6NAB-11 | 2026-09-04 00:54:28 | 48.45007 | 20.89954 | 91° | 9km/h | 25756m | -26.4m/s | -51.5°C | 1.3% | 24.1hPa | 2.6V | 00:00:00 | 00:00:00 | 00:00:00 | |
| OE5DRO-10 | 2026-09-04 00:54:26 | 48.45007 | 20.89940 | 119° | 11km/h | 25830m | -23.4m/s | -51.2°C | 4.2% | 23.7hPa | 2.6V | 00:00:00 | 00:00:00 | 00:00:00 | |
| GYPAP8-17 | 2026-09-04 00:54:25 | 48.45007 | 20.89940 | 119° | 11km/h | 25830m | -23.4m/s | -51.2°C | 1.3% | 23.8hPa | 2.6V | 00:00:00 | 00:00:00 | 00:00:00 | |
| HA6NAB-11 | 2026-09-04 00:54:22 | 48.45012 | 20.89929 | 136° | 13km/h | 25897m | -21.3m/s | -50.9°C | 1.2% | 23.5hPa | 2.6V | 00:00:00 | 00:00:00 | 00:00:00 | |
| HA6NAB-11 | 2026-09-04 00:54:18 | 48.45024 | 20.89934 | 235° | 13km/h | 26022m | -27.2m/s | -50.6°C | 1.2% | 23.1hPa | 2.6V | 00:00:00 | 00:00:00 | 00:00:00 | |
| HA6NAB-11 | 2026-09-04 00:54:13 | 48.45023 | 20.89954 | 307° | 13km/h | 26160m | -31.0m/s | -50.0°C | 1.2% | 22.6hPa | 2.6V | 00:00:00 | 00:00:00 | 00:00:00 | |
| SQ9EZE-14 | 2026-09-04 00:54:10 | 48.45019 | 20.89961 | 308° | 11km/h | 26214m | -24.8m/s | -50.1°C | 1.2% | 22.4hPa | 2.6V | 08:26:00 | 00:00:00 | 00:00:00 | |
| SQ9EZE-13 | 2026-09-04 00:54:09 | 48.45018 | 20.89965 | 317° | 9km/h | 26236m | -22.1m/s | -50.3°C | 1.2% | 22.4hPa | 2.6V | 00:00:00 | 00:00:00 | 00:00:00 | |
| OE5DRO-10 | 2026-09-04 00:54:07 | 48.45016 | 20.89968 | 61° | 9km/h | 26294m | -19.9m/s | -50.5°C | 4.2% | 22.1hPa | 2.6V | 00:00:00 | 00:00:00 | 00:00:00 | |
| HA6NAB-11 | 2026-09-04 00:54:06 | 48.45015 | 20.89968 | 0° | 0km/h | 26316m | -22.6m/s | -50.5°C | 1.3% | 22.1hPa | 2.5V | 00:00:00 | 00:00:00 | 00:00:00 | |
| SQ9EZE-14 | 2026-09-04 00:53:55 | 48.45012 | 20.89945 | 59° | 7km/h | 26546m | -23.5m/s | -49.6°C | 1.2% | 21.3hPa | 2.5V | 00:00:00 | 00:00:00 | 00:00:00 | |
| SQ9EZE-13 | 2026-09-04 00:53:54 | 48.45011 | 20.89940 | 125° | 7km/h | 26595m | -25.3m/s | -49.5°C | 1.3% | 21.2hPa | 2.5V | 08:27:00 | 00:00:00 | 00:00:00 | |
| OE5DRO-10 | 2026-09-04 00:53:48 | 48.45025 | 20.89922 | 132° | 15km/h | 26728m | -27.6m/s | -48.9°C | 3.9% | 20.7hPa | 2.5V | 00:00:00 | 00:00:00 | 00:00:00 | |
| SQ9EZE-14 | 2026-09-04 00:53:39 | 48.45015 | 20.89928 | 351° | 11km/h | 26938m | -26.7m/s | -48.2°C | 1.2% | 20.1hPa | 2.5V | 00:00:00 | 00:00:00 | 00:00:00 | |
| SQ9EZE-13 | 2026-09-04 00:53:34 | 48.45003 | 20.89914 | 72° | 18km/h | 27058m | -21.5m/s | -47.1°C | 1.1% | 19.7hPa | 2.5V | 08:27:00 | 00:00:00 | 00:00:00 | |
| GYPAP8-17 | 2026-09-04 00:53:33 | 48.45001 | 20.89907 | 82° | 20km/h | 27079m | -20.4m/s | -47.0°C | 1.0% | 19.6hPa | 2.5V | 00:00:00 | 00:00:00 | 00:00:00 | |
| OE5DRO-10 | 2026-09-04 00:53:29 | 48.45005 | 20.89868 | 115° | 9km/h | 27188m | -25.3m/s | -46.3°C | 3.2% | 19.3hPa | 2.5V | 00:00:00 | 00:00:00 | 00:00:00 | |
| OE5DXL-15 | 2026-09-04 00:53:19 | 48.45030 | 20.89847 | 198° | 11km/h | 27412m | -24.0m/s | -45.9°C | 3.0% | 18.6hPa | 2.5V | 00:00:00 | 00:00:00 | 00:00:00 | |
| SQ9EZE-13 | 2026-09-04 00:53:18 | 48.45030 | 20.89847 | 198° | 5km/h | 27412m | -24.0m/s | -45.9°C | 0.9% | 18.7hPa | 2.5V | 08:27:00 | 00:00:00 | 00:00:00 | |
| OE5DRO-10 | 2026-09-04 00:53:10 | 48.45027 | 20.89855 | 342° | 16km/h | 27608m | -22.5m/s | -46.8°C | 3.3% | 18.1hPa | 2.5V | 08:27:00 | 00:00:00 | 00:00:00 | |
| SQ9EZE-13 | 2026-09-04 00:53:03 | 48.45010 | 20.89855 | 15° | 11km/h | 27740m | -24.0m/s | -46.8°C | 1.0% | 17.8hPa | 2.5V | 00:00:00 | 00:00:00 | 00:00:00 | |
| OE5DRO-10 | 2026-09-04 00:52:51 | 48.45003 | 20.89771 | 111° | 9km/h | 28046m | -26.3m/s | -46.8°C | 3.3% | 16.9hPa | 2.5V | 00:00:00 | 00:00:00 | 00:00:00 | |
| OE5DXL-15 | 2026-09-04 00:52:48 | 48.45005 | 20.89758 | 101° | 9km/h | 28118m | -22.3m/s | -46.7°C | 3.3% | 16.7hPa | 2.5V | 00:00:00 | 00:00:00 | 00:00:00 | |
| GYPAP8-17 | 2026-09-04 00:52:40 | 48.45001 | 20.89729 | 89° | 7km/h | 28268m | -14.6m/s | -46.5°C | 1.0% | 16.4hPa | 2.5V | 00:00:00 | 00:00:00 | 00:00:00 | |
| SQ9EZE-13 | 2026-09-04 00:52:32 | 48.45008 | 20.89735 | 268° | 4km/h | 28423m | -19.5m/s | -46.3°C | 1.0% | 16.0hPa | 2.5V | 00:00:00 | 00:00:00 | 00:00:00 | |
| LZ4TU-5 | 2026-09-04 00:52:27 | 48.45004 | 20.89736 | 41° | 7km/h | 28497m | -17.1m/s | -46.1°C | 1.0% | 15.8hPa | 2.5V | 00:00:00 | 00:00:00 | 00:00:00 | |
| LZ4TU-5 | 2026-09-04 00:52:22 | 48.44999 | 20.89723 | 49° | 7km/h | 28595m | -23.0m/s | 0°C | 0% | 15.6hPa | 2.5V | 00:00:00 | 00:00:00 | 00:00:00 | |
| SQ9EZE-13 | 2026-09-04 00:52:16 | 48.44995 | 20.89723 | 260° | 7km/h | 28729m | -24.9m/s | -45.6°C | 1.0% | 15.3hPa | 2.5V | 00:00:00 | 00:00:00 | 00:00:00 | |
| OE5DXL-15 | 2026-09-04 00:52:15 | 48.44995 | 20.89728 | 255° | 13km/h | 28777m | -22.6m/s | -45.7°C | 3.2% | 15.1hPa | 2.5V | 00:00:00 | 00:00:00 | 00:00:00 | |
| OE5DRO-10 | 2026-09-04 00:52:13 | 48.44995 | 20.89731 | 340° | 13km/h | 28823m | -24.3m/s | -45.8°C | 3.2% | 15.1hPa | 2.5V | 00:00:00 | 00:00:00 | 00:00:00 | |
| SQ9EZE-13 | 2026-09-04 00:52:00 | 48.44973 | 20.89687 | 80° | 16km/h | 29116m | -19.5m/s | -45.5°C | 1.0% | 14.4hPa | 2.6V | 00:00:00 | 00:00:00 | 00:00:00 | |
| OE5DRO-10 | 2026-09-04 00:51:54 | 48.44962 | 20.89660 | 30° | 13km/h | 29257m | -24.4m/s | -45.0°C | 3.3% | 14.1hPa | 2.6V | 00:00:00 | 00:00:00 | 00:00:00 | |
| OE5DXL-15 | 2026-09-04 00:51:45 | 48.44942 | 20.89626 | 83° | 16km/h | 29484m | -20.1m/s | -44.1°C | 3.2% | 13.6hPa | 2.6V | 00:00:00 | 00:00:00 | 00:00:00 | |
| OE5DRO-10 | 2026-09-04 00:51:35 | 48.44951 | 20.89590 | 342° | 18km/h | 29719m | -25.7m/s | -42.9°C | 2.9% | 13.1hPa | 2.6V | 00:00:00 | 00:00:00 | 00:00:00 | |
| GYPAP8-17 | 2026-09-04 00:51:34 | 48.44951 | 20.89590 | 342° | 5km/h | 29719m | -25.7m/s | -43.0°C | 0.9% | 13.2hPa | 2.6V | 08:28:00 | 00:00:00 | 00:00:00 | |
| OE5DRO-10 | 2026-09-04 00:51:16 | 48.44894 | 20.89499 | 45° | 31km/h | 30118m | -15.4m/s | -42.1°C | 2.8% | 12.3hPa | 2.6V | 00:00:00 | 00:00:00 | 00:00:00 | |
| OE5DXL-15 | 2026-09-04 00:51:15 | 48.44889 | 20.89490 | 53° | 26km/h | 30134m | -16.5m/s | -42.2°C | 2.8% | 12.3hPa | 2.6V | 00:00:00 | 00:00:00 | 00:00:00 | |
| SQ9EZE-13 | 2026-09-04 00:51:04 | 48.44853 | 20.89399 | 73° | 38km/h | 30373m | -23.8m/s | -42.0°C | 0.9% | 11.9hPa | 2.5V | 08:29:00 | 00:00:00 | 00:00:00 | |
| OE5DRO-10 | 2026-09-04 00:50:57 | 48.44840 | 20.89303 | 82° | 13km/h | 30531m | -23.5m/s | -41.9°C | 2.9% | 11.6hPa | 2.5V | 00:00:00 | 00:00:00 | 00:00:00 | |
| SQ9EZE-13 | 2026-09-04 00:50:47 | 48.44847 | 20.89241 | 118° | 18km/h | 30755m | -25.0m/s | -40.9°C | 0.8% | 11.3hPa | 2.5V | 08:29:00 | 00:00:00 | 00:00:00 | |
| OE5DXL-15 | 2026-09-04 00:50:45 | 48.44851 | 20.89237 | 252° | 18km/h | 30829m | -26.0m/s | -40.6°C | 2.6% | 11.1hPa | 2.5V | 00:00:00 | 00:00:00 | 00:00:00 | |
| OE5DRO-10 | 2026-09-04 00:50:38 | 48.44847 | 20.89241 | 71° | 22km/h | 30978m | -21.5m/s | -40.4°C | 2.6% | 10.9hPa | 2.5V | 00:00:00 | 00:00:00 | 00:00:00 | |
| GYPAP8-17 | 2026-09-04 00:50:37 | 48.44846 | 20.89234 | 76° | 22km/h | 30999m | -19.8m/s | -40.4°C | 0.8% | 10.9hPa | 2.5V | 08:29:00 | 00:00:00 | 00:00:00 | |
| SQ9EZE-13 | 2026-09-04 00:50:32 | 48.44842 | 20.89209 | 78° | 11km/h | 31103m | -27.7m/s | -40.4°C | 0.8% | 10.7hPa | 2.5V | 00:00:00 | 00:00:00 | 00:00:00 | |
| OE5DRO-10 | 2026-09-04 00:50:19 | 48.44779 | 20.89134 | 52° | 16km/h | 31526m | -39.2m/s | -39.6°C | 2.4% | 10.1hPa | 2.5V | 00:00:00 | 00:00:00 | 08:30:00 | |
| SQ9EZE-13 | 2026-09-04 00:50:17 | 48.44773 | 20.89123 | 52° | 18km/h | 31603m | -37.5m/s | -39.4°C | 0.7% | 10.0hPa | 2.5V | 00:00:00 | 00:00:00 | 00:00:00 | |
| OE5DXL-15 | 2026-09-04 00:50:15 | 48.44766 | 20.89113 | 43° | 20km/h | 31677m | -36.5m/s | -39.2°C | 2.3% | 9.8hPa | 2.5V | 00:00:00 | 00:00:00 | 00:00:00 | |
| HA6NAB-11 | 2026-09-04 00:50:10 | 48.44749 | 20.89088 | 56° | 18km/h | 31847m | -31.6m/s | -39.9°C | 0.7% | 9.6hPa | 2.5V | 00:00:00 | 00:00:00 | 00:00:00 | |
| HA6NAB-11 | 2026-09-04 00:50:04 | 48.44739 | 20.89056 | 84° | 11km/h | 32020m | -28.7m/s | -40.2°C | 0.8% | 9.4hPa | 2.5V | 00:00:00 | 00:00:00 | 00:00:00 | |
| OE5DRO-10 | 2026-09-04 00:50:00 | 48.44735 | 20.89046 | 26° | 26km/h | 32139m | -32.1m/s | -40.1°C | 2.4% | 9.2hPa | 2.5V | 00:00:00 | 00:00:00 | 00:00:00 | |
| HA6NAB-11 | 2026-09-04 00:49:57 | 48.44728 | 20.89042 | 19° | 20km/h | 32198m | -26.3m/s | -40.2°C | 0.8% | 9.1hPa | 2.5V | 00:00:00 | 00:00:00 | 00:00:00 | |
| SQ9EZE-14 | 2026-09-04 00:49:55 | 48.44717 | 20.89036 | 23° | 27km/h | 32243m | -20.1m/s | -40.2°C | 0.7% | 9.1hPa | 2.5V | 00:00:00 | 00:00:00 | 00:00:00 | |
| HA6NAB-11 | 2026-09-04 00:49:52 | 48.44689 | 20.89015 | 27° | 24km/h | 32316m | -20.1m/s | -40.2°C | 0.7% | 9.0hPa | 2.5V | 00:00:00 | 00:00:00 | 00:00:00 | |
| OE5DXL-15 | 2026-09-04 00:49:45 | 48.44648 | 20.88992 | 18° | 22km/h | 32334m | 5.4m/s | -40.3°C | 2.5% | 8.9hPa | 2.5V | 00:00:00 | 00:00:00 | 08:30:00 | |
| OE5DRO-10 | 2026-09-04 00:49:41 | 48.44619 | 20.88978 | 33° | 24km/h | 32314m | 4.5m/s | -40.4°C | 2.5% | 8.9hPa | 2.6V | 00:00:00 | 00:00:00 | 00:00:00 | |
| HA6NAB-11 | 2026-09-04 00:49:39 | 48.44613 | 20.88971 | 44° | 31km/h | 32308m | 6.3m/s | -40.5°C | 0.8% | 8.9hPa | 2.6V | 00:00:00 | 00:00:00 | 00:00:00 | |
| HA6NAB-11 | 2026-09-04 00:49:32 | 48.44592 | 20.88932 | 348° | 13km/h | 32273m | 4.0m/s | -40.5°C | 0.8% | 9.0hPa | 2.6V | 00:00:00 | 00:00:00 | 00:00:00 | |
| HA6NAB-11 | 2026-09-04 00:49:26 | 48.44553 | 20.88917 | 24° | 37km/h | 32241m | 5.3m/s | -40.7°C | 0.8% | 9.0hPa | 2.6V | 00:00:00 | 00:00:00 | 00:00:00 | |
| OE5DRO-10 | 2026-09-04 00:49:22 | 48.44530 | 20.88897 | 107° | 20km/h | 32217m | 6.7m/s | -40.7°C | 2.6% | 9.0hPa | 2.6V | 00:00:00 | 00:00:00 | 00:00:00 | |
| OE5DXL-15 | 2026-09-04 00:49:15 | 48.44537 | 20.88874 | 6° | 18km/h | 32178m | 5.2m/s | -40.9°C | 2.6% | 9.1hPa | 2.5V | 00:00:00 | 00:00:00 | 00:00:00 | |
| SQ9EZE-13 | 2026-09-04 00:49:06 | 48.44495 | 20.88832 | 131° | 7km/h | 32135m | 6.9m/s | -41.1°C | 0.8% | 9.2hPa | 2.5V | 00:00:00 | 00:00:00 | 00:00:00 | |
| OE5DRO-10 | 2026-09-04 00:49:03 | 48.44506 | 20.88827 | 133° | 16km/h | 32115m | 5.4m/s | -41.0°C | 2.6% | 9.2hPa | 2.5V | 00:00:00 | 00:00:00 | 00:00:00 | |
| SQ9EZE-13 | 2026-09-04 00:48:49 | 48.44467 | 20.88758 | 136° | 4km/h | 32034m | 6.7m/s | -41.0°C | 0.8% | 9.3hPa | 2.5V | 00:00:00 | 00:00:00 | 00:00:00 | |
| OE5DXL-15 | 2026-09-04 00:48:45 | 48.44465 | 20.88753 | 58° | 18km/h | 32013m | 6.3m/s | -40.9°C | 2.7% | 9.3hPa | 2.5V | 00:00:00 | 00:00:00 | 00:00:00 | |
| OE5DRO-10 | 2026-09-04 00:48:44 | 48.44463 | 20.88748 | 62° | 18km/h | 32006m | 6.9m/s | -40.9°C | 2.6% | 9.3hPa | 2.5V | 00:00:00 | 00:00:00 | 00:00:00 | |
| SQ9EZE-13 | 2026-09-04 00:48:29 | 48.44440 | 20.88684 | 64° | 22km/h | 31916m | 6.1m/s | -40.6°C | 0.8% | 9.5hPa | 2.5V | 00:00:00 | 00:00:00 | 00:00:00 | |
| OE5DRO-10 | 2026-09-04 00:48:25 | 48.44424 | 20.88648 | 47° | 20km/h | 31891m | 5.7m/s | -40.4°C | 2.6% | 9.5hPa | 2.5V | 00:00:00 | 00:00:00 | 00:00:00 | |
| OE5DXL-15 | 2026-09-04 00:48:15 | 48.44410 | 20.88592 | 78° | 22km/h | 31826m | 6.5m/s | -40.2°C | 2.5% | 9.6hPa | 2.5V | 00:00:00 | 00:00:00 | 00:00:00 | |
| SQ9EZE-13 | 2026-09-04 00:48:12 | 48.44403 | 20.88568 | 63° | 26km/h | 31808m | 7.2m/s | -40.2°C | 0.8% | 9.6hPa | 2.5V | 00:00:00 | 00:00:00 | 00:00:00 | |
| OE5DRO-10 | 2026-09-04 00:48:06 | 48.44387 | 20.88532 | 28° | 22km/h | 31769m | 6.3m/s | -40.1°C | 2.5% | 9.6hPa | 2.5V | 00:00:00 | 00:00:00 | 00:00:00 | |
| SQ9EZE-13 | 2026-09-04 00:47:55 | 48.44365 | 20.88449 | 60° | 26km/h | 31704m | 5.9m/s | -40.5°C | 0.8% | 9.8hPa | 2.5V | 00:00:00 | 00:00:00 | 00:00:00 | |
| SQ9EZE-14 | 2026-09-04 00:47:54 | 48.44362 | 20.88441 | 67° | 24km/h | 31698m | 7.1m/s | -40.5°C | 0.8% | 9.8hPa | 2.5V | 00:00:00 | 00:00:00 | 00:00:00 | |
| OE5DRO-10 | 2026-09-04 00:47:47 | 48.44351 | 20.88390 | 56° | 33km/h | 31649m | 5.7m/s | -40.4°C | 2.5% | 9.8hPa | 2.5V | 00:00:00 | 00:00:00 | 00:00:00 | |
| OE5DXL-15 | 2026-09-04 00:47:45 | 48.44343 | 20.88368 | 67° | 31km/h | 31635m | 7.4m/s | -40.4°C | 2.6% | 9.8hPa | 2.5V | 00:00:00 | 00:00:00 | 00:00:00 | |
| HA6NAB-11 | 2026-09-04 00:47:41 | 48.44330 | 20.88325 | 62° | 38km/h | 31617m | 5.6m/s | -40.5°C | 0.8% | 9.9hPa | 2.5V | 00:00:00 | 00:00:00 | 00:00:00 | |
| SQ9EZE-13 | 2026-09-04 00:47:40 | 48.44320 | 20.88305 | 41° | 27km/h | 31603m | 7.2m/s | -40.5°C | 0.8% | 9.9hPa | 2.5V | 00:00:00 | 00:00:00 | 00:00:00 | |
| SQ9EZE-14 | 2026-09-04 00:47:38 | 48.44315 | 20.88300 | 32° | 22km/h | 31596m | 6.3m/s | -40.5°C | 0.8% | 10.0hPa | 2.5V | 00:00:00 | 00:00:00 | 00:00:00 | |
| HA6NAB-11 | 2026-09-04 00:47:36 | 48.44307 | 20.88292 | 38° | 18km/h | 31582m | 6.9m/s | -40.4°C | 0.8% | 10.0hPa | 2.5V | 00:00:00 | 00:00:00 | 00:00:00 | |
| HA6NAB-11 | 2026-09-04 00:47:30 | 48.44275 | 20.88240 | 41° | 44km/h | 31543m | 6.7m/s | -40.6°C | 0.8% | 10.0hPa | 2.5V | 00:00:00 | 00:00:00 | 00:00:00 | |
| OE5DRO-10 | 2026-09-04 00:47:28 | 48.44251 | 20.88208 | 47° | 26km/h | 31526m | 6.7m/s | -40.4°C | 2.6% | 10.0hPa | 2.5V | 00:00:00 | 00:00:00 | 08:30:00 | |
| HA6NAB-11 | 2026-09-04 00:47:24 | 48.44238 | 20.88177 | 68° | 26km/h | 31506m | 5.7m/s | -40.4°C | 0.8% | 10.1hPa | 2.5V | 00:00:00 | 00:00:00 | 00:00:00 | |
| SQ9EZE-13 | 2026-09-04 00:47:22 | 48.44232 | 20.88162 | 55° | 20km/h | 31494m | 6.7m/s | -40.3°C | 0.8% | 10.1hPa | 2.5V | 00:00:00 | 00:00:00 | 00:00:00 | |
| HA6NAB-11 | 2026-09-04 00:47:19 | 48.44218 | 20.88148 | 27° | 26km/h | 31473m | 6.0m/s | -40.2°C | 0.8% | 10.1hPa | 2.5V | 00:00:00 | 00:00:00 | 00:00:00 | |
| OE5DXL-15 | 2026-09-04 00:47:15 | 48.44198 | 20.88108 | 75° | 18km/h | 31440m | 6.0m/s | -40.1°C | 2.5% | 10.1hPa | 2.5V | 00:00:00 | 00:00:00 | 00:00:00 | |
| HA6NAB-11 | 2026-09-04 00:47:14 | 48.44196 | 20.88096 | 74° | 31km/h | 31433m | 7.1m/s | -40.2°C | 0.8% | 10.2hPa | 2.5V | 00:00:00 | 00:00:00 | 00:00:00 | |
| OE5DRO-10 | 2026-09-04 00:47:09 | 48.44184 | 20.88062 | 65° | 16km/h | 31400m | 7.6m/s | -40.2°C | 2.5% | 10.2hPa | 2.5V | 00:00:00 | 00:00:00 | 00:00:00 | |
| HA6NAB-11 | 2026-09-04 00:47:08 | 48.44184 | 20.88059 | 85° | 7km/h | 31393m | 6.9m/s | -40.3°C | 0.8% | 10.3hPa | 2.5V | 00:00:00 | 00:00:00 | 00:00:00 | |
| SQ9EZE-13 | 2026-09-04 00:47:06 | 48.44184 | 20.88054 | 71° | 7km/h | 31381m | 5.5m/s | -40.3°C | 0.8% | 10.3hPa | 2.5V | 00:00:00 | 00:00:00 | 00:00:00 | |
| HA6NAB-11 | 2026-09-04 00:47:02 | 48.44171 | 20.88034 | 47° | 29km/h | 31354m | 6.3m/s | -40.5°C | 0.8% | 10.3hPa | 2.5V | 00:00:00 | 00:00:00 | 00:00:00 | |
| OE5DRO-10 | 2026-09-04 00:46:50 | 48.44138 | 20.87977 | 65° | 15km/h | 31276m | 6.9m/s | -40.8°C | 2.6% | 10.4hPa | 2.5V | 00:00:00 | 00:00:00 | 00:00:00 | |
| SQ9EZE-13 | 2026-09-04 00:46:48 | 48.44137 | 20.87971 | 76° | 18km/h | 31269m | 6.5m/s | -40.9°C | 0.8% | 10.5hPa | 2.5V | 00:00:00 | 00:00:00 | 00:00:00 | |
| OE5DXL-15 | 2026-09-04 00:46:45 | 48.44131 | 20.87945 | 63° | 13km/h | 31243m | 5.8m/s | -41.0°C | 2.7% | 10.4hPa | 2.5V | 00:00:00 | 00:00:00 | 00:00:00 | |
| OE5DRO-10 | 2026-09-04 00:46:31 | 48.44117 | 20.87882 | 105° | 11km/h | 31150m | 7.2m/s | -40.6°C | 2.7% | 10.6hPa | 2.6V | 00:00:00 | 00:00:00 | 00:00:00 | |
| SQ9EZE-13 | 2026-09-04 00:46:16 | 48.44123 | 20.87837 | 114° | 18km/h | 31059m | 6.5m/s | -40.1°C | 0.8% | 10.8hPa | 2.5V | 00:00:00 | 00:00:00 | 00:00:00 | |
| OE5DXL-15 | 2026-09-04 00:46:15 | 48.44128 | 20.87827 | 139° | 9km/h | 31047m | 6.1m/s | -40.1°C | 2.5% | 10.7hPa | 2.5V | 00:00:00 | 00:00:00 | 00:00:00 | |
| OE5DRO-10 | 2026-09-04 00:46:12 | 48.44135 | 20.87822 | 177° | 7km/h | 31027m | 5.7m/s | -40.2°C | 2.5% | 10.8hPa | 2.5V | 00:00:00 | 00:00:00 | 00:00:00 | |
| PETON7-10 | 2026-09-04 00:46:10 | 48.44136 | 20.87821 | 124° | 11km/h | 31014m | 7.2m/s | 0°C | 0% | 0hPa | 2.5V | 00:00:00 | 02:07:18 | 00:00:00 | |
| SQ9EZE-13 | 2026-09-04 00:46:01 | 48.44143 | 20.87810 | 168° | 20km/h | 30957m | 6.1m/s | -40.3°C | 0.8% | 10.9hPa | 2.5V | 00:00:00 | 00:00:00 | 00:00:00 | |
| OE5DRO-10 | 2026-09-04 00:45:53 | 48.44157 | 20.87810 | 71° | 15km/h | 30909m | 6.1m/s | -40.2°C | 2.6% | 11.0hPa | 2.5V | 00:00:00 | 00:00:00 | 00:00:00 | |
| OE5DXL-15 | 2026-09-04 00:45:45 | 48.44169 | 20.87779 | 138° | 20km/h | 30861m | 7.3m/s | -40.3°C | 2.5% | 11.1hPa | 2.5V | 00:00:00 | 00:00:00 | 00:00:00 | |
| SQ9EZE-13 | 2026-09-04 00:45:44 | 48.44169 | 20.87779 | 138° | 26km/h | 30861m | 7.4m/s | -40.4°C | 0.8% | 11.1hPa | 2.5V | 00:00:00 | 00:00:00 | 00:00:00 | |
| OE5DRO-10 | 2026-09-04 00:45:34 | 48.44207 | 20.87740 | 143° | 22km/h | 30798m | 5.7m/s | -40.6°C | 2.5% | 11.1hPa | 2.5V | 00:00:00 | 00:00:00 | 00:00:00 | |
| SQ9EZE-14 | 2026-09-04 00:45:32 | 48.44212 | 20.87734 | 150° | 26km/h | 30792m | 6.5m/s | -40.7°C | 0.8% | 11.2hPa | 2.5V | 00:00:00 | 00:00:00 | 00:00:00 | |
| SQ9EZE-13 | 2026-09-04 00:45:28 | 48.44239 | 20.87712 | 146° | 35km/h | 30770m | 6.1m/s | -40.8°C | 0.8% | 11.2hPa | 2.5V | 00:00:00 | 00:00:00 | 00:00:00 | |
| SQ9EZE-14 | 2026-09-04 00:45:17 | 48.44259 | 20.87661 | 115° | 26km/h | 30710m | 6.0m/s | -41.1°C | 0.8% | 11.3hPa | 2.5V | 00:00:00 | 00:00:00 | 00:00:00 | |
| OE5DRO-10 | 2026-09-04 00:45:15 | 48.44273 | 20.87630 | 131° | 27km/h | 30693m | 5.8m/s | -41.3°C | 2.6% | 11.3hPa | 2.5V | 00:00:00 | 00:00:00 | 00:00:00 | |
| SQ9EZE-13 | 2026-09-04 00:45:12 | 48.44284 | 20.87612 | 137° | 27km/h | 30683m | 5.0m/s | -41.4°C | 0.8% | 11.4hPa | 2.5V | 00:00:00 | 00:00:00 | 00:00:00 | |
| GYPAP8-17 | 2026-09-04 00:45:03 | 48.44282 | 20.87556 | 69° | 18km/h | 30634m | 3.9m/s | -41.8°C | 0.8% | 11.5hPa | 2.5V | 00:00:00 | 00:00:00 | 00:00:00 | |
| SQ9EZE-14 | 2026-09-04 00:45:02 | 48.44280 | 20.87538 | 88° | 29km/h | 30624m | 6.9m/s | -41.9°C | 0.8% | 11.5hPa | 2.5V | 00:00:00 | 00:00:00 | 00:00:00 | |
| SQ9EZE-13 | 2026-09-04 00:44:57 | 48.44286 | 20.87479 | 103° | 38km/h | 30602m | 5.4m/s | -42.0°C | 0.8% | 11.5hPa | 2.5V | 00:00:00 | 00:00:00 | 00:00:00 | |
| OE5DRO-10 | 2026-09-04 00:44:56 | 48.44288 | 20.87456 | 93° | 27km/h | 30591m | 4.9m/s | -42.1°C | 2.7% | 11.5hPa | 2.5V | 00:00:00 | 00:00:00 | 00:00:00 | |
| SQ9EZE-14 | 2026-09-04 00:44:46 | 48.44279 | 20.87361 | 99° | 18km/h | 30539m | 4.5m/s | -42.4°C | 0.9% | 11.6hPa | 2.5V | 00:00:00 | 00:00:00 | 00:00:00 | |
| SQ9EZE-13 | 2026-09-04 00:44:40 | 48.44270 | 20.87302 | 80° | 38km/h | 30510m | 4.5m/s | -42.4°C | 0.9% | 11.7hPa | 2.5V | 00:00:00 | 00:00:00 | 00:00:00 | |
| OE5DRO-10 | 2026-09-04 00:44:37 | 48.44268 | 20.87265 | 87° | 31km/h | 30494m | 5.4m/s | -42.3°C | 2.8% | 11.7hPa | 2.5V | 00:00:00 | 00:00:00 | 08:30:00 | |
| SQ9EZE-13 | 2026-09-04 00:44:24 | 48.44231 | 20.87136 | 56° | 24km/h | 30430m | 4.8m/s | -42.6°C | 0.9% | 11.8hPa | 2.6V | 00:00:00 | 00:00:00 | 00:00:00 | |
| OE5DRO-10 | 2026-09-04 00:44:18 | 48.44208 | 20.87068 | 79° | 27km/h | 30399m | 4.5m/s | -42.6°C | 2.7% | 11.8hPa | 2.6V | 00:00:00 | 00:00:00 | 00:00:00 | |
| OE5DXL-15 | 2026-09-04 00:44:15 | 48.44203 | 20.87032 | 70° | 24km/h | 30384m | 5.8m/s | -42.7°C | 2.8% | 11.9hPa | 2.6V | 00:00:00 | 00:00:00 | 00:00:00 | |
| SQ9EZE-13 | 2026-09-04 00:44:05 | 48.44174 | 20.86942 | 74° | 16km/h | 30329m | 4.7m/s | -43.2°C | 0.9% | 12.0hPa | 2.6V | 00:00:00 | 00:00:00 | 00:00:00 | |
| OE5DRO-10 | 2026-09-04 00:43:59 | 48.44169 | 20.86891 | 63° | 24km/h | 30297m | 6.1m/s | -43.0°C | 2.9% | 12.0hPa | 2.6V | 00:00:00 | 00:00:00 | 00:00:00 | |
| PETON7-10 | 2026-09-04 00:43:57 | 48.44162 | 20.86877 | 45° | 20km/h | 30286m | 4.8m/s | 0°C | 0% | 0hPa | 2.6V | 00:00:00 | 00:00:00 | 00:00:00 | |
| SQ9EZE-13 | 2026-09-04 00:43:48 | 48.44136 | 20.86816 | 79° | 15km/h | 30243m | 4.4m/s | -42.9°C | 0.9% | 12.2hPa | 2.6V | 00:00:00 | 00:00:00 | 00:00:00 | |
| OE5DXL-15 | 2026-09-04 00:43:45 | 48.44131 | 20.86784 | 73° | 22km/h | 30220m | 5.0m/s | -42.8°C | 2.8% | 12.2hPa | 2.6V | 00:00:00 | 00:00:00 | 00:00:00 | |
| OE5DRO-10 | 2026-09-04 00:43:40 | 48.44113 | 20.86748 | 48° | 26km/h | 30193m | 6.9m/s | -42.9°C | 2.8% | 12.2hPa | 2.5V | 00:00:00 | 00:00:00 | 00:00:00 | |
| SQ9EZE-13 | 2026-09-04 00:43:34 | 48.44095 | 20.86699 | 85° | 20km/h | 30158m | 4.8m/s | -43.0°C | 0.9% | 12.3hPa | 2.6V | 00:00:00 | 00:00:00 | 00:00:00 | |
| LZ4TU-5 | 2026-09-04 00:43:29 | 48.44087 | 20.86651 | 60° | 26km/h | 30129m | 6.1m/s | 0°C | 0% | 12.4hPa | 2.6V | 00:00:00 | 00:00:00 | 00:00:00 | |
| GYPAP8-17 | 2026-09-04 00:43:25 | 48.44069 | 20.86630 | 28° | 26km/h | 30107m | 5.8m/s | -43.2°C | 0.9% | 12.4hPa | 2.6V | 00:00:00 | 00:00:00 | 00:00:00 | |
| LZ4TU-5 | 2026-09-04 00:43:24 | 48.44069 | 20.86630 | 28° | 26km/h | 30107m | 5.8m/s | 0°C | 0% | 12.4hPa | 2.6V | 00:00:00 | 00:00:00 | 00:00:00 | |
| SQ9EZE-13 | 2026-09-04 00:43:18 | 48.44050 | 20.86594 | 113° | 11km/h | 30074m | 7.3m/s | -43.1°C | 0.9% | 12.5hPa | 2.6V | 00:00:00 | 00:00:00 | 00:00:00 | |
| OE5DXL-15 | 2026-09-04 00:43:15 | 48.44055 | 20.86582 | 78° | 13km/h | 30051m | 6.7m/s | -43.0°C | 2.8% | 12.5hPa | 2.6V | 00:00:00 | 00:00:00 | 00:00:00 | |
| PETON7-10 | 2026-09-04 00:43:10 | 48.44034 | 20.86555 | 16° | 16km/h | 30021m | 6.0m/s | 0°C | 0% | 0hPa | 2.6V | 00:00:00 | 00:00:00 | 00:00:00 | |
| OE5DRO-10 | 2026-09-04 00:43:02 | 48.44030 | 20.86542 | 143° | 11km/h | 29974m | 6.7m/s | -43.4°C | 2.8% | 12.6hPa | 2.6V | 00:00:00 | 00:00:00 | 00:00:00 | |
| SQ9EZE-13 | 2026-09-04 00:43:01 | 48.44030 | 20.86542 | 143° | 9km/h | 29974m | 6.8m/s | -43.5°C | 0.9% | 12.7hPa | 2.6V | 00:00:00 | 00:00:00 | 00:00:00 | |
| SP9KGR-15 | 2026-09-04 00:42:54 | 48.44029 | 20.86521 | 42° | 11km/h | 29933m | 5.8m/s | -43.9°C | 0.9% | 12.7hPa | 2.6V | 00:00:00 | 00:00:00 | 00:00:00 | |
| OE5DXL-15 | 2026-09-04 00:42:45 | 48.44027 | 20.86499 | 151° | 15km/h | 29872m | 6.6m/s | -43.9°C | 2.9% | 12.8hPa | 2.6V | 00:00:00 | 00:00:00 | 00:00:00 | |
| SQ9EZE-13 | 2026-09-04 00:42:44 | 48.44031 | 20.86495 | 159° | 16km/h | 29866m | 5.7m/s | -44.0°C | 0.9% | 12.9hPa | 2.6V | 00:00:00 | 00:00:00 | 00:00:00 | |
| OE5DRO-10 | 2026-09-04 00:42:43 | 48.44034 | 20.86493 | 158° | 13km/h | 29860m | 5.7m/s | -43.9°C | 2.9% | 12.8hPa | 2.6V | 00:00:00 | 00:00:00 | 00:00:00 | |
| SQ9EZE-14 | 2026-09-04 00:42:42 | 48.44034 | 20.86493 | 159° | 15km/h | 29860m | 5.7m/s | -44.0°C | 0.9% | 12.9hPa | 2.6V | 00:00:00 | 00:00:00 | 00:00:00 | |
| SP9KGR-15 | 2026-09-04 00:42:39 | 48.44041 | 20.86485 | 121° | 7km/h | 29841m | 5.8m/s | -44.0°C | 0.9% | 12.9hPa | 2.6V | 00:00:00 | 00:00:00 | 00:00:00 | |
| GYPAP8-17 | 2026-09-04 00:42:30 | 48.44049 | 20.86456 | 121° | 22km/h | 29784m | 6.9m/s | -44.2°C | 0.9% | 13.0hPa | 2.6V | 00:00:00 | 00:00:00 | 00:00:00 | |
| SQ9EZE-14 | 2026-09-04 00:42:28 | 48.44060 | 20.86438 | 139° | 20km/h | 29766m | 5.3m/s | -44.2°C | 0.9% | 13.1hPa | 2.6V | 00:00:00 | 00:00:00 | 00:00:00 | |
| SQ9EZE-13 | 2026-09-04 00:42:25 | 48.44067 | 20.86423 | 101° | 15km/h | 29745m | 6.6m/s | -44.2°C | 0.9% | 13.1hPa | 2.6V | 00:00:00 | 00:00:00 | 00:00:00 | |
| OE5DRO-10 | 2026-09-04 00:42:24 | 48.44067 | 20.86417 | 92° | 16km/h | 29739m | 6.3m/s | -44.2°C | 3.0% | 13.1hPa | 2.6V | 00:00:00 | 00:00:00 | 00:00:00 | |
| SP9KGR-15 | 2026-09-04 00:42:22 | 48.44067 | 20.86413 | 91° | 9km/h | 29732m | 7.4m/s | -44.3°C | 0.9% | 13.1hPa | 2.6V | 00:00:00 | 00:00:00 | 00:00:00 | |
| OE5DXL-15 | 2026-09-04 00:42:15 | 48.44071 | 20.86368 | 121° | 16km/h | 29681m | 7.4m/s | -44.5°C | 3.0% | 13.2hPa | 2.6V | 00:00:00 | 00:00:00 | 00:00:00 | |
| SQ9EZE-13 | 2026-09-04 00:42:09 | 48.44090 | 20.86335 | 113° | 20km/h | 29641m | 6.1m/s | -44.6°C | 0.9% | 13.3hPa | 2.6V | 00:00:00 | 00:00:00 | 00:00:00 | |
| SP9KGR-15 | 2026-09-04 00:42:07 | 48.44091 | 20.86328 | 110° | 18km/h | 29635m | 6.5m/s | -44.6°C | 0.9% | 13.3hPa | 2.6V | 00:00:00 | 00:00:00 | 00:00:00 | |
| OE5DRO-10 | 2026-09-04 00:42:05 | 48.44095 | 20.86311 | 107° | 16km/h | 29616m | 5.3m/s | -44.6°C | 3.0% | 13.3hPa | 2.6V | 00:00:00 | 00:00:00 | 00:00:00 | |
| SP9KGR-15 | 2026-09-04 00:41:51 | 48.44099 | 20.86242 | 61° | 22km/h | 29533m | 5.5m/s | -45.2°C | 1.0% | 13.5hPa | 2.6V | 00:00:00 | 00:00:00 | 00:00:00 | |
| OE5DRO-10 | 2026-09-04 00:41:46 | 48.44095 | 20.86206 | 100° | 18km/h | 29497m | 6.0m/s | -45.5°C | 3.2% | 13.5hPa | 2.6V | 00:00:00 | 00:00:00 | 08:30:00 | |
| OE5DXL-15 | 2026-09-04 00:41:45 | 48.44096 | 20.86201 | 87° | 20km/h | 29490m | 7.3m/s | -45.5°C | 3.2% | 13.6hPa | 2.6V | 00:00:00 | 00:00:00 | 00:00:00 | |
| LZ4TU-5 | 2026-09-04 00:41:42 | 48.44092 | 20.86180 | 68° | 20km/h | 29471m | 5.1m/s | 0°C | 0% | 13.6hPa | 2.6V | 00:00:00 | 00:00:00 | 00:00:00 | |
| LZ4TU-5 | 2026-09-04 00:41:37 | 48.44089 | 20.86160 | 114° | 9km/h | 29446m | 6.0m/s | 0°C | 0% | 13.7hPa | 2.6V | 00:00:00 | 00:00:00 | 00:00:00 | |
| SP9KGR-15 | 2026-09-04 00:41:35 | 48.44090 | 20.86153 | 95° | 13km/h | 29434m | 6.2m/s | -45.4°C | 1.0% | 13.7hPa | 2.6V | 00:00:00 | 00:00:00 | 00:00:00 | |
| OE5DRO-10 | 2026-09-04 00:41:27 | 48.44067 | 20.86091 | 62° | 22km/h | 29376m | 7.3m/s | -45.4°C | 3.1% | 13.8hPa | 2.6V | 00:00:00 | 00:00:00 | 00:00:00 | |
| OE5DXL-15 | 2026-09-04 00:41:15 | 48.44052 | 20.85997 | 54° | 18km/h | 29300m | 6.5m/s | -45.3°C | 3.1% | 14.0hPa | 2.6V | 00:00:00 | 00:00:00 | 00:00:00 | |
| OE5DRO-10 | 2026-09-04 00:41:08 | 48.44042 | 20.85947 | 91° | 18km/h | 29259m | 5.4m/s | -45.4°C | 3.1% | 14.0hPa | 2.6V | 00:00:00 | 00:00:00 | 00:00:00 | |
| SQ9EZE-13 | 2026-09-04 00:40:57 | 48.44037 | 20.85889 | 65° | 18km/h | 29197m | 7.2m/s | -45.5°C | 1.0% | 14.2hPa | 2.6V | 00:00:00 | 00:00:00 | 00:00:00 | |
| OE5DRO-10 | 2026-09-04 00:40:49 | 48.44030 | 20.85825 | 62° | 20km/h | 29142m | 5.6m/s | -45.5°C | 3.1% | 14.3hPa | 2.6V | 00:00:00 | 00:00:00 | 00:00:00 | |
| PETON7-10 | 2026-09-04 00:40:47 | 48.44026 | 20.85817 | 52° | 22km/h | 29132m | 5.2m/s | 0°C | 0% | 0hPa | 2.5V | 00:00:00 | 00:00:00 | 00:00:00 | |
| OE5DXL-15 | 2026-09-04 00:40:45 | 48.44021 | 20.85803 | 67° | 18km/h | 29119m | 6.6m/s | -45.6°C | 3.1% | 14.3hPa | 2.5V | 00:00:00 | 00:00:00 | 08:30:00 | |
| SQ9EZE-13 | 2026-09-04 00:40:37 | 48.44006 | 20.85740 | 103° | 18km/h | 29071m | 7.1m/s | -45.7°C | 1.0% | 14.5hPa | 2.6V | 00:00:00 | 00:00:00 | 00:00:00 | |
| SQ9EZE-14 | 2026-09-04 00:40:31 | 48.44007 | 20.85703 | 56° | 18km/h | 29035m | 5.5m/s | -45.8°C | 1.0% | 14.6hPa | 2.6V | 00:00:00 | 00:00:00 | 00:00:00 | |
| OE5DRO-10 | 2026-09-04 00:40:30 | 48.44005 | 20.85697 | 59° | 16km/h | 29029m | 6.8m/s | -45.7°C | 3.2% | 14.6hPa | 2.6V | 00:00:00 | 00:00:00 | 00:00:00 | |
| SQ9EZE-13 | 2026-09-04 00:40:21 | 48.43995 | 20.85647 | 143° | 15km/h | 28975m | 5.4m/s | -45.8°C | 1.0% | 14.7hPa | 2.6V | 00:00:00 | 00:00:00 | 00:00:00 | |
| SQ9EZE-14 | 2026-09-04 00:40:15 | 48.43987 | 20.85629 | 29° | 24km/h | 28941m | 6.6m/s | -45.8°C | 1.0% | 14.8hPa | 2.6V | 00:00:00 | 00:00:00 | 00:00:00 | |
| OE5DRO-10 | 2026-09-04 00:40:11 | 48.43969 | 20.85609 | 36° | 9km/h | 28920m | 5.6m/s | -45.9°C | 3.3% | 14.8hPa | 2.6V | 00:00:00 | 00:00:00 | 00:00:00 | |
| SQ9EZE-13 | 2026-09-04 00:40:05 | 48.43967 | 20.85601 | 150° | 13km/h | 28893m | 6.6m/s | -45.9°C | 1.0% | 14.9hPa | 2.6V | 00:00:00 | 00:00:00 | 00:00:00 | |
| PETON7-10 | 2026-09-04 00:40:04 | 48.43973 | 20.85596 | 151° | 9km/h | 28882m | 3.9m/s | 0°C | 0% | 0hPa | 2.6V | 00:00:00 | 02:01:12 | 00:00:00 | |
| SQ9EZE-14 | 2026-09-04 00:39:58 | 48.43970 | 20.85599 | 344° | 11km/h | 28854m | 5.6m/s | -45.8°C | 1.0% | 15.0hPa | 2.6V | 00:00:00 | 00:00:00 | 00:00:00 | |
| OE5DRO-10 | 2026-09-04 00:39:52 | 48.43976 | 20.85596 | 188° | 7km/h | 28816m | 4.3m/s | -45.7°C | 3.2% | 15.0hPa | 2.6V | 00:00:00 | 00:00:00 | 00:00:00 | |
| OE5DXL-15 | 2026-09-04 00:39:45 | 48.43982 | 20.85587 | 340° | 9km/h | 28778m | 5.1m/s | -45.6°C | 3.2% | 15.1hPa | 2.5V | 00:00:00 | 00:00:00 | 00:00:00 | |
| SQ9EZE-14 | 2026-09-04 00:39:42 | 48.43981 | 20.85586 | 90° | 4km/h | 28767m | 6.4m/s | -45.6°C | 1.0% | 15.2hPa | 2.5V | 00:00:00 | 00:00:00 | 00:00:00 | |
| LZ4TU-5 | 2026-09-04 00:39:36 | 48.43987 | 20.85579 | 155° | 4km/h | 28733m | 4.7m/s | 0°C | 0% | 15.2hPa | 2.5V | 00:00:00 | 00:00:00 | 00:00:00 | |
| GYPAP8-17 | 2026-09-04 00:39:33 | 48.43987 | 20.85566 | 69° | 15km/h | 28710m | 4.8m/s | -45.6°C | 0.9% | 15.3hPa | 2.5V | 00:00:00 | 00:00:00 | 00:00:00 | |
| LZ4TU-5 | 2026-09-04 00:39:32 | 48.43987 | 20.85566 | 69° | 15km/h | 28710m | 4.8m/s | 0°C | 0% | 15.3hPa | 2.5V | 00:00:00 | 00:00:00 | 00:00:00 | |
| SQ9EZE-13 | 2026-09-04 00:39:29 | 48.43978 | 20.85554 | 24° | 13km/h | 28688m | 4.5m/s | -45.7°C | 1.0% | 15.4hPa | 2.5V | 00:00:00 | 00:00:00 | 00:00:00 | |
| SQ9EZE-14 | 2026-09-04 00:39:28 | 48.43975 | 20.85552 | 35° | 13km/h | 28683m | 5.5m/s | -45.8°C | 1.0% | 15.4hPa | 2.5V | 00:00:00 | 00:00:00 | 00:00:00 | |
| PETON7-10 | 2026-09-04 00:39:20 | 48.43973 | 20.85530 | 120° | 11km/h | 28638m | 5.0m/s | 0°C | 0% | 0hPa | 2.5V | 00:00:00 | 00:00:00 | 08:30:00 | |
| OE5DXL-15 | 2026-09-04 00:39:15 | 48.43968 | 20.85511 | 46° | 9km/h | 28612m | 5.6m/s | -46.0°C | 3.2% | 15.5hPa | 2.5V | 00:00:00 | 00:00:00 | 00:00:00 | |
| OE5DRO-10 | 2026-09-04 00:39:14 | 48.43964 | 20.85507 | 33° | 9km/h | 28606m | 5.3m/s | -46.0°C | 3.3% | 15.5hPa | 2.6V | 00:00:00 | 00:00:00 | 00:00:00 | |
| SP9KGR-15 | 2026-09-04 00:39:07 | 48.43953 | 20.85489 | 88° | 7km/h | 28575m | 5.6m/s | -46.1°C | 1.0% | 15.6hPa | 2.6V | 00:00:00 | 00:00:00 | 00:00:00 | |
| SQ9EZE-13 | 2026-09-04 00:38:55 | 48.43951 | 20.85462 | 131° | 5km/h | 28504m | 4.8m/s | -46.3°C | 1.0% | 15.8hPa | 2.6V | 00:00:00 | 00:00:00 | 00:00:00 | |
| OE5DXL-15 | 2026-09-04 00:38:45 | 48.43974 | 20.85447 | 145° | 9km/h | 28449m | 5.6m/s | -46.5°C | 3.3% | 15.8hPa | 2.6V | 00:00:00 | 00:00:00 | 00:00:00 | |
| SQ9EZE-13 | 2026-09-04 00:38:36 | 48.43979 | 20.85450 | 154° | 5km/h | 28401m | 4.3m/s | -46.7°C | 1.0% | 16.0hPa | 2.6V | 00:00:00 | 00:00:00 | 00:00:00 | |
| PETON7-10 | 2026-09-04 00:38:27 | 48.43986 | 20.85415 | 56° | 20km/h | 28350m | 6.0m/s | 0°C | 0% | 0hPa | 2.6V | 00:00:00 | 00:00:00 | 00:00:00 | |
| SP9KGR-15 | 2026-09-04 00:38:24 | 48.43985 | 20.85406 | 102° | 7km/h | 28334m | 5.3m/s | -46.6°C | 1.0% | 16.2hPa | 2.6V | 00:00:00 | 00:00:00 | 00:00:00 | |
| OE5DRO-10 | 2026-09-04 00:38:17 | 48.43999 | 20.85384 | 132° | 13km/h | 28294m | 3.8m/s | -46.7°C | 3.3% | 16.2hPa | 2.6V | 00:00:00 | 00:00:00 | 00:00:00 | |
| OE5DXL-15 | 2026-09-04 00:38:15 | 48.44002 | 20.85375 | 91° | 16km/h | 28283m | 6.5m/s | -46.8°C | 3.3% | 16.3hPa | 2.6V | 00:00:00 | 00:00:00 | 00:00:00 | |
| SP9KGR-15 | 2026-09-04 00:38:06 | 48.43993 | 20.85342 | 111° | 9km/h | 28231m | 5.6m/s | -47.0°C | 1.0% | 16.4hPa | 2.6V | 00:00:00 | 00:00:00 | 00:00:00 | |
| OE5DRO-10 | 2026-09-04 00:37:58 | 48.44000 | 20.85297 | 75° | 24km/h | 28185m | 5.8m/s | -47.0°C | 3.3% | 16.5hPa | 2.6V | 00:00:00 | 00:00:00 | 00:00:00 | |
| SQ9EZE-13 | 2026-09-04 00:37:57 | 48.44000 | 20.85297 | 75° | 18km/h | 28185m | 5.8m/s | -47.0°C | 1.0% | 16.6hPa | 2.5V | 00:00:00 | 00:00:00 | 00:00:00 | |
| SP9KGR-15 | 2026-09-04 00:37:49 | 48.44006 | 20.85245 | 116° | 22km/h | 28140m | 5.8m/s | -47.5°C | 1.1% | 16.7hPa | 2.5V | 00:00:00 | 00:00:00 | 00:00:00 | |
| LZ4TU-5 | 2026-09-04 00:37:48 | 48.44008 | 20.85236 | 118° | 27km/h | 28133m | 6.9m/s | 0°C | 0% | 16.7hPa | 2.5V | 00:00:00 | 00:00:00 | 00:00:00 | |
| OE5DXL-15 | 2026-09-04 00:37:45 | 48.44021 | 20.85190 | 104° | 26km/h | 28112m | 6.2m/s | -47.4°C | 3.4% | 16.7hPa | 2.5V | 00:00:00 | 00:00:00 | 00:00:00 | |
| LZ4TU-5 | 2026-09-04 00:37:44 | 48.44021 | 20.85190 | 104° | 31km/h | 28112m | 6.2m/s | 0°C | 0% | 16.7hPa | 2.6V | 00:00:00 | 00:00:00 | 00:00:00 | |
| SQ9EZE-13 | 2026-09-04 00:37:41 | 48.44021 | 20.85151 | 89° | 26km/h | 28089m | 6.7m/s | -47.4°C | 1.1% | 16.8hPa | 2.6V | 00:00:00 | 00:00:00 | 00:00:00 | |
| OE5DRO-10 | 2026-09-04 00:37:39 | 48.44023 | 20.85131 | 107° | 27km/h | 28077m | 5.4m/s | -47.4°C | 3.4% | 16.8hPa | 2.6V | 00:00:00 | 00:00:00 | 00:00:00 | |
| SP9KGR-15 | 2026-09-04 00:37:33 | 48.44037 | 20.85090 | 116° | 26km/h | 28049m | 5.6m/s | -47.4°C | 1.1% | 16.9hPa | 2.6V | 00:00:00 | 00:00:00 | 00:00:00 | |
| SQ9EZE-14 | 2026-09-04 00:37:25 | 48.44034 | 20.85007 | 65° | 22km/h | 28001m | 5.1m/s | -47.4°C | 1.1% | 17.0hPa | 2.6V | 00:00:00 | 00:00:00 | 00:00:00 | |
| SQ9EZE-13 | 2026-09-04 00:37:23 | 48.44031 | 20.84990 | 86° | 26km/h | 27989m | 6.0m/s | -47.4°C | 1.1% | 17.1hPa | 2.6V | 00:00:00 | 00:00:00 | 00:00:00 | |
| OE5DRO-10 | 2026-09-04 00:37:20 | 48.44036 | 20.84953 | 117° | 22km/h | 27966m | 6.4m/s | -47.3°C | 3.4% | 17.1hPa | 2.6V | 00:00:00 | 00:00:00 | 00:00:00 | |
| SP9KGR-15 | 2026-09-04 00:37:18 | 48.44039 | 20.84946 | 119° | 18km/h | 27960m | 5.3m/s | -47.3°C | 1.0% | 17.1hPa | 2.6V | 00:00:00 | 00:00:00 | 00:00:00 | |
| OE5DXL-15 | 2026-09-04 00:37:15 | 48.44042 | 20.84916 | 82° | 20km/h | 27937m | 6.3m/s | -47.3°C | 3.4% | 17.1hPa | 2.6V | 00:00:00 | 00:00:00 | 00:00:00 | |
| SQ9EZE-14 | 2026-09-04 00:37:10 | 48.44033 | 20.84877 | 54° | 20km/h | 27914m | 6.8m/s | -47.3°C | 1.1% | 17.3hPa | 2.6V | 00:00:00 | 00:00:00 | 00:00:00 | |
| SQ9EZE-13 | 2026-09-04 00:37:08 | 48.44025 | 20.84866 | 48° | 11km/h | 27898m | 4.7m/s | -47.2°C | 1.0% | 17.3hPa | 2.6V | 00:00:00 | 00:00:00 | 00:00:00 | |
| PETON7-10 | 2026-09-04 00:37:04 | 48.44019 | 20.84839 | 79° | 11km/h | 27874m | 5.5m/s | 0°C | 0% | 0hPa | 2.6V | 00:00:00 | 00:00:00 | 00:00:00 | |
| SP9KGR-15 | 2026-09-04 00:37:02 | 48.44018 | 20.84829 | 76° | 27km/h | 27869m | 5.6m/s | -47.2°C | 1.1% | 17.4hPa | 2.6V | 00:00:00 | 00:00:00 | 00:00:00 | |
| OE5DRO-10 | 2026-09-04 00:37:01 | 48.44014 | 20.84813 | 59° | 16km/h | 27857m | 6.0m/s | -47.2°C | 3.4% | 17.4hPa | 2.6V | 00:00:00 | 00:00:00 | 00:00:00 | |
| SQ9EZE-14 | 2026-09-04 00:36:55 | 48.44005 | 20.84797 | 62° | 11km/h | 27827m | 5.0m/s | -47.3°C | 1.1% | 17.5hPa | 2.6V | 00:00:00 | 00:00:00 | 00:00:00 | |
| SQ9EZE-13 | 2026-09-04 00:36:53 | 48.43995 | 20.84784 | 29° | 24km/h | 27809m | 7.3m/s | -47.3°C | 1.1% | 17.5hPa | 2.6V | 00:00:00 | 00:00:00 | 00:00:00 | |
| OE5DXL-15 | 2026-09-04 00:36:45 | 48.43960 | 20.84748 | 31° | 9km/h | 27760m | 6.4m/s | -47.3°C | 3.4% | 17.6hPa | 2.6V | 00:00:00 | 00:00:00 | 00:00:00 | |
| OE5DRO-10 | 2026-09-04 00:36:42 | 48.43953 | 20.84742 | 36° | 11km/h | 27742m | 5.7m/s | -47.2°C | 3.4% | 17.6hPa | 2.6V | 00:00:00 | 00:00:00 | 00:00:00 | |
| HA6NAB-11 | 2026-09-04 00:36:41 | 48.43953 | 20.84742 | 37° | 11km/h | 27742m | 5.8m/s | -47.3°C | 1.1% | 17.7hPa | 2.6V | 00:00:00 | 00:00:00 | 00:00:00 | |
| HA6NAB-11 | 2026-09-04 00:36:36 | 48.43947 | 20.84725 | 45° | 7km/h | 27712m | 7.1m/s | -47.4°C | 1.1% | 17.8hPa | 2.6V | 00:00:00 | 00:00:00 | 00:00:00 | |
| SQ9EZE-13 | 2026-09-04 00:36:34 | 48.43943 | 20.84724 | 360° | 9km/h | 27699m | 6.0m/s | -47.4°C | 1.1% | 17.8hPa | 2.6V | 00:00:00 | 00:00:00 | 00:00:00 | |
| HA6NAB-11 | 2026-09-04 00:36:30 | 48.43937 | 20.84719 | 51° | 9km/h | 27674m | 5.3m/s | -47.3°C | 1.1% | 17.9hPa | 2.6V | 00:00:00 | 00:00:00 | 00:00:00 | |
| HA6NAB-11 | 2026-09-04 00:36:24 | 48.43921 | 20.84701 | 65° | 11km/h | 27636m | 7.2m/s | -47.2°C | 1.1% | 18.0hPa | 2.6V | 00:00:00 | 00:00:00 | 00:00:00 | |
| OE5DRO-10 | 2026-09-04 00:36:23 | 48.43920 | 20.84696 | 114° | 7km/h | 27623m | 6.3m/s | -47.1°C | 3.4% | 18.0hPa | 2.6V | 00:00:00 | 00:00:00 | 00:00:00 | |
| HA6NAB-11 | 2026-09-04 00:36:18 | 48.43926 | 20.84696 | 161° | 9km/h | 27591m | 6.8m/s | -46.9°C | 1.1% | 18.1hPa | 2.6V | 00:00:00 | 00:00:00 | 00:00:00 | |
| OE5DXL-15 | 2026-09-04 00:36:15 | 48.43930 | 20.84691 | 123° | 13km/h | 27573m | 6.9m/s | -46.7°C | 3.4% | 18.1hPa | 2.6V | 00:00:00 | 00:00:00 | 08:30:00 | |
| SQ9EZE-13 | 2026-09-04 00:36:13 | 48.43931 | 20.84690 | 71° | 2km/h | 27566m | 6.1m/s | -46.7°C | 1.1% | 18.2hPa | 2.6V | 00:00:00 | 00:00:00 | 00:00:00 | |
| GYPAP8-17 | 2026-09-04 00:36:12 | 48.43930 | 20.84688 | 63° | 4km/h | 27561m | 5.6m/s | -46.7°C | 1.1% | 18.2hPa | 2.6V | 00:00:00 | 00:00:00 | 00:00:00 | |
| SP9KGR-15 | 2026-09-04 00:36:11 | 48.43930 | 20.84684 | 109° | 9km/h | 27548m | 7.1m/s | -46.7°C | 1.1% | 18.2hPa | 2.6V | 00:00:00 | 00:00:00 | 00:00:00 | |
| PETON7-10 | 2026-09-04 00:36:08 | 48.43935 | 20.84672 | 126° | 11km/h | 27530m | 6.7m/s | 0°C | 0% | 0hPa | 2.6V | 00:00:00 | 00:00:00 | 00:00:00 | |
| HA6NAB-11 | 2026-09-04 00:36:07 | 48.43935 | 20.84672 | 127° | 13km/h | 27530m | 6.8m/s | -46.6°C | 1.1% | 18.3hPa | 2.6V | 00:00:00 | 00:00:00 | 00:00:00 | |
| OE5DRO-10 | 2026-09-04 00:36:04 | 48.43942 | 20.84660 | 133° | 15km/h | 27506m | 7.1m/s | -46.5°C | 3.3% | 18.3hPa | 2.6V | 00:00:00 | 00:00:00 | 08:30:00 | |
| SP9KGR-15 | 2026-09-04 00:35:56 | 48.43957 | 20.84637 | 139° | 13km/h | 27456m | 6.5m/s | -46.5°C | 1.0% | 18.5hPa | 2.5V | 00:00:00 | 00:00:00 | 00:00:00 | |
| SQ9EZE-13 | 2026-09-04 00:35:55 | 48.43957 | 20.84637 | 139° | 13km/h | 27456m | 6.5m/s | -46.5°C | 1.0% | 18.5hPa | 2.5V | 00:00:00 | 00:00:00 | 00:00:00 | |
| LZ4TU-5 | 2026-09-04 00:35:51 | 48.43968 | 20.84625 | 154° | 13km/h | 27431m | 5.9m/s | 0°C | 0% | 18.6hPa | 2.5V | 00:00:00 | 00:00:00 | 00:00:00 | |
| OE5DXL-15 | 2026-09-04 00:35:45 | 48.43990 | 20.84592 | 116° | 24km/h | 27390m | 6.4m/s | -46.3°C | 3.3% | 18.6hPa | 2.5V | 00:00:00 | 00:00:00 | 00:00:00 | |
| SP9KGR-15 | 2026-09-04 00:35:39 | 48.43999 | 20.84570 | 134° | 20km/h | 27361m | 5.7m/s | -46.4°C | 1.0% | 18.8hPa | 2.5V | 00:00:00 | 00:00:00 | 00:00:00 | |
| PETON7-10 | 2026-09-04 00:35:34 | 48.44017 | 20.84536 | 115° | 15km/h | 27326m | 6.8m/s | 0°C | 0% | 0hPa | 2.5V | 00:00:00 | 01:56:42 | 00:00:00 | |
| OE5DRO-10 | 2026-09-04 00:35:26 | 48.44026 | 20.84460 | 106° | 26km/h | 27278m | 6.6m/s | -46.5°C | 3.3% | 19.0hPa | 2.5V | 00:00:00 | 00:00:00 | 00:00:00 | |
| SP9KGR-15 | 2026-09-04 00:35:23 | 48.44031 | 20.84440 | 117° | 27km/h | 27266m | 6.0m/s | -46.6°C | 1.0% | 19.0hPa | 2.5V | 00:00:00 | 00:00:00 | 00:00:00 | |
| OE5DXL-15 | 2026-09-04 00:35:15 | 48.44045 | 20.84347 | 74° | 20km/h | 27213m | 6.3m/s | -46.7°C | 3.2% | 19.1hPa | 2.5V | 00:00:00 | 00:00:00 | 00:00:00 | |
| GYPAP8-17 | 2026-09-04 00:35:11 | 48.44039 | 20.84325 | 76° | 18km/h | 27197m | 6.1m/s | -46.8°C | 1.0% | 19.2hPa | 2.5V | 00:00:00 | 00:00:00 | 00:00:00 | |
| SP9KGR-15 | 2026-09-04 00:35:09 | 48.44041 | 20.84303 | 117° | 22km/h | 27180m | 5.3m/s | -47.0°C | 1.0% | 19.3hPa | 2.5V | 00:00:00 | 00:00:00 | 00:00:00 | |
| OE5DRO-10 | 2026-09-04 00:35:07 | 48.44046 | 20.84291 | 120° | 20km/h | 27167m | 6.0m/s | -47.0°C | 3.3% | 19.3hPa | 2.5V | 00:00:00 | 00:00:00 | 00:00:00 | |
| SQ9EZE-14 | 2026-09-04 00:35:03 | 48.44047 | 20.84267 | 73° | 22km/h | 27145m | 6.1m/s | -47.2°C | 1.0% | 19.4hPa | 2.5V | 00:00:00 | 00:00:00 | 00:00:00 | |
| SQ9EZE-13 | 2026-09-04 00:34:59 | 48.44037 | 20.84242 | 48° | 27km/h | 27127m | 6.2m/s | -47.2°C | 1.0% | 19.4hPa | 2.5V | 00:00:00 | 00:00:00 | 00:00:00 | |
| SP9KGR-15 | 2026-09-04 00:34:54 | 48.44010 | 20.84213 | 43° | 18km/h | 27093m | 4.8m/s | -47.3°C | 1.0% | 19.5hPa | 2.5V | 00:00:00 | 00:00:00 | 00:00:00 | |
| SQ9EZE-14 | 2026-09-04 00:34:48 | 48.43988 | 20.84199 | 35° | 15km/h | 27058m | 6.0m/s | -47.8°C | 1.1% | 19.6hPa | 2.5V | 00:00:00 | 00:00:00 | 00:00:00 | |
| OE5DXL-15 | 2026-09-04 00:34:45 | 48.43980 | 20.84190 | 23° | 9km/h | 27042m | 6.3m/s | -47.8°C | 3.4% | 19.6hPa | 2.5V | 00:00:00 | 00:00:00 | 00:00:00 | |
| SQ9EZE-13 | 2026-09-04 00:34:42 | 48.43973 | 20.84189 | 6° | 15km/h | 27030m | 4.8m/s | -47.9°C | 1.1% | 19.7hPa | 2.5V | 00:00:00 | 00:00:00 | 00:00:00 | |
| SP9KGR-15 | 2026-09-04 00:34:38 | 48.43955 | 20.84180 | 9° | 16km/h | 27002m | 6.3m/s | -48.2°C | 1.1% | 19.8hPa | 2.5V | 00:00:00 | 00:00:00 | 00:00:00 | |
| OE5DRO-10 | 2026-09-04 00:34:29 | 48.43945 | 20.84189 | 3° | 11km/h | 26951m | 4.6m/s | -48.4°C | 3.6% | 19.9hPa | 2.5V | 00:00:00 | 00:00:00 | 00:00:00 | |
| SQ9EZE-13 | 2026-09-04 00:34:27 | 48.43942 | 20.84186 | 47° | 13km/h | 26940m | 6.7m/s | -48.4°C | 1.1% | 20.0hPa | 2.5V | 00:00:00 | 00:00:00 | 00:00:00 | |
| SP9KGR-15 | 2026-09-04 00:34:23 | 48.43934 | 20.84167 | 73° | 7km/h | 26917m | 6.1m/s | -48.5°C | 1.1% | 20.1hPa | 2.5V | 00:00:00 | 00:00:00 | 00:00:00 | |
| OE5DXL-15 | 2026-09-04 00:34:15 | 48.43945 | 20.84158 | 33° | 9km/h | 26872m | 5.7m/s | -48.5°C | 3.5% | 20.2hPa | 2.5V | 00:00:00 | 00:00:00 | 00:00:00 | |
| OE5DRO-10 | 2026-09-04 00:34:10 | 48.43936 | 20.84132 | 91° | 9km/h | 26846m | 4.7m/s | -48.7°C | 3.6% | 20.2hPa | 2.5V | 00:00:00 | 00:00:00 | 00:00:00 | |
| SQ9EZE-13 | 2026-09-04 00:34:09 | 48.43936 | 20.84132 | 91° | 16km/h | 26846m | 4.7m/s | -48.8°C | 1.1% | 20.3hPa | 2.5V | 00:00:00 | 00:00:00 | 00:00:00 | |
| GYPAP8-17 | 2026-09-04 00:34:07 | 48.43938 | 20.84123 | 134° | 11km/h | 26834m | 5.7m/s | -48.9°C | 1.1% | 20.3hPa | 2.5V | 00:00:00 | 00:00:00 | 00:00:00 | |
| SP9KGR-15 | 2026-09-04 00:34:06 | 48.43940 | 20.84121 | 151° | 11km/h | 26828m | 5.3m/s | -48.9°C | 1.2% | 20.4hPa | 2.5V | 00:00:00 | 00:00:00 | 00:00:00 | |
| LZ4TU-5 | 2026-09-04 00:33:59 | 48.43951 | 20.84110 | 0° | 0km/h | 26788m | 4.9m/s | 0°C | 0% | 20.5hPa | 2.5V | 00:00:00 | 00:00:00 | 00:00:00 | |
| SQ9EZE-13 | 2026-09-04 00:33:54 | 48.43947 | 20.84090 | 80° | 7km/h | 26755m | 6.3m/s | -48.9°C | 1.1% | 20.6hPa | 2.5V | 00:00:00 | 00:00:00 | 00:00:00 | |
| SP9KGR-15 | 2026-09-04 00:33:52 | 48.43948 | 20.84086 | 145° | 5km/h | 26743m | 5.3m/s | -49.0°C | 1.1% | 20.6hPa | 2.5V | 00:00:00 | 00:00:00 | 00:00:00 | |
| OE5DRO-10 | 2026-09-04 00:33:51 | 48.43949 | 20.84085 | 147° | 9km/h | 26737m | 6.7m/s | -49.0°C | 3.6% | 20.6hPa | 2.5V | 00:00:00 | 00:00:00 | 00:00:00 | |
| PETON7-10 | 2026-09-04 00:33:48 | 48.43955 | 20.84082 | 185° | 9km/h | 26721m | 6.2m/s | 0°C | 0% | 0hPa | 2.5V | 00:00:00 | 00:00:00 | 00:00:00 | |
| OE5DXL-15 | 2026-09-04 00:33:45 | 48.43956 | 20.84084 | 24° | 11km/h | 26704m | 5.3m/s | -49.2°C | 3.7% | 20.7hPa | 2.5V | 00:00:00 | 00:00:00 | 00:00:00 | |
| SQ9EZE-13 | 2026-09-04 00:33:38 | 48.43954 | 20.84065 | 105° | 9km/h | 26669m | 4.7m/s | -49.2°C | 1.2% | 20.8hPa | 2.5V | 00:00:00 | 00:00:00 | 00:00:00 | |
| SP9KGR-15 | 2026-09-04 00:33:36 | 48.43956 | 20.84057 | 112° | 13km/h | 26658m | 6.6m/s | -49.2°C | 1.2% | 20.9hPa | 2.5V | 00:00:00 | 00:00:00 | 00:00:00 | |
| OE5DRO-10 | 2026-09-04 00:33:32 | 48.43960 | 20.84038 | 76° | 9km/h | 26630m | 5.4m/s | -49.2°C | 3.6% | 20.9hPa | 2.5V | 00:00:00 | 00:00:00 | 00:00:00 | |
| SQ9EZE-13 | 2026-09-04 00:33:22 | 48.43961 | 20.84007 | 109° | 13km/h | 26581m | 4.8m/s | -49.5°C | 1.2% | 21.1hPa | 2.5V | 00:00:00 | 00:00:00 | 00:00:00 | |
| SP9KGR-15 | 2026-09-04 00:33:21 | 48.43962 | 20.83996 | 93° | 16km/h | 26569m | 5.4m/s | -49.5°C | 1.2% | 21.2hPa | 2.5V | 00:00:00 | 00:00:00 | 00:00:00 | |
| OE5DXL-15 | 2026-09-04 00:33:15 | 48.43960 | 20.83979 | 43° | 7km/h | 26538m | 4.5m/s | 0°C | 0% | 0hPa | 2.5V | 00:00:00 | 00:00:00 | 00:00:00 | |
| GYPAP8-17 | 2026-09-04 00:33:13 | 48.43956 | 20.83974 | 52° | 15km/h | 26526m | 5.6m/s | -49.5°C | 1.1% | 21.3hPa | 2.5V | 00:00:00 | 00:00:00 | 00:00:00 | |
| OE5DRO-10 | 2026-09-04 00:33:12 | 48.43954 | 20.83969 | 52° | 7km/h | 26521m | 4.4m/s | -49.5°C | 3.7% | 21.3hPa | 2.5V | 00:00:00 | 00:00:00 | 08:30:00 | |
| SQ9EZE-13 | 2026-09-04 00:33:07 | 48.43948 | 20.83956 | 85° | 4km/h | 26500m | 5.0m/s | -49.7°C | 1.2% | 21.4hPa | 2.5V | 00:00:00 | 00:00:00 | 00:00:00 | |
| SP9KGR-15 | 2026-09-04 00:33:06 | 48.43948 | 20.83954 | 98° | 4km/h | 26489m | 6.4m/s | -49.7°C | 1.2% | 21.4hPa | 2.5V | 00:00:00 | 00:00:00 | 00:00:00 | |
| PETON7-10 | 2026-09-04 00:33:05 | 48.43949 | 20.83952 | 103° | 11km/h | 26483m | 5.2m/s | 0°C | 0% | 0hPa | 2.5V | 00:00:00 | 00:00:00 | 00:00:00 | |
| OE5DRO-10 | 2026-09-04 00:32:53 | 48.43947 | 20.83925 | 69° | 9km/h | 26415m | 5.0m/s | -49.5°C | 3.7% | 21.6hPa | 2.5V | 00:00:00 | 00:00:00 | 00:00:00 | |
| SQ9EZE-13 | 2026-09-04 00:32:52 | 48.43947 | 20.83923 | 85° | 7km/h | 26409m | 6.7m/s | -49.6°C | 1.1% | 21.7hPa | 2.5V | 00:00:00 | 00:00:00 | 00:00:00 | |
| SP9KGR-15 | 2026-09-04 00:32:50 | 48.43947 | 20.83919 | 98° | 9km/h | 26403m | 5.6m/s | -49.7°C | 1.2% | 21.7hPa | 2.5V | 00:00:00 | 00:00:00 | 00:00:00 | |
| OE5DXL-15 | 2026-09-04 00:32:45 | 48.43955 | 20.83906 | 99° | 13km/h | 26372m | 6.3m/s | 0°C | 0% | 0hPa | 2.5V | 00:00:00 | 00:00:00 | 00:00:00 | |
| SQ9EZE-14 | 2026-09-04 00:32:43 | 48.43954 | 20.83903 | 58° | 9km/h | 26366m | 5.5m/s | -49.8°C | 1.2% | 21.8hPa | 2.5V | 00:00:00 | 00:00:00 | 00:00:00 | |
| SQ9EZE-13 | 2026-09-04 00:32:35 | 48.43937 | 20.83903 | 44° | 5km/h | 26320m | 5.7m/s | -50.3°C | 1.2% | 22.0hPa | 2.5V | 00:00:00 | 00:00:00 | 00:00:00 | |
| OE5DRO-10 | 2026-09-04 00:32:34 | 48.43936 | 20.83899 | 103° | 13km/h | 26309m | 5.6m/s | -50.4°C | 3.9% | 22.0hPa | 2.5V | 00:00:00 | 00:00:00 | 00:00:00 | |
| SQ9EZE-13 | 2026-09-04 00:32:20 | 48.43902 | 20.83935 | 314° | 13km/h | 26231m | 5.5m/s | -50.1°C | 1.2% | 22.3hPa | 2.5V | 00:00:00 | 00:00:00 | 00:00:00 | |
| LZ4TU-5 | 2026-09-04 00:32:18 | 48.43899 | 20.83941 | 294° | 9km/h | 26220m | 5.7m/s | 0°C | 0% | 22.3hPa | 2.5V | 00:00:00 | 00:00:00 | 00:00:00 | |
| OE5DRO-10 | 2026-09-04 00:32:15 | 48.43900 | 20.83952 | 244° | 13km/h | 26202m | 4.7m/s | -49.8°C | 3.8% | 22.3hPa | 2.5V | 00:00:00 | 00:00:00 | 00:00:00 | |
| OE5DXL-15 | 2026-09-04 00:32:14 | 48.43901 | 20.83955 | 246° | 13km/h | 26197m | 5.1m/s | 0°C | 0% | 0hPa | 2.5V | 00:00:00 | 01:53:22 | 00:00:00 | |
| LZ4TU-5 | 2026-09-04 00:32:13 | 48.43901 | 20.83955 | 246° | 9km/h | 26197m | 5.1m/s | 0°C | 0% | 22.4hPa | 2.5V | 00:00:00 | 00:00:00 | 00:00:00 | |
| GYPAP8-17 | 2026-09-04 00:32:07 | 48.43891 | 20.83971 | 310° | 18km/h | 26162m | 5.0m/s | -49.8°C | 1.2% | 22.5hPa | 2.5V | 00:00:00 | 00:00:00 | 00:00:00 | |
| SP9KGR-15 | 2026-09-04 00:32:02 | 48.43886 | 20.83995 | 240° | 15km/h | 26134m | 6.1m/s | -49.8°C | 1.2% | 22.6hPa | 2.5V | 00:00:00 | 00:00:00 | 00:00:00 | |
| SQ9EZE-13 | 2026-09-04 00:32:01 | 48.43889 | 20.84001 | 234° | 18km/h | 26128m | 7.1m/s | -49.8°C | 1.2% | 22.7hPa | 2.5V | 00:00:00 | 00:00:00 | 00:00:00 | |
| OE5DRO-10 | 2026-09-04 00:31:56 | 48.43903 | 20.84022 | 258° | 13km/h | 26094m | 4.9m/s | -50.0°C | 3.8% | 22.7hPa | 2.5V | 00:00:00 | 00:00:00 | 00:00:00 | |
| SQ9EZE-13 | 2026-09-04 00:31:46 | 48.43911 | 20.84060 | 251° | 15km/h | 26043m | 6.2m/s | -50.0°C | 1.2% | 22.9hPa | 2.5V | 00:00:00 | 00:00:00 | 00:00:00 | |
| OE5DXL-15 | 2026-09-04 00:31:44 | 48.43915 | 20.84077 | 241° | 13km/h | 26027m | 6.0m/s | 0°C | 0% | 0hPa | 2.5V | 00:00:00 | 00:00:00 | 00:00:00 | |
| PETON7-10 | 2026-09-04 00:31:40 | 48.43925 | 20.84086 | 213° | 9km/h | 26004m | 6.4m/s | 0°C | 0% | 0hPa | 2.5V | 00:00:00 | 00:00:00 | 00:00:00 | |
| OE5DRO-10 | 2026-09-04 00:31:37 | 48.43933 | 20.84097 | 214° | 9km/h | 25988m | 5.4m/s | -50.0°C | 3.8% | 23.1hPa | 2.5V | 00:00:00 | 00:00:00 | 00:00:00 | |
| OE5DRO-10 | 2026-09-04 00:31:18 | 48.43965 | 20.84092 | 66° | 9km/h | 25879m | 6.7m/s | -50.2°C | 3.9% | 23.5hPa | 2.5V | 00:00:00 | 00:00:00 | 00:00:00 | |
| SQ9EZE-13 | 2026-09-04 00:31:16 | 48.43962 | 20.84089 | 34° | 9km/h | 25867m | 4.6m/s | -50.3°C | 1.2% | 23.6hPa | 2.6V | 00:00:00 | 00:00:00 | 00:00:00 | |
| SP9KGR-15 | 2026-09-04 00:31:14 | 48.43961 | 20.84087 | 47° | 11km/h | 25862m | 5.8m/s | -50.3°C | 1.2% | 23.6hPa | 2.6V | 00:00:00 | 00:00:00 | 00:00:00 | |
| GYPAP8-17 | 2026-09-04 00:31:05 | 48.43967 | 20.84059 | 146° | 9km/h | 25809m | 4.7m/s | -50.2°C | 1.2% | 23.8hPa | 2.6V | 00:00:00 | 00:00:00 | 00:00:00 | |
| SQ9EZE-13 | 2026-09-04 00:31:00 | 48.43964 | 20.84046 | 56° | 18km/h | 25773m | 5.6m/s | -50.3°C | 1.2% | 23.9hPa | 2.6V | 00:00:00 | 00:00:00 | 00:00:00 | |
| OE5DRO-10 | 2026-09-04 00:30:59 | 48.43961 | 20.84040 | 57° | 13km/h | 25767m | 5.8m/s | -50.3°C | 3.8% | 23.9hPa | 2.6V | 00:00:00 | 00:00:00 | 00:00:00 | |
| SP9KGR-15 | 2026-09-04 00:30:58 | 48.43961 | 20.84040 | 57° | 16km/h | 25767m | 5.9m/s | -50.4°C | 1.2% | 23.9hPa | 2.6V | 00:00:00 | 00:00:00 | 00:00:00 | |
| SP9KGR-15 | 2026-09-04 00:30:43 | 48.43955 | 20.83998 | 70° | 15km/h | 25677m | 6.1m/s | -50.9°C | 1.3% | 24.3hPa | 2.6V | 00:00:00 | 00:00:00 | 00:00:00 | |
| OE5DRO-10 | 2026-09-04 00:30:40 | 48.43953 | 20.83980 | 87° | 13km/h | 25659m | 6.1m/s | -50.9°C | 4.0% | 24.3hPa | 2.6V | 00:00:00 | 00:00:00 | 00:00:00 | |
| LZ4TU-5 | 2026-09-04 00:30:29 | 48.43929 | 20.83955 | 81° | 16km/h | 25598m | 6.4m/s | 0°C | 0% | 24.6hPa | 2.6V | 00:00:00 | 00:00:00 | 00:00:00 | |
| SQ9EZE-13 | 2026-09-04 00:30:28 | 48.43929 | 20.83955 | 81° | 16km/h | 25598m | 6.4m/s | -50.8°C | 1.3% | 24.6hPa | 2.6V | 00:00:00 | 00:00:00 | 00:00:00 | |
| SP9KGR-15 | 2026-09-04 00:30:27 | 48.43929 | 20.83949 | 92° | 15km/h | 25592m | 5.9m/s | -50.8°C | 1.2% | 24.6hPa | 2.6V | 00:00:00 | 00:00:00 | 00:00:00 | |
| LZ4TU-5 | 2026-09-04 00:30:23 | 48.43928 | 20.83930 | 54° | 11km/h | 25570m | 4.8m/s | 0°C | 0% | 24.7hPa | 2.6V | 00:00:00 | 00:00:00 | 00:00:00 | |
| OE5DRO-10 | 2026-09-04 00:30:21 | 48.43922 | 20.83930 | 312° | 9km/h | 25552m | 6.3m/s | -50.7°C | 3.8% | 24.7hPa | 2.6V | 00:00:00 | 00:00:00 | 08:30:00 | |
| SQ9EZE-14 | 2026-09-04 00:30:19 | 48.43918 | 20.83937 | 313° | 13km/h | 25541m | 5.2m/s | -50.7°C | 1.2% | 24.8hPa | 2.5V | 00:00:00 | 00:00:00 | 00:00:00 | |
| SP9KGR-15 | 2026-09-04 00:30:13 | 48.43910 | 20.83932 | 127° | 9km/h | 25508m | 5.1m/s | -50.9°C | 1.2% | 24.9hPa | 2.5V | 00:00:00 | 00:00:00 | 00:00:00 | |
| OE5DRO-10 | 2026-09-04 00:30:02 | 48.43910 | 20.83950 | 309° | 11km/h | 25447m | 4.8m/s | -50.7°C | 3.9% | 25.1hPa | 2.5V | 00:00:00 | 00:00:00 | 00:00:00 | |
| SP9KGR-15 | 2026-09-04 00:29:57 | 48.43910 | 20.83961 | 213° | 7km/h | 25425m | 6.1m/s | -50.8°C | 1.3% | 25.2hPa | 2.5V | 00:00:00 | 00:00:00 | 00:00:00 | |
| OE5DRO-10 | 2026-09-04 00:29:43 | 48.43935 | 20.84018 | 218° | 15km/h | 25340m | 5.4m/s | -50.4°C | 4.0% | 25.5hPa | 2.5V | 00:00:00 | 00:00:00 | 00:00:00 | |
| SQ9EZE-13 | 2026-09-04 00:29:42 | 48.43935 | 20.84018 | 219° | 13km/h | 25340m | 5.5m/s | -50.5°C | 1.3% | 25.5hPa | 2.5V | 00:00:00 | 00:00:00 | 00:00:00 | |
| SP9KGR-15 | 2026-09-04 00:29:41 | 48.43938 | 20.84021 | 222° | 15km/h | 25335m | 4.8m/s | -50.5°C | 1.2% | 25.6hPa | 2.5V | 00:00:00 | 00:00:00 | 00:00:00 | |
| SP9KGR-15 | 2026-09-04 00:29:27 | 48.43966 | 20.84087 | 244° | 11km/h | 25254m | 4.4m/s | -50.2°C | 1.2% | 25.9hPa | 2.5V | 00:00:00 | 00:00:00 | 00:00:00 | |
| OE5DRO-10 | 2026-09-04 00:29:24 | 48.43970 | 20.84095 | 217° | 7km/h | 25238m | 5.6m/s | -50.2°C | 3.8% | 25.9hPa | 2.5V | 00:00:00 | 00:00:00 | 00:00:00 | |
| SQ9EZE-13 | 2026-09-04 00:29:11 | 48.43984 | 20.84105 | 178° | 5km/h | 25173m | 4.3m/s | 0°C | 0% | 26.2hPa | 2.5V | 00:00:00 | 00:00:00 | 00:00:00 | |
| OE5DRO-10 | 2026-09-04 00:29:05 | 48.43996 | 20.84101 | 188° | 9km/h | 25136m | 4.4m/s | -50.2°C | 3.9% | 26.3hPa | 2.5V | 00:00:00 | 00:00:00 | 00:00:00 | |
| SQ9EZE-13 | 2026-09-04 00:28:55 | 48.44011 | 20.84080 | 93° | 11km/h | 25086m | 5.5m/s | 0°C | 0% | 0hPa | 2.5V | 00:00:00 | 00:00:00 | 00:00:00 | |
| OE5DRO-10 | 2026-09-04 00:28:46 | 48.44011 | 20.84052 | 123° | 15km/h | 25032m | 5.8m/s | -50.0°C | 3.8% | 26.8hPa | 2.5V | 00:00:00 | 00:00:00 | 00:00:00 | |
| SQ9EZE-13 | 2026-09-04 00:28:40 | 48.44007 | 20.84021 | 39° | 18km/h | 24999m | 6.3m/s | 0°C | 0% | 0hPa | 2.5V | 00:00:00 | 00:00:00 | 00:00:00 | |
| LZ4TU-5 | 2026-09-04 00:28:29 | 48.43985 | 20.83988 | 81° | 15km/h | 24946m | 6.2m/s | 0°C | 0% | 27.1hPa | 2.5V | 00:00:00 | 00:00:00 | 00:00:00 | |
| SQ9EZE-13 | 2026-09-04 00:28:23 | 48.43970 | 20.83965 | 7° | 22km/h | 24913m | 5.5m/s | 0°C | 0% | 0hPa | 2.5V | 00:00:00 | 00:00:00 | 00:00:00 | |
| GYPAP8-17 | 2026-09-04 00:28:17 | 48.43946 | 20.83963 | 353° | 2km/h | 24876m | 4.9m/s | -50.2°C | 1.2% | 27.4hPa | 2.5V | 00:00:00 | 00:00:00 | 00:00:00 | |
| SP9KGR-15 | 2026-09-04 00:28:09 | 48.43934 | 20.83957 | 348° | 18km/h | 24835m | 5.6m/s | -50.6°C | 1.2% | 27.6hPa | 2.5V | 00:00:00 | 00:00:00 | 00:00:00 | |
| OE5DRO-10 | 2026-09-04 00:28:08 | 48.43929 | 20.83958 | 350° | 11km/h | 24830m | 5.3m/s | -50.6°C | 3.9% | 27.6hPa | 2.5V | 00:00:00 | 00:00:00 | 00:00:00 | |
| SQ9EZE-13 | 2026-09-04 00:28:06 | 48.43925 | 20.83959 | 345° | 16km/h | 24825m | 5.1m/s | 0°C | 0% | 0hPa | 2.5V | 00:00:00 | 00:00:00 | 00:00:00 | |
| SQ9EZE-14 | 2026-09-04 00:27:55 | 48.43909 | 20.83976 | 285° | 7km/h | 24766m | 4.9m/s | -51.0°C | 1.3% | 27.9hPa | 2.5V | 00:00:00 | 00:00:00 | 00:00:00 | |
| SP9KGR-15 | 2026-09-04 00:27:53 | 48.43906 | 20.83985 | 302° | 13km/h | 24750m | 4.7m/s | -51.1°C | 1.3% | 28.0hPa | 2.5V | 00:00:00 | 00:00:00 | 00:00:00 | |
| OE5DRO-10 | 2026-09-04 00:27:49 | 48.43901 | 20.84007 | 282° | 11km/h | 24729m | 4.7m/s | -51.1°C | 4.0% | 28.0hPa | 2.5V | 00:00:00 | 00:00:00 | 00:00:00 | |
| SP9KGR-15 | 2026-09-04 00:27:37 | 48.43909 | 20.84049 | 255° | 18km/h | 24669m | 6.1m/s | -51.0°C | 1.3% | 28.3hPa | 2.5V | 00:00:00 | 00:00:00 | 00:00:00 | |
| OE5DRO-10 | 2026-09-04 00:27:30 | 48.43928 | 20.84072 | 202° | 16km/h | 24626m | 4.8m/s | -50.9°C | 4.0% | 28.5hPa | 2.5V | 00:00:00 | 00:00:00 | 08:30:00 | |
| SP9KGR-15 | 2026-09-04 00:27:21 | 48.43946 | 20.84113 | 240° | 16km/h | 24580m | 6.1m/s | -50.9°C | 1.3% | 28.7hPa | 2.5V | 00:00:00 | 00:00:00 | 00:00:00 | |
| GYPAP8-17 | 2026-09-04 00:27:14 | 48.43973 | 20.84130 | 195° | 18km/h | 24542m | 6.4m/s | -51.0°C | 1.3% | 28.9hPa | 2.5V | 00:00:00 | 00:00:00 | 00:00:00 | |
| OE5DRO-10 | 2026-09-04 00:27:11 | 48.43987 | 20.84146 | 242° | 18km/h | 24520m | 6.3m/s | -51.1°C | 4.0% | 28.9hPa | 2.5V | 00:00:00 | 00:00:00 | 00:00:00 | |
| SP9KGR-15 | 2026-09-04 00:27:05 | 48.43999 | 20.84183 | 228° | 18km/h | 24492m | 4.9m/s | -51.3°C | 1.3% | 29.1hPa | 2.5V | 00:00:00 | 00:00:00 | 00:00:00 | |
| OE5DRO-10 | 2026-09-04 00:26:52 | 48.44049 | 20.84227 | 211° | 13km/h | 24414m | 4.4m/s | -51.0°C | 4.1% | 29.4hPa | 2.5V | 00:00:00 | 00:00:00 | 00:00:00 | |
| SP9KGR-15 | 2026-09-04 00:26:50 | 48.44052 | 20.84228 | 200° | 13km/h | 24409m | 5.8m/s | -51.0°C | 1.3% | 29.5hPa | 2.5V | 00:00:00 | 00:00:00 | 00:00:00 | |
| LZ4TU-5 | 2026-09-04 00:26:46 | 48.44073 | 20.84227 | 161° | 18km/h | 24381m | 5.3m/s | 0°C | 0% | 29.6hPa | 2.5V | 00:00:00 | 00:00:00 | 00:00:00 | |
| LZ4TU-5 | 2026-09-04 00:26:41 | 48.44090 | 20.84225 | 198° | 15km/h | 24359m | 4.4m/s | 0°C | 0% | 29.7hPa | 2.5V | 00:00:00 | 00:00:00 | 00:00:00 | |
| SP9KGR-15 | 2026-09-04 00:26:36 | 48.44102 | 20.84225 | 180° | 9km/h | 24328m | 6.0m/s | -50.6°C | 1.3% | 29.8hPa | 2.5V | 00:00:00 | 00:00:00 | 00:00:00 | |
| OE5DRO-10 | 2026-09-04 00:26:33 | 48.44111 | 20.84227 | 185° | 11km/h | 24311m | 6.2m/s | -50.4°C | 3.9% | 29.9hPa | 2.5V | 00:00:00 | 00:00:00 | 00:00:00 | |
| SP9KGR-15 | 2026-09-04 00:26:19 | 48.44140 | 20.84207 | 163° | 9km/h | 24241m | 4.5m/s | -50.2°C | 1.2% | 30.3hPa | 2.6V | 00:00:00 | 00:00:00 | 00:00:00 | |
| OE5DRO-10 | 2026-09-04 00:26:14 | 48.44153 | 20.84181 | 123° | 20km/h | 24208m | 6.0m/s | -50.0°C | 3.8% | 30.3hPa | 2.6V | 00:00:00 | 00:00:00 | 00:00:00 | |
| HA6NAB-11 | 2026-09-04 00:26:11 | 48.44156 | 20.84173 | 123° | 11km/h | 24197m | 4.7m/s | -50.1°C | 1.2% | 30.5hPa | 2.6V | 00:00:00 | 00:00:00 | 00:00:00 | |
| SP9KGR-15 | 2026-09-04 00:26:05 | 48.44167 | 20.84132 | 104° | 20km/h | 24158m | 5.5m/s | -50.3°C | 1.2% | 30.6hPa | 2.6V | 00:00:00 | 00:00:00 | 00:00:00 | |
| HA6NAB-11 | 2026-09-04 00:26:00 | 48.44172 | 20.84086 | 111° | 22km/h | 24129m | 5.3m/s | -50.2°C | 1.2% | 30.8hPa | 2.6V | 00:00:00 | 00:00:00 | 00:00:00 | |
| OE5DRO-10 | 2026-09-04 00:25:55 | 48.44178 | 20.84046 | 96° | 15km/h | 24100m | 6.0m/s | -50.2°C | 3.9% | 30.9hPa | 2.6V | 00:00:00 | 00:00:00 | 00:00:00 | |
| HA6NAB-11 | 2026-09-04 00:25:54 | 48.44178 | 20.84046 | 97° | 20km/h | 24100m | 6.1m/s | -50.2°C | 1.3% | 30.9hPa | 2.6V | 00:00:00 | 00:00:00 | 00:00:00 | |
| HA6NAB-11 | 2026-09-04 00:25:49 | 48.44175 | 20.84001 | 81° | 20km/h | 24066m | 5.6m/s | -50.3°C | 1.3% | 31.1hPa | 2.6V | 00:00:00 | 00:00:00 | 00:00:00 | |
| HA6NAB-11 | 2026-09-04 00:25:42 | 48.44178 | 20.83966 | 113° | 15km/h | 24033m | 4.8m/s | -50.2°C | 1.3% | 31.2hPa | 2.6V | 00:00:00 | 00:00:00 | 00:00:00 | |
| HA6NAB-11 | 2026-09-04 00:25:37 | 48.44182 | 20.83945 | 53° | 9km/h | 23998m | 5.0m/s | -50.0°C | 1.2% | 31.4hPa | 2.6V | 00:00:00 | 00:00:00 | 00:00:00 | |
| OE5DRO-10 | 2026-09-04 00:25:36 | 48.44181 | 20.83943 | 53° | 9km/h | 23992m | 6.4m/s | -49.9°C | 3.8% | 31.4hPa | 2.6V | 00:00:00 | 00:00:00 | 00:00:00 | |
| SP9KGR-15 | 2026-09-04 00:25:33 | 48.44178 | 20.83936 | 74° | 9km/h | 23976m | 5.3m/s | -49.9°C | 1.2% | 31.5hPa | 2.5V | 00:00:00 | 00:00:00 | 00:00:00 | |
| OE5DRO-10 | 2026-09-04 00:25:17 | 48.44169 | 20.83914 | 357° | 7km/h | 23888m | 3.7m/s | -50.2°C | 3.8% | 31.9hPa | 2.5V | 00:00:00 | 00:00:00 | 00:00:00 | |
| SP9KGR-15 | 2026-09-04 00:25:01 | 48.44156 | 20.83930 | 359° | 9km/h | 23809m | 4.9m/s | -50.4°C | 1.2% | 32.3hPa | 2.5V | 00:00:00 | 00:00:00 | 00:00:00 | |
| OE5DRO-10 | 2026-09-04 00:24:58 | 48.44155 | 20.83936 | 253° | 15km/h | 23787m | 5.8m/s | -50.2°C | 3.8% | 32.4hPa | 2.5V | 00:00:00 | 00:00:00 | 00:00:00 | |
| LZ4TU-5 | 2026-09-04 00:24:53 | 48.44153 | 20.83958 | 304° | 13km/h | 23766m | 6.1m/s | 0°C | 0% | 0hPa | 2.5V | 00:00:00 | 00:00:00 | 00:00:00 | |
| SP9KGR-15 | 2026-09-04 00:24:47 | 48.44138 | 20.83988 | 290° | 16km/h | 23728m | 5.9m/s | -50.5°C | 1.3% | 32.7hPa | 2.5V | 00:00:00 | 00:00:00 | 00:00:00 | |
| SP9KGR-15 | 2026-09-04 00:24:31 | 48.44135 | 20.84017 | 295° | 5km/h | 23639m | 4.8m/s | -50.5°C | 1.3% | 33.2hPa | 2.5V | 00:00:00 | 00:00:00 | 00:00:00 | |
| SP9KGR-15 | 2026-09-04 00:24:15 | 48.44144 | 20.84052 | 308° | 7km/h | 23554m | 5.6m/s | -50.4°C | 1.2% | 33.6hPa | 2.5V | 00:00:00 | 00:00:00 | 00:00:00 | |
| GYPAP8-17 | 2026-09-04 00:24:03 | 48.44164 | 20.84056 | 199° | 11km/h | 23496m | 4.6m/s | -50.6°C | 1.3% | 33.9hPa | 2.5V | 00:00:00 | 00:00:00 | 00:00:00 | |
| SP9KGR-15 | 2026-09-04 00:23:59 | 48.44174 | 20.84058 | 186° | 11km/h | 23475m | 5.7m/s | -50.7°C | 1.2% | 34.0hPa | 2.5V | 00:00:00 | 00:00:00 | 00:00:00 | |
| SP9KGR-15 | 2026-09-04 00:23:44 | 48.44230 | 20.84050 | 294° | 9km/h | 23395m | 6.3m/s | -51.3°C | 1.2% | 34.4hPa | 2.5V | 00:00:00 | 00:00:00 | 00:00:00 | |
| SP9KGR-15 | 2026-09-04 00:23:29 | 48.44264 | 20.84068 | 0° | 0km/h | 23313m | 6.2m/s | -52.4°C | 1.3% | 34.9hPa | 2.5V | 00:00:00 | 00:00:00 | 00:00:00 | |
| SP9KGR-15 | 2026-09-04 00:23:13 | 48.44272 | 20.84087 | 361° | 5km/h | 23235m | 4.6m/s | -52.6°C | 1.3% | 35.3hPa | 2.5V | 00:00:00 | 00:00:00 | 00:00:00 | |
| LZ4TU-5 | 2026-09-04 00:23:06 | 48.44267 | 20.84090 | 188° | 4km/h | 23200m | 4.8m/s | 0°C | 0% | 0hPa | 2.5V | 00:00:00 | 00:00:00 | 00:00:00 | |
| GYPAP8-17 | 2026-09-04 00:23:01 | 48.44279 | 20.84097 | 178° | 15km/h | 23174m | 6.2m/s | -52.8°C | 1.4% | 35.7hPa | 2.5V | 00:00:00 | 00:00:00 | 00:00:00 | |
| SP9KGR-15 | 2026-09-04 00:22:59 | 48.44288 | 20.84091 | 150° | 9km/h | 23159m | 4.9m/s | -52.9°C | 1.4% | 35.7hPa | 2.5V | 00:00:00 | 00:00:00 | 00:00:00 | |
| SQ9EZE-13 | 2026-09-04 00:22:53 | 48.44295 | 20.84092 | 180° | 9km/h | 23133m | 5.1m/s | 0°C | 0% | 0hPa | 2.5V | 00:00:00 | 00:00:00 | 00:00:00 | |
| HA6NAB-11 | 2026-09-04 00:22:46 | 48.44327 | 20.84095 | 163° | 13km/h | 23095m | 4.2m/s | -53.1°C | 1.4% | 36.1hPa | 2.5V | 00:00:00 | 00:00:00 | 00:00:00 | |
| SP9KGR-15 | 2026-09-04 00:22:42 | 48.44331 | 20.84095 | 302° | 5km/h | 23079m | 5.2m/s | -53.3°C | 1.4% | 36.2hPa | 2.5V | 00:00:00 | 00:00:00 | 00:00:00 | |
| HA6NAB-11 | 2026-09-04 00:22:39 | 48.44327 | 20.84100 | 336° | 5km/h | 23064m | 4.7m/s | -53.3°C | 1.4% | 36.3hPa | 2.5V | 00:00:00 | 00:00:00 | 00:00:00 | |
| HA6NAB-11 | 2026-09-04 00:22:34 | 48.44332 | 20.84108 | 193° | 15km/h | 23040m | 5.6m/s | -53.3°C | 1.4% | 36.4hPa | 2.5V | 00:00:00 | 00:00:00 | 00:00:00 | |
| SQ9EZE-13 | 2026-09-04 00:22:32 | 48.44340 | 20.84108 | 174° | 20km/h | 23029m | 4.8m/s | 0°C | 0% | 0hPa | 2.5V | 00:00:00 | 00:00:00 | 00:00:00 | |
| HA6NAB-11 | 2026-09-04 00:22:28 | 48.44355 | 20.84105 | 157° | 9km/h | 23010m | 5.1m/s | -53.3°C | 1.4% | 36.6hPa | 2.5V | 00:00:00 | 00:00:00 | 00:00:00 | |
| SP9KGR-15 | 2026-09-04 00:22:27 | 48.44357 | 20.84103 | 132° | 7km/h | 23004m | 5.7m/s | -53.3°C | 1.4% | 36.6hPa | 2.5V | 00:00:00 | 00:00:00 | 00:00:00 | |
| OE5DRO-10 | 2026-09-04 00:22:26 | 48.44359 | 20.84099 | 102° | 9km/h | 22995m | 4.0m/s | -53.3°C | 4.3% | 36.6hPa | 2.5V | 00:00:00 | 00:00:00 | 08:30:00 | |
| HA6NAB-11 | 2026-09-04 00:22:23 | 48.44359 | 20.84098 | 223° | 4km/h | 22985m | 4.8m/s | -53.4°C | 1.4% | 36.7hPa | 2.5V | 00:00:00 | 00:00:00 | 00:00:00 | |
| HA6NAB-11 | 2026-09-04 00:22:19 | 48.44368 | 20.84095 | 137° | 13km/h | 22962m | 4.3m/s | -53.6°C | 1.4% | 36.8hPa | 2.5V | 00:00:00 | 00:00:00 | 00:00:00 | |
| HA6NAB-11 | 2026-09-04 00:22:12 | 48.44380 | 20.84073 | 123° | 13km/h | 22933m | 4.1m/s | -53.7°C | 1.4% | 37.0hPa | 2.5V | 00:00:00 | 00:00:00 | 00:00:00 | |
| SP9KGR-15 | 2026-09-04 00:22:11 | 48.44382 | 20.84069 | 119° | 11km/h | 22929m | 5.2m/s | -53.6°C | 1.4% | 37.0hPa | 2.5V | 00:00:00 | 00:00:00 | 00:00:00 | |
| HA6NAB-11 | 2026-09-04 00:22:07 | 48.44384 | 20.84060 | 87° | 7km/h | 22907m | 5.5m/s | -53.6°C | 1.4% | 37.2hPa | 2.5V | 00:00:00 | 00:00:00 | 00:00:00 | |
| OE5DRO-10 | 2026-09-04 00:22:06 | 48.44383 | 20.84054 | 80° | 5km/h | 22898m | 5.0m/s | -53.6°C | 4.3% | 37.2hPa | 2.5V | 00:00:00 | 00:00:00 | 00:00:00 | |
| GYPAP8-17 | 2026-09-04 00:22:01 | 48.44384 | 20.84047 | 122° | 9km/h | 22878m | 5.7m/s | -53.9°C | 1.4% | 37.3hPa | 2.5V | 00:00:00 | 00:00:00 | 00:00:00 | |
| SQ9EZE-13 | 2026-09-04 00:21:58 | 48.44387 | 20.84039 | 112° | 4km/h | 22863m | 5.4m/s | 0°C | 0% | 0hPa | 2.5V | 00:00:00 | 00:00:00 | 00:00:00 | |
| SP9KGR-15 | 2026-09-04 00:21:57 | 48.44387 | 20.84037 | 60° | 4km/h | 22854m | 4.8m/s | -54.2°C | 1.4% | 37.4hPa | 2.5V | 00:00:00 | 00:00:00 | 00:00:00 | |
| OE5DRO-10 | 2026-09-04 00:21:47 | 48.44384 | 20.84036 | 217° | 5km/h | 22805m | 5.7m/s | -54.5°C | 4.6% | 37.7hPa | 2.5V | 00:00:00 | 00:00:00 | 00:00:00 | |
| SP9KGR-15 | 2026-09-04 00:21:41 | 48.44385 | 20.84042 | 37° | 4km/h | 22775m | 4.7m/s | -54.4°C | 1.5% | 37.9hPa | 2.5V | 00:00:00 | 00:00:00 | 00:00:00 | |
| SQ9EZE-14 | 2026-09-04 00:21:36 | 48.44387 | 20.84043 | 169° | 11km/h | 22751m | 5.3m/s | -54.4°C | 1.5% | 38.1hPa | 2.5V | 00:00:00 | 00:00:00 | 00:00:00 | |
| OE5DRO-10 | 2026-09-04 00:21:28 | 48.44404 | 20.84040 | 140° | 11km/h | 22713m | 4.2m/s | -54.6°C | 4.7% | 38.3hPa | 2.5V | 00:00:00 | 00:00:00 | 00:00:00 | |
| SQ9EZE-14 | 2026-09-04 00:21:21 | 48.44425 | 20.84043 | 183° | 22km/h | 22680m | 4.2m/s | -54.6°C | 1.5% | 38.5hPa | 2.5V | 00:00:00 | 00:00:00 | 00:00:00 | |
| LZ4TU-5 | 2026-09-04 00:21:20 | 48.44431 | 20.84044 | 188° | 22km/h | 22675m | 5.6m/s | 0°C | 0% | 0hPa | 2.5V | 00:00:00 | 00:00:00 | 00:00:00 | |
| LZ4TU-5 | 2026-09-04 00:21:15 | 48.44446 | 20.84045 | 159° | 9km/h | 22655m | 5.3m/s | 0°C | 0% | 0hPa | 2.5V | 00:00:00 | 00:00:00 | 00:00:00 | |
| SQ9EZE-13 | 2026-09-04 00:21:14 | 48.44448 | 20.84043 | 166° | 4km/h | 22645m | 5.8m/s | 0°C | 0% | 0hPa | 2.5V | 00:00:00 | 00:00:00 | 00:00:00 | |
| OE5DRO-10 | 2026-09-04 00:21:09 | 48.44460 | 20.84040 | 170° | 16km/h | 22620m | 3.9m/s | -54.7°C | 4.7% | 38.8hPa | 2.5V | 00:00:00 | 00:00:00 | 00:00:00 | |
| GYPAP8-17 | 2026-09-04 00:20:59 | 48.44501 | 20.84034 | 175° | 5km/h | 22575m | 4.7m/s | -54.7°C | 1.5% | 39.2hPa | 2.5V | 00:00:00 | 00:00:00 | 00:00:00 | |
| SQ9EZE-13 | 2026-09-04 00:20:58 | 48.44502 | 20.84033 | 163° | 5km/h | 22570m | 5.9m/s | 0°C | 0% | 0hPa | 2.5V | 00:00:00 | 00:00:00 | 00:00:00 | |
| SP9KGR-15 | 2026-09-04 00:20:54 | 48.44511 | 20.84033 | 198° | 13km/h | 22551m | 5.2m/s | -54.6°C | 1.5% | 39.3hPa | 2.5V | 00:00:00 | 00:00:00 | 00:00:00 | |
| OE5DRO-10 | 2026-09-04 00:20:50 | 48.44534 | 20.84037 | 188° | 11km/h | 22526m | 5.5m/s | -54.5°C | 4.7% | 39.4hPa | 2.5V | 00:00:00 | 00:00:00 | 00:00:00 | |
| SP9KGR-15 | 2026-09-04 00:20:39 | 48.44563 | 20.84054 | 188° | 15km/h | 22470m | 3.3m/s | -54.5°C | 1.5% | 39.8hPa | 2.5V | 00:00:00 | 00:00:00 | 00:00:00 | |
| SQ9EZE-13 | 2026-09-04 00:20:38 | 48.44563 | 20.84054 | 188° | 15km/h | 22470m | 3.3m/s | 0°C | 0% | 0hPa | 2.5V | 00:00:00 | 00:00:00 | 00:00:00 | |
| OE5DRO-10 | 2026-09-04 00:20:31 | 48.44584 | 20.84064 | 244° | 11km/h | 22430m | 5.6m/s | -54.3°C | 4.6% | 40.0hPa | 2.5V | 00:00:00 | 00:00:00 | 00:00:00 | |
| SQ9EZE-13 | 2026-09-04 00:20:21 | 48.44603 | 20.84079 | 198° | 15km/h | 22385m | 4.9m/s | 0°C | 0% | 0hPa | 2.6V | 00:00:00 | 00:00:00 | 00:00:00 | |
| HA6NAB-11 | 2026-09-04 00:20:19 | 48.44609 | 20.84081 | 190° | 11km/h | 22374m | 4.5m/s | -54.2°C | 1.5% | 40.4hPa | 2.6V | 00:00:00 | 00:00:00 | 00:00:00 | |
| HA6NAB-11 | 2026-09-04 00:20:15 | 48.44624 | 20.84093 | 203° | 13km/h | 22349m | 6.3m/s | -54.1°C | 1.5% | 40.5hPa | 2.6V | 00:00:00 | 00:00:00 | 00:00:00 | |
| OE5DRO-10 | 2026-09-04 00:20:12 | 48.44633 | 20.84093 | 170° | 16km/h | 22334m | 5.4m/s | -53.9°C | 4.5% | 40.6hPa | 2.6V | 00:00:00 | 00:00:00 | 00:00:00 | |
| HA6NAB-11 | 2026-09-04 00:20:09 | 48.44640 | 20.84092 | 173° | 16km/h | 22323m | 4.5m/s | -53.9°C | 1.4% | 40.7hPa | 2.6V | 00:00:00 | 00:00:00 | 00:00:00 | |
| SP9KGR-15 | 2026-09-04 00:20:06 | 48.44658 | 20.84080 | 150° | 20km/h | 22302m | 5.1m/s | -53.8°C | 1.4% | 40.8hPa | 2.6V | 00:00:00 | 00:00:00 | 00:00:00 | |
| SQ9EZE-13 | 2026-09-04 00:20:05 | 48.44658 | 20.84080 | 150° | 20km/h | 22302m | 5.1m/s | 0°C | 0% | 0hPa | 2.6V | 00:00:00 | 00:00:00 | 00:00:00 | |
| HA6NAB-11 | 2026-09-04 00:20:04 | 48.44666 | 20.84074 | 168° | 16km/h | 22291m | 5.9m/s | -53.7°C | 1.4% | 40.9hPa | 2.6V | 00:00:00 | 00:00:00 | 00:00:00 | |
| HA6NAB-11 | 2026-09-04 00:19:58 | 48.44679 | 20.84071 | 162° | 11km/h | 22264m | 4.5m/s | -53.8°C | 1.4% | 41.1hPa | 2.6V | 00:00:00 | 00:00:00 | 00:00:00 | |
| GYPAP8-17 | 2026-09-04 00:19:56 | 48.44686 | 20.84068 | 168° | 16km/h | 22253m | 5.3m/s | -53.9°C | 1.4% | 41.1hPa | 2.6V | 00:00:00 | 00:00:00 | 00:00:00 | |
| OE5DRO-10 | 2026-09-04 00:19:53 | 48.44704 | 20.84054 | 141° | 22km/h | 22231m | 4.4m/s | -54.0°C | 4.5% | 41.2hPa | 2.6V | 00:00:00 | 00:00:00 | 00:00:00 | |
| HA6NAB-11 | 2026-09-04 00:19:52 | 48.44704 | 20.84054 | 142° | 22km/h | 22231m | 4.4m/s | -54.0°C | 1.5% | 41.3hPa | 2.6V | 00:00:00 | 00:00:00 | 00:00:00 | |
| SP9KGR-15 | 2026-09-04 00:19:50 | 48.44713 | 20.84044 | 148° | 22km/h | 22220m | 5.4m/s | -54.0°C | 1.5% | 41.4hPa | 2.6V | 00:00:00 | 00:00:00 | 00:00:00 | |
| SQ9EZE-13 | 2026-09-04 00:19:48 | 48.44721 | 20.84035 | 138° | 20km/h | 22210m | 6.3m/s | 0°C | 0% | 0hPa | 2.6V | 00:00:00 | 00:00:00 | 00:00:00 | |
| HA6NAB-11 | 2026-09-04 00:19:46 | 48.44728 | 20.84023 | 128° | 18km/h | 22198m | 5.0m/s | -54.0°C | 1.5% | 41.5hPa | 2.6V | 00:00:00 | 00:00:00 | 00:00:00 | |
| HA6NAB-11 | 2026-09-04 00:19:41 | 48.44741 | 20.83999 | 126° | 20km/h | 22171m | 6.3m/s | -53.9°C | 1.4% | 41.7hPa | 2.6V | 00:00:00 | 00:00:00 | 00:00:00 | |
| SP9KGR-15 | 2026-09-04 00:19:35 | 48.44766 | 20.83955 | 129° | 27km/h | 22137m | 6.5m/s | -54.0°C | 1.5% | 41.9hPa | 2.6V | 00:00:00 | 00:00:00 | 00:00:00 | |
| OE5DRO-10 | 2026-09-04 00:19:34 | 48.44773 | 20.83938 | 121° | 20km/h | 22126m | 4.3m/s | -54.1°C | 4.6% | 41.9hPa | 2.6V | 00:00:00 | 00:00:00 | 08:30:00 | |
| HA6NAB-11 | 2026-09-04 00:19:29 | 48.44783 | 20.83914 | 113° | 15km/h | 22104m | 6.4m/s | -54.2°C | 1.5% | 42.1hPa | 2.7V | 00:00:00 | 00:00:00 | 00:00:00 | |
| SQ9EZE-13 | 2026-09-04 00:19:28 | 48.44784 | 20.83908 | 103° | 15km/h | 22098m | 5.5m/s | 0°C | 0% | 0hPa | 2.7V | 00:00:00 | 00:00:00 | 00:00:00 | |
| LZ4TU-5 | 2026-09-04 00:19:24 | 48.44792 | 20.83879 | 120° | 22km/h | 22073m | 5.1m/s | 0°C | 0% | 0hPa | 2.7V | 00:00:00 | 00:00:00 | 00:00:00 | |
| LZ4TU-5 | 2026-09-04 00:19:20 | 48.44802 | 20.83844 | 117° | 24km/h | 22051m | 6.2m/s | 0°C | 0% | 0hPa | 2.7V | 00:00:00 | 00:00:00 | 00:00:00 | |
| SQ9EZE-14 | 2026-09-04 00:19:17 | 48.44809 | 20.83824 | 114° | 18km/h | 22035m | 6.3m/s | -54.1°C | 1.5% | 42.6hPa | 2.7V | 00:00:00 | 00:00:00 | 00:00:00 | |
| OE5DRO-10 | 2026-09-04 00:19:15 | 48.44812 | 20.83810 | 106° | 22km/h | 22023m | 4.8m/s | -54.1°C | 4.5% | 42.6hPa | 2.7V | 00:00:00 | 00:00:00 | 00:00:00 | |
| SQ9EZE-13 | 2026-09-04 00:19:12 | 48.44815 | 20.83797 | 110° | 18km/h | 22012m | 5.1m/s | 0°C | 0% | 0hPa | 2.7V | 00:00:00 | 00:00:00 | 00:00:00 | |
| S52SK | 2026-09-04 00:19:08 | 48.44821 | 20.83762 | 102° | 29km/h | 21991m | 4.3m/s | 0°C | 0% | 0hPa | 2.7V | 00:00:00 | 00:00:00 | 00:00:00 | |
| S52SK | 2026-09-04 00:19:03 | 48.44831 | 20.83718 | 108° | 20km/h | 21966m | 5.8m/s | 0°C | 0% | 0hPa | 2.7V | 00:00:00 | 00:00:00 | 00:00:00 | |
| SQ9EZE-14 | 2026-09-04 00:19:01 | 48.44832 | 20.83702 | 99° | 22km/h | 21955m | 4.7m/s | -54.0°C | 1.4% | 43.1hPa | 2.7V | 00:00:00 | 00:00:00 | 00:00:00 | |
| OE5DRO-10 | 2026-09-04 00:18:56 | 48.44844 | 20.83653 | 108° | 20km/h | 21923m | 5.3m/s | -54.2°C | 4.4% | 43.3hPa | 2.7V | 00:00:00 | 00:00:00 | 00:00:00 | |
| SQ9EZE-13 | 2026-09-04 00:18:52 | 48.44851 | 20.83625 | 117° | 27km/h | 21908m | 5.9m/s | 0°C | 0% | 0hPa | 2.7V | 00:00:00 | 00:00:00 | 00:00:00 | |
| GYPAP8-17 | 2026-09-04 00:18:49 | 48.44859 | 20.83599 | 109° | 22km/h | 21892m | 5.1m/s | -54.6°C | 1.5% | 43.5hPa | 2.7V | 00:00:00 | 00:00:00 | 00:00:00 | |
| SP9KGR-15 | 2026-09-04 00:18:48 | 48.44862 | 20.83585 | 115° | 18km/h | 21882m | 6.0m/s | -54.7°C | 1.5% | 43.6hPa | 2.7V | 00:00:00 | 00:00:00 | 00:00:00 | |
| SQ9EZE-14 | 2026-09-04 00:18:45 | 48.44867 | 20.83573 | 127° | 16km/h | 21871m | 4.7m/s | -54.7°C | 1.5% | 43.7hPa | 2.7V | 00:00:00 | 00:00:00 | 00:00:00 | |
| OE5DRO-10 | 2026-09-04 00:18:37 | 48.44882 | 20.83519 | 119° | 20km/h | 21826m | 5.3m/s | -54.8°C | 4.5% | 44.0hPa | 2.7V | 00:00:00 | 00:00:00 | 00:00:00 | |
| SQ9EZE-13 | 2026-09-04 00:18:35 | 48.44885 | 20.83508 | 112° | 15km/h | 21816m | 5.3m/s | 0°C | 0% | 0hPa | 0V | 00:00:00 | 00:00:00 | 00:00:00 | |
| SP9KGR-15 | 2026-09-04 00:18:31 | 48.44889 | 20.83496 | 118° | 9km/h | 21800m | 3.7m/s | -55.3°C | 1.5% | 44.2hPa | 0V | 00:00:00 | 00:00:00 | 00:00:00 | |
| SQ9EZE-13 | 2026-09-04 00:18:19 | 48.44914 | 20.83409 | 128° | 20km/h | 21739m | 4.7m/s | 0°C | 0% | 0hPa | 0V | 00:00:00 | 00:00:00 | 00:00:00 | |
| OE5DRO-10 | 2026-09-04 00:18:18 | 48.44919 | 20.83398 | 118° | 11km/h | 21730m | 5.5m/s | 0°C | 0% | 0hPa | 0V | 00:00:00 | 00:00:00 | 00:00:00 | |
| SP9KGR-15 | 2026-09-04 00:18:16 | 48.44921 | 20.83387 | 97° | 15km/h | 21719m | 4.6m/s | -55.5°C | 1.6% | 44.7hPa | 0V | 00:00:00 | 00:00:00 | 00:00:00 | |
| SQ9EZE-13 | 2026-09-04 00:17:59 | 48.44953 | 20.83337 | 158° | 20km/h | 21634m | 4.8m/s | 0°C | 0% | 0hPa | 0V | 00:00:00 | 00:00:00 | 00:00:00 | |
| SP9KGR-15 | 2026-09-04 00:17:58 | 48.44953 | 20.83337 | 158° | 20km/h | 21634m | 4.8m/s | -55.4°C | 1.6% | 45.3hPa | 0V | 00:00:00 | 00:00:00 | 00:00:00 | |
| GYPAP8-17 | 2026-09-04 00:17:42 | 48.45005 | 20.83263 | 136° | 29km/h | 21549m | 3.8m/s | -55.3°C | 1.6% | 46.0hPa | 0V | 00:00:00 | 00:00:00 | 00:00:00 | |
| OE5DRO-10 | 2026-09-04 00:17:40 | 48.45022 | 20.83244 | 154° | 18km/h | 21534m | 5.3m/s | 0°C | 0% | 0hPa | 0V | 00:00:00 | 00:00:00 | 00:00:00 | |
| SP9KGR-15 | 2026-09-04 00:17:39 | 48.45027 | 20.83240 | 159° | 22km/h | 21529m | 4.5m/s | -55.2°C | 1.6% | 46.1hPa | 0V | 00:00:00 | 00:00:00 | 00:00:00 | |
| SQ9EZE-13 | 2026-09-04 00:17:24 | 48.45080 | 20.83177 | 122° | 22km/h | 21448m | 5.7m/s | -55.0°C | 1.6% | 46.7hPa | 0V | 00:00:00 | 00:00:00 | 00:00:00 | |
| OE5DRO-10 | 2026-09-04 00:17:21 | 48.45088 | 20.83157 | 129° | 22km/h | 21433m | 5.9m/s | 0°C | 0% | 0hPa | 0V | 00:00:00 | 00:00:00 | 00:00:00 | |
| SP9KGR-15 | 2026-09-04 00:17:20 | 48.45088 | 20.83157 | 130° | 20km/h | 21433m | 6.0m/s | -55.1°C | 1.6% | 46.8hPa | 0V | 00:00:00 | 00:00:00 | 00:00:00 | |
| HA6NAB-11 | 2026-09-04 00:17:07 | 48.45126 | 20.83061 | 102° | 24km/h | 21363m | 4.8m/s | -55.1°C | 1.6% | 47.3hPa | 0V | 00:00:00 | 00:00:00 | 00:00:00 | |
| SP9KGR-15 | 2026-09-04 00:17:06 | 48.45128 | 20.83044 | 101° | 22km/h | 21352m | 5.3m/s | -55.2°C | 1.6% | 47.4hPa | 0V | 00:00:00 | 00:00:00 | 00:00:00 | |
| HA6NAB-11 | 2026-09-04 00:17:02 | 48.45128 | 20.83011 | 89° | 22km/h | 21330m | 4.9m/s | -55.2°C | 1.6% | 47.5hPa | 0V | 00:00:00 | 00:00:00 | 00:00:00 | |
| HA6NAB-11 | 2026-09-04 00:16:55 | 48.45135 | 20.82954 | 103° | 29km/h | 21298m | 5.0m/s | -55.0°C | 1.6% | 47.8hPa | 0V | 00:00:00 | 00:00:00 | 00:00:00 | |
| HA6NAB-11 | 2026-09-04 00:16:49 | 48.45140 | 20.82904 | 81° | 13km/h | 21265m | 4.7m/s | -54.8°C | 1.6% | 48.0hPa | 0V | 00:00:00 | 00:00:00 | 00:00:00 | |
| SP9KGR-15 | 2026-09-04 00:16:48 | 48.45139 | 20.82899 | 91° | 13km/h | 21260m | 5.9m/s | -54.8°C | 1.6% | 48.1hPa | 0V | 00:00:00 | 00:00:00 | 00:00:00 | |
| SQ9EZE-14 | 2026-09-04 00:16:47 | 48.45140 | 20.82894 | 107° | 13km/h | 21254m | 5.9m/s | -54.8°C | 1.6% | 48.1hPa | 0V | 00:00:00 | 00:00:00 | 00:00:00 | |
| OE5DRO-10 | 2026-09-04 00:16:44 | 48.45147 | 20.82862 | 108° | 22km/h | 21227m | 5.2m/s | 0°C | 0% | 0hPa | 0V | 00:00:00 | 00:00:00 | 00:00:00 | |
| GYPAP8-17 | 2026-09-04 00:16:33 | 48.45158 | 20.82801 | 120° | 7km/h | 21174m | 5.8m/s | -54.3°C | 1.5% | 48.7hPa | 0V | 00:00:00 | 00:00:00 | 00:00:00 | |
| SP9KGR-15 | 2026-09-04 00:16:32 | 48.45159 | 20.82799 | 110° | 7km/h | 21169m | 5.0m/s | -54.2°C | 1.5% | 48.8hPa | 0V | 00:00:00 | 00:00:00 | 00:00:00 | |
| SP9KGR-15 | 2026-09-04 00:16:15 | 48.45193 | 20.82733 | 174° | 13km/h | 21088m | 5.8m/s | -54.1°C | 1.5% | 49.4hPa | 0V | 00:00:00 | 00:00:00 | 00:00:00 | |
| SP9KGR-15 | 2026-09-04 00:15:59 | 48.45248 | 20.82670 | 129° | 15km/h | 21006m | 5.8m/s | -54.5°C | 1.5% | 50.0hPa | 0V | 00:00:00 | 00:00:00 | 00:00:00 | |
| SP9KGR-15 | 2026-09-04 00:15:44 | 48.45280 | 20.82579 | 115° | 16km/h | 20930m | 4.6m/s | -54.7°C | 1.6% | 50.6hPa | 0V | 00:00:00 | 00:00:00 | 00:00:00 | |
| SQ9EZE-13 | 2026-09-04 00:15:43 | 48.45282 | 20.82573 | 121° | 16km/h | 20925m | 5.9m/s | -54.8°C | 1.5% | 50.6hPa | 0V | 00:00:00 | 00:00:00 | 00:00:00 | |
| GYPAP8-17 | 2026-09-04 00:15:35 | 48.45292 | 20.82505 | 106° | 24km/h | 20884m | 4.6m/s | -54.7°C | 1.5% | 51.0hPa | 0V | 00:00:00 | 00:00:00 | 00:00:00 | |
| SP9KGR-15 | 2026-09-04 00:15:29 | 48.45293 | 20.82463 | 93° | 15km/h | 20849m | 4.4m/s | -54.5°C | 1.5% | 51.2hPa | 0V | 00:00:00 | 00:00:00 | 00:00:00 | |
| SQ9EZE-13 | 2026-09-04 00:15:24 | 48.45292 | 20.82442 | 90° | 15km/h | 20829m | 6.0m/s | -54.4°C | 1.5% | 51.4hPa | 0V | 00:00:00 | 00:00:00 | 00:00:00 | |
| SQ9EZE-13 | 2026-09-04 00:15:11 | 48.45270 | 20.82350 | 72° | 13km/h | 20753m | 4.9m/s | -54.3°C | 1.5% | 52.0hPa | 0V | 00:00:00 | 00:00:00 | 00:00:00 | |
| SQ9EZE-13 | 2026-09-04 00:14:55 | 48.45248 | 20.82270 | 52° | 13km/h | 20678m | 4.7m/s | -54.1°C | 1.5% | 52.6hPa | 0V | 00:00:00 | 00:00:00 | 00:00:00 | |
| SP9KGR-15 | 2026-09-04 00:14:52 | 48.45244 | 20.82262 | 62° | 15km/h | 20668m | 5.9m/s | -54.0°C | 1.5% | 52.7hPa | 0V | 00:00:00 | 00:00:00 | 00:00:00 | |
| SQ9EZE-14 | 2026-09-04 00:14:49 | 48.45240 | 20.82242 | 77° | 11km/h | 20647m | 5.1m/s | -53.9°C | 1.5% | 52.9hPa | 0V | 00:00:00 | 00:00:00 | 00:00:00 | |
| GYPAP8-17 | 2026-09-04 00:14:42 | 48.45245 | 20.82217 | 104° | 9km/h | 20617m | 5.5m/s | -53.6°C | 1.5% | 53.1hPa | 0V | 00:00:00 | 00:00:00 | 00:00:00 | |
| SQ9EZE-13 | 2026-09-04 00:14:38 | 48.45245 | 20.82200 | 99° | 13km/h | 20593m | 4.1m/s | -53.4°C | 1.5% | 53.3hPa | 0V | 00:00:00 | 00:00:00 | 00:00:00 | |
| SP9KGR-15 | 2026-09-04 00:14:37 | 48.45245 | 20.82200 | 99° | 13km/h | 20593m | 4.1m/s | -53.4°C | 1.5% | 53.3hPa | 0V | 00:00:00 | 00:00:00 | 00:00:00 | |
| SQ9EZE-14 | 2026-09-04 00:14:33 | 48.45245 | 20.82176 | 96° | 15km/h | 20574m | 3.9m/s | -53.3°C | 1.5% | 53.5hPa | 0V | 00:00:00 | 00:00:00 | 00:00:00 | |
| SP9KGR-15 | 2026-09-04 00:14:21 | 48.45262 | 20.82133 | 90° | 15km/h | 20515m | 5.3m/s | -53.2°C | 1.5% | 54.0hPa | 0V | 00:00:00 | 00:00:00 | 00:00:00 | |
| SQ9EZE-13 | 2026-09-04 00:14:19 | 48.45262 | 20.82118 | 105° | 9km/h | 20499m | 4.9m/s | -53.2°C | 1.5% | 54.1hPa | 0V | 00:00:00 | 00:00:00 | 00:00:00 | |
| SQ9EZE-14 | 2026-09-04 00:14:18 | 48.45262 | 20.82118 | 105° | 9km/h | 20499m | 4.9m/s | -53.2°C | 1.5% | 54.1hPa | 0V | 00:00:00 | 00:00:00 | 00:00:00 | |
| HA6NAB-11 | 2026-09-04 00:14:14 | 48.45266 | 20.82108 | 139° | 9km/h | 20480m | 4.2m/s | -53.2°C | 1.5% | 54.2hPa | 0V | 00:00:00 | 00:00:00 | 00:00:00 | |
| HA6NAB-11 | 2026-09-04 00:14:07 | 48.45288 | 20.82087 | 147° | 16km/h | 20440m | 5.8m/s | -53.1°C | 1.4% | 54.6hPa | 0V | 00:00:00 | 00:00:00 | 00:00:00 | |
| SP9KGR-15 | 2026-09-04 00:14:06 | 48.45292 | 20.82083 | 151° | 18km/h | 20434m | 4.6m/s | -53.2°C | 1.4% | 54.6hPa | 0V | 00:00:00 | 00:00:00 | 00:00:00 | |
| SQ9EZE-13 | 2026-09-04 00:14:02 | 48.45304 | 20.82072 | 148° | 18km/h | 20419m | 4.4m/s | -53.2°C | 1.4% | 54.8hPa | 0V | 00:00:00 | 00:00:00 | 00:00:00 | |
| HA6NAB-11 | 2026-09-04 00:13:58 | 48.45322 | 20.82058 | 146° | 20km/h | 20400m | 5.5m/s | -53.2°C | 1.4% | 54.9hPa | 0V | 00:00:00 | 00:00:00 | 00:00:00 | |
| HA6NAB-11 | 2026-09-04 00:13:52 | 48.45342 | 20.82022 | 129° | 22km/h | 20369m | 6.2m/s | -53.2°C | 1.4% | 55.2hPa | 0V | 00:00:00 | 00:00:00 | 00:00:00 | |
| HA6NAB-11 | 2026-09-04 00:13:47 | 48.45364 | 20.81996 | 156° | 24km/h | 20344m | 3.9m/s | -53.4°C | 1.4% | 55.4hPa | 0V | 00:00:00 | 00:00:00 | 00:00:00 | |
| HA6NAB-11 | 2026-09-04 00:13:42 | 48.45394 | 20.81967 | 124° | 40km/h | 20313m | 4.5m/s | -54.0°C | 1.4% | 55.7hPa | 0V | 00:00:00 | 00:00:00 | 00:00:00 | |
| HA6NAB-11 | 2026-09-04 00:13:36 | 48.45418 | 20.81880 | 124° | 27km/h | 20283m | 5.5m/s | -54.5°C | 1.5% | 55.9hPa | 0V | 00:00:00 | 00:00:00 | 00:00:00 | |
| SQ9EZE-13 | 2026-09-04 00:13:35 | 48.45422 | 20.81872 | 131° | 26km/h | 20278m | 4.3m/s | -54.6°C | 1.5% | 56.0hPa | 0V | 00:00:00 | 00:00:00 | 00:00:00 | |
| GYPAP8-17 | 2026-09-04 00:13:28 | 48.45445 | 20.81838 | 136° | 26km/h | 20247m | 4.8m/s | -55.3°C | 1.6% | 56.2hPa | 0V | 00:00:00 | 00:00:00 | 00:00:00 | |
| SP9KGR-15 | 2026-09-04 00:13:19 | 48.45471 | 20.81745 | 107° | 31km/h | 20198m | 4.8m/s | -55.5°C | 1.7% | 56.7hPa | 0V | 00:00:00 | 00:00:00 | 00:00:00 | |
| SQ9EZE-13 | 2026-09-04 00:13:18 | 48.45477 | 20.81723 | 113° | 29km/h | 20187m | 5.9m/s | -55.4°C | 1.6% | 56.8hPa | 0V | 00:00:00 | 00:00:00 | 00:00:00 | |
| SP9KGR-15 | 2026-09-04 00:13:04 | 48.45501 | 20.81629 | 128° | 18km/h | 20117m | 5.0m/s | -55.0°C | 1.6% | 57.4hPa | 0V | 00:00:00 | 00:00:00 | 00:00:00 | |
| SP9KGR-15 | 2026-09-04 00:12:48 | 48.45531 | 20.81559 | 161° | 16km/h | 20045m | 5.5m/s | -54.5°C | 1.5% | 58.1hPa | 0V | 00:00:00 | 00:00:00 | 00:00:00 | |
| SP9KGR-15 | 2026-09-04 00:12:34 | 48.45574 | 20.81499 | 142° | 22km/h | 19968m | 4.6m/s | -55.0°C | 1.6% | 58.8hPa | 0V | 00:00:00 | 00:00:00 | 00:00:00 | |
| SQ9EZE-13 | 2026-09-04 00:12:29 | 48.45594 | 20.81480 | 155° | 22km/h | 19947m | 4.9m/s | -54.9°C | 1.6% | 58.9hPa | 0V | 00:00:00 | 00:00:00 | 00:00:00 | |
| SQ9EZE-14 | 2026-09-04 00:12:27 | 48.45607 | 20.81473 | 169° | 16km/h | 19932m | 4.4m/s | -54.8°C | 1.6% | 59.1hPa | 0V | 00:00:00 | 00:00:00 | 00:00:00 | |
| SP9KGR-15 | 2026-09-04 00:12:18 | 48.45639 | 20.81439 | 130° | 24km/h | 19891m | 4.2m/s | -54.6°C | 1.6% | 59.5hPa | 0V | 00:00:00 | 00:00:00 | 00:00:00 | |
| SQ9EZE-13 | 2026-09-04 00:12:10 | 48.45664 | 20.81403 | 161° | 15km/h | 19849m | 5.4m/s | -54.4°C | 1.6% | 59.9hPa | 0V | 00:00:00 | 00:00:00 | 00:00:00 | |
| SP9KGR-15 | 2026-09-04 00:12:02 | 48.45684 | 20.81375 | 102° | 15km/h | 19810m | 5.3m/s | -54.1°C | 1.5% | 60.2hPa | 0V | 00:00:00 | 00:00:00 | 00:00:00 | |
| SP9KGR-15 | 2026-09-04 00:11:46 | 48.45712 | 20.81278 | 93° | 20km/h | 19724m | 5.4m/s | -54.2°C | 1.5% | 61.0hPa | 0V | 00:00:00 | 00:00:00 | 00:00:00 | |
| SQ9EZE-13 | 2026-09-04 00:11:45 | 48.45712 | 20.81270 | 99° | 20km/h | 19718m | 4.7m/s | -54.2°C | 1.5% | 61.1hPa | 0V | 00:00:00 | 00:00:00 | 00:00:00 | |
| GYPAP8-17 | 2026-09-04 00:11:37 | 48.45733 | 20.81207 | 109° | 27km/h | 19674m | 5.3m/s | -54.2°C | 1.6% | 61.5hPa | 0V | 00:00:00 | 00:00:00 | 00:00:00 | |
| SQ9EZE-13 | 2026-09-04 00:11:29 | 48.45740 | 20.81128 | 115° | 22km/h | 19633m | 4.8m/s | -54.0°C | 1.6% | 61.9hPa | 0V | 00:00:00 | 00:00:00 | 00:00:00 | |
| HA6NAB-11 | 2026-09-04 00:11:17 | 48.45756 | 20.81036 | 98° | 16km/h | 19570m | 6.0m/s | -53.6°C | 1.5% | 62.5hPa | 0V | 00:00:00 | 00:00:00 | 00:00:00 | |
| SP9KGR-15 | 2026-09-04 00:11:12 | 48.45764 | 20.81007 | 135° | 18km/h | 19539m | 5.9m/s | -53.3°C | 1.5% | 62.8hPa | 0V | 00:00:00 | 00:00:00 | 00:00:00 | |
| HA6NAB-11 | 2026-09-04 00:11:07 | 48.45776 | 20.80973 | 88° | 18km/h | 19513m | 4.5m/s | -53.1°C | 1.5% | 63.1hPa | 0V | 00:00:00 | 00:00:00 | 00:00:00 | |
| HA6NAB-11 | 2026-09-04 00:11:00 | 48.45778 | 20.80940 | 112° | 15km/h | 19482m | 5.1m/s | -53.1°C | 1.5% | 63.4hPa | 0V | 00:00:00 | 00:00:00 | 00:00:00 | |
| SP9KGR-15 | 2026-09-04 00:10:54 | 48.45792 | 20.80912 | 101° | 18km/h | 19451m | 5.4m/s | -52.9°C | 1.5% | 63.7hPa | 0V | 00:00:00 | 00:00:00 | 00:00:00 | |
| HA6NAB-11 | 2026-09-04 00:10:48 | 48.45788 | 20.80874 | 84° | 16km/h | 19421m | 5.7m/s | -52.8°C | 1.5% | 64.0hPa | 0V | 00:00:00 | 00:00:00 | 00:00:00 | |
| SP9KGR-15 | 2026-09-04 00:10:38 | 48.45821 | 20.80832 | 101° | 11km/h | 19369m | 5.1m/s | -53.0°C | 1.4% | 64.5hPa | 0V | 00:00:00 | 00:00:00 | 00:00:00 | |
| GYPAP8-17 | 2026-09-04 00:10:35 | 48.45820 | 20.80819 | 87° | 13km/h | 19354m | 5.3m/s | -53.2°C | 1.4% | 64.6hPa | 0V | 00:00:00 | 00:00:00 | 00:00:00 | |
| SP9KGR-15 | 2026-09-04 00:10:22 | 48.45871 | 20.80755 | 146° | 31km/h | 19286m | 4.2m/s | -53.2°C | 1.4% | 65.3hPa | 0V | 00:00:00 | 00:00:00 | 00:00:00 | |
| SQ9EZE-13 | 2026-09-04 00:10:18 | 48.45901 | 20.80719 | 152° | 29km/h | 19261m | 5.4m/s | -53.6°C | 1.5% | 65.6hPa | 0V | 00:00:00 | 00:00:00 | 00:00:00 | |
| SP9KGR-15 | 2026-09-04 00:10:05 | 48.45992 | 20.80620 | 137° | 37km/h | 19201m | 4.7m/s | -54.3°C | 1.6% | 66.2hPa | 0V | 00:00:00 | 00:00:00 | 00:00:00 | |
| SQ9EZE-13 | 2026-09-04 00:09:54 | 48.46042 | 20.80518 | 134° | 38km/h | 19142m | 6.3m/s | -54.3°C | 1.5% | 66.8hPa | 0V | 00:00:00 | 00:00:00 | 00:00:00 | |
| SP9KGR-15 | 2026-09-04 00:09:50 | 48.46069 | 20.80472 | 131° | 37km/h | 19122m | 5.7m/s | -54.5°C | 1.6% | 67.0hPa | 0V | 00:00:00 | 00:00:00 | 00:00:00 | |
| SQ9EZE-13 | 2026-09-04 00:09:38 | 48.46115 | 20.80364 | 126° | 26km/h | 19059m | 6.1m/s | -54.5°C | 1.6% | 67.7hPa | 0V | 00:00:00 | 00:00:00 | 00:00:00 | |
| SP9KGR-15 | 2026-09-04 00:09:35 | 48.46127 | 20.80338 | 121° | 29km/h | 19043m | 6.3m/s | -54.9°C | 1.6% | 67.8hPa | 0V | 00:00:00 | 00:00:00 | 00:00:00 | |
| GYPAP8-17 | 2026-09-04 00:09:30 | 48.46144 | 20.80284 | 126° | 27km/h | 19018m | 5.2m/s | -55.1°C | 1.6% | 68.1hPa | 0V | 00:00:00 | 00:00:00 | 00:00:00 | |
| SP9KGR-15 | 2026-09-04 00:09:18 | 48.46191 | 20.80145 | 111° | 27km/h | 18951m | 5.0m/s | -54.9°C | 1.6% | 68.8hPa | 0V | 00:00:00 | 00:00:00 | 00:00:00 | |
| SP9KGR-15 | 2026-09-04 00:09:02 | 48.46230 | 20.79984 | 104° | 29km/h | 18871m | 5.2m/s | -54.8°C | 1.6% | 69.7hPa | 0V | 00:00:00 | 00:00:00 | 00:00:00 | |
| SQ9EZE-13 | 2026-09-04 00:09:00 | 48.46232 | 20.79962 | 95° | 29km/h | 18860m | 4.8m/s | -54.8°C | 1.6% | 69.8hPa | 0V | 00:00:00 | 00:00:00 | 00:00:00 | |
| SP9KGR-15 | 2026-09-04 00:08:47 | 48.46239 | 20.79809 | 91° | 27km/h | 18795m | 4.4m/s | -55.0°C | 1.7% | 70.5hPa | 0V | 00:00:00 | 00:00:00 | 00:00:00 | |
| SQ9EZE-13 | 2026-09-04 00:08:42 | 48.46244 | 20.79764 | 97° | 24km/h | 18768m | 6.0m/s | -54.9°C | 1.6% | 70.8hPa | 0V | 00:00:00 | 00:00:00 | 00:00:00 | |
| SQ9EZE-14 | 2026-09-04 00:08:36 | 48.46239 | 20.79713 | 65° | 18km/h | 18737m | 6.0m/s | -54.6°C | 1.6% | 71.2hPa | 0V | 00:00:00 | 00:00:00 | 00:00:00 | |
| SP9KGR-15 | 2026-09-04 00:08:31 | 48.46234 | 20.79690 | 104° | 16km/h | 18714m | 4.0m/s | -54.4°C | 1.6% | 71.4hPa | 0V | 00:00:00 | 00:00:00 | 00:00:00 | |
| GYPAP8-17 | 2026-09-04 00:08:27 | 48.46233 | 20.79653 | 73° | 29km/h | 18693m | 4.5m/s | -54.4°C | 1.6% | 71.7hPa | 0V | 00:00:00 | 00:00:00 | 00:00:00 | |
| SQ9EZE-13 | 2026-09-04 00:08:25 | 48.46228 | 20.79635 | 66° | 22km/h | 18685m | 5.3m/s | -54.4°C | 1.6% | 71.7hPa | 0V | 00:00:00 | 00:00:00 | 00:00:00 | |
| SQ9EZE-14 | 2026-09-04 00:08:20 | 48.46227 | 20.79612 | 85° | 11km/h | 18659m | 5.3m/s | -54.6°C | 1.5% | 72.0hPa | 0V | 00:00:00 | 00:00:00 | 00:00:00 | |
| SP9KGR-15 | 2026-09-04 00:08:15 | 48.46221 | 20.79585 | 93° | 16km/h | 18634m | 6.0m/s | -55.2°C | 1.6% | 72.3hPa | 0V | 00:00:00 | 00:00:00 | 00:00:00 | |
| SQ9EZE-13 | 2026-09-04 00:08:09 | 48.46234 | 20.79534 | 116° | 24km/h | 18604m | 5.4m/s | -55.1°C | 1.7% | 72.6hPa | 0V | 00:00:00 | 00:00:00 | 00:00:00 | |
| SP9KGR-15 | 2026-09-04 00:08:00 | 48.46255 | 20.79473 | 125° | 26km/h | 18562m | 4.8m/s | -54.8°C | 1.6% | 73.1hPa | 0V | 00:00:00 | 00:00:00 | 00:00:00 | |
| SQ9EZE-13 | 2026-09-04 00:07:53 | 48.46283 | 20.79418 | 128° | 24km/h | 18526m | 5.5m/s | -54.8°C | 1.6% | 73.5hPa | 0V | 00:00:00 | 00:00:00 | 00:00:00 | |
| SP9KGR-15 | 2026-09-04 00:07:45 | 48.46319 | 20.79360 | 126° | 29km/h | 18486m | 4.4m/s | -55.2°C | 1.6% | 74.0hPa | 0V | 00:00:00 | 00:00:00 | 00:00:00 | |
| SQ9EZE-13 | 2026-09-04 00:07:36 | 48.46367 | 20.79296 | 144° | 35km/h | 18443m | 3.8m/s | -55.3°C | 1.7% | 74.5hPa | 0V | 00:00:00 | 00:00:00 | 00:00:00 | |
| GYPAP8-17 | 2026-09-04 00:07:33 | 48.46388 | 20.79264 | 130° | 44km/h | 18429m | 4.7m/s | -55.3°C | 1.6% | 74.7hPa | 0V | 00:00:00 | 00:00:00 | 00:00:00 | |
| HA6NAB-11 | 2026-09-04 00:07:30 | 48.46410 | 20.79224 | 136° | 46km/h | 18415m | 5.1m/s | -55.3°C | 1.7% | 74.8hPa | 0V | 00:00:00 | 00:00:00 | 00:00:00 | |
| SP9KGR-15 | 2026-09-04 00:07:29 | 48.46419 | 20.79213 | 141° | 42km/h | 18410m | 4.2m/s | -55.3°C | 1.7% | 74.9hPa | 0V | 00:00:00 | 00:00:00 | 00:00:00 | |
| HA6NAB-11 | 2026-09-04 00:07:25 | 48.46447 | 20.79177 | 139° | 33km/h | 18391m | 4.6m/s | -55.3°C | 1.7% | 75.1hPa | 0V | 00:00:00 | 00:00:00 | 00:00:00 | |
| HA6NAB-11 | 2026-09-04 00:07:20 | 48.46487 | 20.79119 | 130° | 38km/h | 18361m | 4.2m/s | -55.0°C | 1.6% | 75.5hPa | 0V | 00:00:00 | 00:00:00 | 00:00:00 | |
| SQ9EZE-13 | 2026-09-04 00:07:16 | 48.46512 | 20.79078 | 131° | 33km/h | 18341m | 5.6m/s | -54.9°C | 1.7% | 75.7hPa | 0V | 00:00:00 | 00:00:00 | 00:00:00 | |
| SP9KGR-15 | 2026-09-04 00:07:14 | 48.46517 | 20.79069 | 127° | 33km/h | 18336m | 5.3m/s | -54.9°C | 1.6% | 75.8hPa | 0V | 00:00:00 | 00:00:00 | 00:00:00 | |
| HA6NAB-11 | 2026-09-04 00:07:13 | 48.46522 | 20.79059 | 127° | 31km/h | 18331m | 4.9m/s | -54.9°C | 1.6% | 75.8hPa | 0V | 00:00:00 | 00:00:00 | 00:00:00 | |
| HA6NAB-11 | 2026-09-04 00:07:09 | 48.46545 | 20.79017 | 128° | 29km/h | 18305m | 6.0m/s | -54.8°C | 1.6% | 76.1hPa | 0V | 00:00:00 | 00:00:00 | 00:00:00 | |
| HA6NAB-11 | 2026-09-04 00:07:02 | 48.46573 | 20.78964 | 129° | 29km/h | 18274m | 4.7m/s | -54.7°C | 1.6% | 76.5hPa | 0V | 00:00:00 | 00:00:00 | 00:00:00 | |
| SP9KGR-15 | 2026-09-04 00:06:59 | 48.46588 | 20.78942 | 142° | 27km/h | 18259m | 4.1m/s | -54.7°C | 1.6% | 76.7hPa | 0V | 00:00:00 | 00:00:00 | 00:00:00 | |
| SP9KGR-15 | 2026-09-04 00:06:43 | 48.46659 | 20.78807 | 127° | 27km/h | 18175m | 5.3m/s | -54.4°C | 1.6% | 77.6hPa | 0V | 00:00:00 | 00:00:00 | 00:00:00 | |
| SP9KGR-15 | 2026-09-04 00:06:28 | 48.46762 | 20.78653 | 141° | 33km/h | 18090m | 4.5m/s | -54.4°C | 1.6% | 78.7hPa | 0V | 00:00:00 | 00:00:00 | 00:00:00 | |
| SQ9EZE-14 | 2026-09-04 00:06:21 | 48.46808 | 20.78587 | 140° | 49km/h | 18058m | 4.9m/s | -54.4°C | 1.6% | 79.1hPa | 0V | 00:00:00 | 00:00:00 | 00:00:00 | |
| GYPAP8-17 | 2026-09-04 00:06:17 | 48.46852 | 20.78518 | 132° | 49km/h | 18031m | 6.2m/s | -54.4°C | 1.6% | 79.4hPa | 0V | 00:00:00 | 00:00:00 | 00:00:00 | |
| SQ9EZE-13 | 2026-09-04 00:06:11 | 48.46889 | 20.78447 | 129° | 47km/h | 18005m | 5.6m/s | -54.3°C | 1.6% | 79.7hPa | 0V | 00:00:00 | 00:00:00 | 00:00:00 | |
| SQ9EZE-14 | 2026-09-04 00:06:05 | 48.46935 | 20.78360 | 132° | 49km/h | 17973m | 5.5m/s | -54.3°C | 1.6% | 80.1hPa | 0V | 00:00:00 | 00:00:00 | 00:00:00 | |
| SP9KGR-15 | 2026-09-04 00:05:56 | 48.47006 | 20.78199 | 120° | 46km/h | 17924m | 5.6m/s | -54.4°C | 1.7% | 80.7hPa | 0V | 00:00:00 | 00:00:00 | 00:00:00 | |
| SP9KGR-15 | 2026-09-04 00:05:39 | 48.47095 | 20.77930 | 109° | 47km/h | 17846m | 5.2m/s | -54.0°C | 1.5% | 81.8hPa | 0V | 00:00:00 | 00:00:00 | 00:00:00 | |
| SP9KGR-15 | 2026-09-04 00:05:23 | 48.47152 | 20.77635 | 103° | 60km/h | 17769m | 3.9m/s | -54.6°C | 1.6% | 82.7hPa | 0V | 00:00:00 | 00:00:00 | 00:00:00 | |
| GYPAP8-17 | 2026-09-04 00:05:15 | 48.47179 | 20.77469 | 104° | 47km/h | 17731m | 5.9m/s | -54.9°C | 1.6% | 83.2hPa | 0V | 00:00:00 | 00:00:00 | 00:00:00 | |
| SQ9EZE-13 | 2026-09-04 00:05:07 | 48.47201 | 20.77335 | 112° | 46km/h | 17694m | 4.4m/s | -54.9°C | 1.7% | 83.7hPa | 0V | 00:00:00 | 00:00:00 | 00:00:00 | |
| SP9KGR-15 | 2026-09-04 00:04:52 | 48.47249 | 20.77099 | 111° | 42km/h | 17621m | 4.0m/s | -54.9°C | 1.7% | 84.7hPa | 0V | 00:00:00 | 00:00:00 | 00:00:00 | |
| SQ9EZE-13 | 2026-09-04 00:04:43 | 48.47274 | 20.76981 | 105° | 33km/h | 17578m | 5.3m/s | -54.7°C | 1.7% | 85.2hPa | 0V | 00:00:00 | 00:00:00 | 00:00:00 | |
| SP9KGR-15 | 2026-09-04 00:04:37 | 48.47284 | 20.76907 | 99° | 37km/h | 17549m | 5.5m/s | -54.5°C | 1.6% | 85.6hPa | 0V | 00:00:00 | 00:00:00 | 00:00:00 | |
| SP9KGR-15 | 2026-09-04 00:04:21 | 48.47303 | 20.76723 | 105° | 31km/h | 17474m | 5.0m/s | -54.7°C | 1.6% | 86.6hPa | 0V | 00:00:00 | 00:00:00 | 00:00:00 | |
| SQ9EZE-14 | 2026-09-04 00:04:11 | 48.47320 | 20.76603 | 113° | 26km/h | 17415m | 4.2m/s | -54.8°C | 1.7% | 87.5hPa | 0V | 00:00:00 | 00:00:00 | 00:00:00 | |
| HA6NAB-11 | 2026-09-04 00:04:08 | 48.47330 | 20.76565 | 114° | 26km/h | 17397m | 4.8m/s | -54.9°C | 1.7% | 87.7hPa | 0V | 00:00:00 | 00:00:00 | 00:00:00 | |
| GYPAP8-17 | 2026-09-04 00:04:04 | 48.47333 | 20.76556 | 114° | 24km/h | 17392m | 5.0m/s | -54.9°C | 1.7% | 87.8hPa | 0V | 00:00:00 | 00:00:00 | 00:00:00 | |
| HA6NAB-11 | 2026-09-04 00:04:00 | 48.47340 | 20.76523 | 107° | 24km/h | 17374m | 4.2m/s | -55.3°C | 1.7% | 88.0hPa | 0V | 00:00:00 | 00:00:00 | 00:00:00 | |
| HA6NAB-11 | 2026-09-04 00:03:56 | 48.47351 | 20.76477 | 114° | 31km/h | 17352m | 4.1m/s | -55.2°C | 1.7% | 88.3hPa | 0V | 00:00:00 | 00:00:00 | 00:00:00 | |
| SQ9EZE-14 | 2026-09-04 00:03:53 | 48.47358 | 20.76456 | 118° | 31km/h | 17342m | 4.7m/s | -55.2°C | 1.8% | 88.5hPa | 0V | 00:00:00 | 00:00:00 | 00:00:00 | |
| SP9KGR-15 | 2026-09-04 00:03:51 | 48.47367 | 20.76424 | 110° | 33km/h | 17329m | 4.8m/s | -55.1°C | 1.7% | 88.6hPa | 0V | 00:00:00 | 00:00:00 | 00:00:00 | |
| HA6NAB-11 | 2026-09-04 00:03:50 | 48.47370 | 20.76413 | 109° | 31km/h | 17325m | 3.3m/s | -55.1°C | 1.7% | 88.7hPa | 0V | 00:00:00 | 00:00:00 | 00:00:00 | |
| SQ9EZE-13 | 2026-09-04 00:03:49 | 48.47372 | 20.76402 | 108° | 29km/h | 17321m | 5.1m/s | -55.1°C | 1.7% | 88.7hPa | 0V | 00:00:00 | 00:00:00 | 00:00:00 | |
| HA6NAB-11 | 2026-09-04 00:03:43 | 48.47391 | 20.76353 | 133° | 33km/h | 17297m | 4.3m/s | -55.0°C | 1.7% | 89.1hPa | 0V | 00:00:00 | 00:00:00 | 00:00:00 | |
| SQ9EZE-14 | 2026-09-04 00:03:40 | 48.47417 | 20.76309 | 127° | 33km/h | 17275m | 3.7m/s | -55.0°C | 1.7% | 89.4hPa | 0V | 00:00:00 | 00:00:00 | 00:00:00 | |
| HA6NAB-11 | 2026-09-04 00:03:37 | 48.47422 | 20.76299 | 126° | 31km/h | 17270m | 5.6m/s | -55.1°C | 1.7% | 89.4hPa | 0V | 00:00:00 | 00:00:00 | 00:00:00 | |
| SP9KGR-15 | 2026-09-04 00:03:35 | 48.47431 | 20.76280 | 125° | 29km/h | 17260m | 3.9m/s | -55.1°C | 1.7% | 89.6hPa | 0V | 00:00:00 | 00:00:00 | 00:00:00 | |
| HA6NAB-11 | 2026-09-04 00:03:34 | 48.47444 | 20.76250 | 128° | 31km/h | 17247m | 4.3m/s | -55.1°C | 1.7% | 89.8hPa | 0V | 00:00:00 | 00:00:00 | 00:00:00 | |
| SQ9EZE-13 | 2026-09-04 00:03:33 | 48.47449 | 20.76241 | 132° | 29km/h | 17243m | 4.8m/s | -55.0°C | 1.7% | 89.9hPa | 0V | 00:00:00 | 00:00:00 | 00:00:00 | |
| HA6NAB-11 | 2026-09-04 00:03:27 | 48.47472 | 20.76203 | 133° | 27km/h | 17222m | 3.8m/s | -54.9°C | 1.7% | 90.1hPa | 0V | 00:00:00 | 00:00:00 | 00:00:00 | |
| SP9KGR-15 | 2026-09-04 00:03:21 | 48.47498 | 20.76156 | 128° | 31km/h | 17197m | 4.2m/s | -54.8°C | 1.7% | 90.5hPa | 0V | 00:00:00 | 00:00:00 | 00:00:00 | |
| HA6NAB-11 | 2026-09-04 00:03:16 | 48.47524 | 20.76108 | 130° | 33km/h | 17174m | 3.9m/s | -54.8°C | 1.7% | 90.8hPa | 0V | 00:00:00 | 00:00:00 | 00:00:00 | |
| HA6NAB-11 | 2026-09-04 00:03:09 | 48.47558 | 20.76050 | 129° | 37km/h | 17147m | 4.5m/s | -55.0°C | 1.7% | 91.1hPa | 0V | 00:00:00 | 00:00:00 | 00:00:00 | |
| SP9KGR-15 | 2026-09-04 00:03:05 | 48.47587 | 20.75995 | 128° | 38km/h | 17122m | 3.0m/s | -55.1°C | 1.7% | 91.5hPa | 0V | 00:00:00 | 00:00:00 | 00:00:00 | |
| SQ9EZE-13 | 2026-09-04 00:02:26 | 48.47953 | 20.75352 | 133° | 37km/h | 16862m | 3.4m/s | -54.3°C | 1.7% | 95.3hPa | 0V | 00:00:00 | 00:00:00 | 00:00:00 | |
| SP9KGR-15 | 2026-09-04 00:02:22 | 48.47971 | 20.75324 | 134° | 33km/h | 16848m | 3.9m/s | -54.4°C | 1.7% | 95.5hPa | 0V | 00:00:00 | 00:00:00 | 00:00:00 | |
| GYPAP8-17 | 2026-09-04 00:02:16 | 48.47994 | 20.75283 | 135° | 37km/h | 16831m | 5.2m/s | -54.5°C | 1.7% | 95.8hPa | 0V | 00:00:00 | 00:00:00 | 00:00:00 | |
| SQ9EZE-13 | 2026-09-04 00:02:06 | 48.48057 | 20.75187 | 128° | 37km/h | 16791m | 4.5m/s | -54.4°C | 1.7% | 96.4hPa | 0V | 00:00:00 | 00:00:00 | 00:00:00 | |
| SP9KGR-15 | 2026-09-04 00:02:00 | 48.48073 | 20.75155 | 131° | 37km/h | 16777m | 4.5m/s | -54.3°C | 1.7% | 96.6hPa | 0V | 00:00:00 | 00:00:00 | 00:00:00 | |
| SQ9EZE-14 | 2026-09-04 00:01:43 | 48.48146 | 20.75043 | 137° | 31km/h | 16728m | 3.5m/s | -54.8°C | 1.8% | 97.4hPa | 0V | 00:00:00 | 00:00:00 | 00:00:00 | |
| SQ9EZE-13 | 2026-09-04 00:01:40 | 48.48163 | 20.75014 | 133° | 37km/h | 16715m | 4.6m/s | -54.8°C | 1.7% | 97.5hPa | 0V | 00:00:00 | 00:00:00 | 00:00:00 | |
| SP9KGR-15 | 2026-09-04 00:01:39 | 48.48169 | 20.75004 | 135° | 37km/h | 16710m | 5.3m/s | -54.8°C | 1.7% | 97.6hPa | 0V | 00:00:00 | 00:00:00 | 00:00:00 | |
| HA6NAB-11 | 2026-09-04 00:01:32 | 48.48199 | 20.74953 | 126° | 35km/h | 16687m | 4.6m/s | -54.9°C | 1.8% | 97.9hPa | 0V | 00:00:00 | 00:00:00 | 00:00:00 | |
| HA6NAB-11 | 2026-09-04 00:01:23 | 48.48234 | 20.74884 | 133° | 44km/h | 16659m | 5.4m/s | -55.1°C | 1.8% | 98.4hPa | 0V | 00:00:00 | 00:00:00 | 00:00:00 | |
| HA6NAB-11 | 2026-09-04 00:01:19 | 48.48275 | 20.74817 | 134° | 47km/h | 16636m | 5.3m/s | -55.1°C | 1.8% | 98.7hPa | 0V | 00:00:00 | 00:00:00 | 00:00:00 | |
| HA6NAB-11 | 2026-09-04 00:01:12 | 48.48312 | 20.74747 | 122° | 33km/h | 16608m | 5.2m/s | -55.0°C | 1.8% | 99.2hPa | 0V | 00:00:00 | 00:00:00 | 00:00:00 | |
| GYPAP8-17 | 2026-09-04 00:01:07 | 48.48331 | 20.74703 | 129° | 38km/h | 16589m | 3.7m/s | -54.9°C | 1.8% | 99.5hPa | 0V | 00:00:00 | 00:00:00 | 00:00:00 | |
| HA6NAB-11 | 2026-09-04 00:01:04 | 48.48338 | 20.74691 | 130° | 40km/h | 16585m | 4.4m/s | -54.8°C | 1.8% | 99.6hPa | 0V | 00:00:00 | 00:00:00 | 00:00:00 | |
| SP9KGR-15 | 2026-09-04 00:01:01 | 48.48371 | 20.74631 | 126° | 44km/h | 16563m | 3.2m/s | -54.6°C | 1.8% | 99.8hPa | 0V | 00:00:00 | 00:00:00 | 00:00:00 | |
| HA6NAB-11 | 2026-09-04 00:01:00 | 48.48377 | 20.74618 | 125° | 40km/h | 16559m | 4.2m/s | -54.6°C | 1.8% | 99.9hPa | 0V | 00:00:00 | 00:00:00 | 00:00:00 | |
| SP9KGR-15 | 2026-09-04 00:00:44 | 48.48457 | 20.74442 | 126° | 40km/h | 16491m | 4.2m/s | -54.2°C | 1.8% | 101.0hPa | 0V | 00:00:00 | 00:00:00 | 00:00:00 | |
| SQ9EZE-13 | 2026-09-04 00:00:37 | 48.48501 | 20.74336 | 122° | 40km/h | 16454m | 3.4m/s | -54.0°C | 1.8% | 101.6hPa | 0V | 00:00:00 | 00:00:00 | 00:00:00 | |
| SP9KGR-15 | 2026-09-04 00:00:35 | 48.48534 | 20.74257 | 123° | 37km/h | 16424m | 5.1m/s | -53.8°C | 1.7% | 102.1hPa | 0V | 00:00:00 | 00:00:00 | 00:00:00 | |
| SQ9EZE-13 | 2026-09-04 00:00:20 | 48.48587 | 20.74152 | 131° | 37km/h | 16382m | 4.9m/s | -53.5°C | 1.7% | 102.7hPa | 0V | 00:00:00 | 00:00:00 | 00:00:00 | |
| SP9KGR-15 | 2026-09-04 00:00:13 | 48.48621 | 20.74087 | 122° | 40km/h | 16355m | 3.9m/s | -53.6°C | 1.7% | 103.2hPa | 0V | 00:00:00 | 00:00:00 | 00:00:00 | |
| GYPAP8-17 | 2026-09-04 00:00:00 | 48.48709 | 20.73937 | 134° | 42km/h | 16297m | 4.2m/s | -54.0°C | 1.8% | 104.1hPa | 0V | 00:00:00 | 00:00:00 | 00:00:00 | |
| SP9KGR-15 | 2026-09-03 23:59:58 | 48.48723 | 20.73916 | 137° | 38km/h | 16287m | 5.0m/s | -54.1°C | 1.8% | 104.3hPa | 0V | 00:00:00 | 00:00:00 | 00:00:00 | |
| SQ9EZE-13 | 2026-09-03 23:59:45 | 48.48801 | 20.73806 | 149° | 37km/h | 16228m | 5.0m/s | -54.4°C | 1.9% | 105.2hPa | 0V | 00:00:00 | 00:00:00 | 00:00:00 | |
| SP9KGR-15 | 2026-09-03 23:59:42 | 48.48824 | 20.73781 | 145° | 38km/h | 16214m | 5.6m/s | -54.3°C | 1.8% | 105.5hPa | 0V | 00:00:00 | 00:00:00 | 00:00:00 | |
| SQ9EZE-14 | 2026-09-03 23:59:34 | 48.48892 | 20.73709 | 149° | 40km/h | 16175m | 5.7m/s | -54.1°C | 1.9% | 106.1hPa | 0V | 00:00:00 | 00:00:00 | 00:00:00 | |
| SQ9EZE-13 | 2026-09-03 23:59:30 | 48.48928 | 20.73671 | 145° | 49km/h | 16155m | 5.4m/s | -54.1°C | 1.8% | 106.4hPa | 0V | 00:00:00 | 00:00:00 | 00:00:00 | |
| SP9KGR-15 | 2026-09-03 23:59:26 | 48.48968 | 20.73623 | 142° | 46km/h | 16136m | 4.2m/s | -54.1°C | 1.8% | 106.8hPa | 0V | 00:00:00 | 00:00:00 | 00:00:00 | |
| SQ9EZE-14 | 2026-09-03 23:59:19 | 48.49032 | 20.73559 | 143° | 49km/h | 16102m | 5.4m/s | -54.0°C | 1.9% | 107.3hPa | 0V | 00:00:00 | 00:00:00 | 00:00:00 | |
| HA6NAB-11 | 2026-09-03 23:59:16 | 48.49076 | 20.73507 | 142° | 57km/h | 16081m | 5.7m/s | -53.9°C | 1.9% | 107.7hPa | 0V | 00:00:00 | 00:00:00 | 00:00:00 | |
| SQ9EZE-13 | 2026-09-03 23:59:15 | 48.49076 | 20.73507 | 142° | 57km/h | 16081m | 5.7m/s | -53.9°C | 1.9% | 107.7hPa | 0V | 00:00:00 | 00:00:00 | 00:00:00 | |
| SP9KGR-15 | 2026-09-03 23:59:11 | 48.49117 | 20.73454 | 138° | 53km/h | 16061m | 5.9m/s | -53.9°C | 1.9% | 108.0hPa | 0V | 00:00:00 | 00:00:00 | 00:00:00 | |
| HA6NAB-11 | 2026-09-03 23:59:09 | 48.49135 | 20.73427 | 135° | 49km/h | 16052m | 5.3m/s | -53.9°C | 1.9% | 108.1hPa | 0V | 00:00:00 | 00:00:00 | 00:00:00 | |
| HA6NAB-11 | 2026-09-03 23:59:03 | 48.49187 | 20.73347 | 139° | 51km/h | 16024m | 4.2m/s | -54.1°C | 1.9% | 108.7hPa | 0V | 00:00:00 | 00:00:00 | 00:00:00 | |
| SQ9EZE-13 | 2026-09-03 23:58:59 | 48.49228 | 20.73288 | 134° | 60km/h | 16005m | 4.3m/s | -54.0°C | 1.9% | 108.9hPa | 0V | 00:00:00 | 00:00:00 | 00:00:00 | |
| SP9KGR-15 | 2026-09-03 23:58:55 | 48.49267 | 20.73220 | 128° | 58km/h | 15986m | 5.3m/s | -53.8°C | 1.9% | 109.3hPa | 0V | 00:00:00 | 00:00:00 | 00:00:00 | |
| GYPAP8-17 | 2026-09-03 23:58:53 | 48.49284 | 20.73185 | 126° | 55km/h | 15977m | 5.3m/s | -53.8°C | 1.9% | 109.4hPa | 0V | 00:00:00 | 00:00:00 | 00:00:00 | |
| HA6NAB-11 | 2026-09-03 23:58:52 | 48.49292 | 20.73168 | 126° | 53km/h | 15973m | 3.8m/s | -53.7°C | 1.8% | 109.5hPa | 0V | 00:00:00 | 00:00:00 | 00:00:00 | |
| HA6NAB-11 | 2026-09-03 23:58:46 | 48.49346 | 20.73073 | 136° | 57km/h | 15945m | 4.1m/s | -53.5°C | 1.8% | 110.0hPa | 0V | 00:00:00 | 00:00:00 | 00:00:00 | |
| SP9KGR-15 | 2026-09-03 23:58:40 | 48.49408 | 20.72966 | 126° | 49km/h | 15913m | 5.7m/s | -53.2°C | 1.8% | 110.6hPa | 0V | 00:00:00 | 00:00:00 | 00:00:00 | |
| SQ9EZE-13 | 2026-09-03 23:58:39 | 48.49408 | 20.72966 | 126° | 49km/h | 15913m | 5.7m/s | -53.2°C | 1.8% | 110.6hPa | 0V | 00:00:00 | 00:00:00 | 00:00:00 | |
| SP9KGR-15 | 2026-09-03 23:58:24 | 48.49539 | 20.72752 | 132° | 44km/h | 15842m | 3.5m/s | -52.9°C | 1.8% | 111.8hPa | 0V | 00:00:00 | 00:00:00 | 00:00:00 | |
| SQ9EZE-13 | 2026-09-03 23:58:22 | 48.49554 | 20.72726 | 133° | 47km/h | 15833m | 4.3m/s | -52.8°C | 1.8% | 111.9hPa | 0V | 00:00:00 | 00:00:00 | 00:00:00 | |
| SP9KGR-15 | 2026-09-03 23:58:08 | 48.49682 | 20.72569 | 139° | 49km/h | 15769m | 5.1m/s | -52.4°C | 1.7% | 113.0hPa | 0V | 00:00:00 | 00:00:00 | 00:00:00 | |
| SQ9EZE-13 | 2026-09-03 23:58:05 | 48.49711 | 20.72532 | 143° | 47km/h | 15756m | 5.1m/s | -52.5°C | 1.7% | 113.3hPa | 0V | 00:00:00 | 00:00:00 | 00:00:00 | |
| GYPAP8-17 | 2026-09-03 23:58:00 | 48.49755 | 20.72482 | 145° | 42km/h | 15733m | 5.2m/s | -52.4°C | 1.8% | 113.7hPa | 0V | 00:00:00 | 00:00:00 | 00:00:00 | |
| SP9KGR-15 | 2026-09-03 23:57:52 | 48.49821 | 20.72396 | 144° | 47km/h | 15698m | 4.0m/s | -52.1°C | 1.8% | 114.3hPa | 0V | 00:00:00 | 00:00:00 | 00:00:00 | |
| SQ9EZE-13 | 2026-09-03 23:57:29 | 48.50034 | 20.72113 | 131° | 44km/h | 15598m | 5.3m/s | -52.5°C | 1.8% | 116.0hPa | 0V | 00:00:00 | 00:00:00 | 00:00:00 | |
| SP9KGR-15 | 2026-09-03 23:57:20 | 48.50113 | 20.71981 | 134° | 53km/h | 15557m | 3.1m/s | -52.3°C | 1.8% | 116.8hPa | 0V | 00:00:00 | 00:00:00 | 00:00:00 | |
| SQ9EZE-14 | 2026-09-03 23:57:17 | 48.50138 | 20.71936 | 126° | 49km/h | 15545m | 4.2m/s | -52.3°C | 1.8% | 117.1hPa | 0V | 00:00:00 | 00:00:00 | 00:00:00 | |
| SQ9EZE-13 | 2026-09-03 23:57:13 | 48.50166 | 20.71880 | 130° | 46km/h | 15529m | 3.5m/s | -52.3°C | 1.8% | 117.3hPa | 0V | 00:00:00 | 00:00:00 | 00:00:00 | |
| GYPAP8-17 | 2026-09-03 23:57:09 | 48.50199 | 20.71822 | 134° | 51km/h | 15512m | 5.0m/s | -52.3°C | 1.8% | 117.6hPa | 0V | 00:00:00 | 00:00:00 | 00:00:00 | |
| SP9KGR-15 | 2026-09-03 23:57:05 | 48.50236 | 20.71768 | 135° | 51km/h | 15495m | 4.6m/s | -52.5°C | 1.8% | 117.9hPa | 0V | 00:00:00 | 00:00:00 | 00:00:00 | |
| SQ9EZE-14 | 2026-09-03 23:57:01 | 48.50270 | 20.71714 | 137° | 49km/h | 15479m | 4.8m/s | -52.4°C | 1.8% | 118.2hPa | 0V | 00:00:00 | 00:00:00 | 00:00:00 | |
| SQ9EZE-13 | 2026-09-03 23:56:57 | 48.50311 | 20.71662 | 144° | 55km/h | 15463m | 3.4m/s | -52.6°C | 1.8% | 118.5hPa | 0V | 00:00:00 | 00:00:00 | 00:00:00 | |
| SP9KGR-15 | 2026-09-03 23:56:48 | 48.50398 | 20.71525 | 137° | 53km/h | 15425m | 3.7m/s | -52.6°C | 1.9% | 119.2hPa | 0V | 00:00:00 | 00:00:00 | 00:00:00 | |
| SQ9EZE-13 | 2026-09-03 23:56:40 | 48.50472 | 20.71420 | 135° | 47km/h | 15393m | 4.7m/s | -52.8°C | 1.9% | 119.8hPa | 0V | 00:00:00 | 00:00:00 | 00:00:00 | |
| SP9KGR-15 | 2026-09-03 23:56:33 | 48.50532 | 20.71326 | 133° | 47km/h | 15364m | 4.0m/s | -53.0°C | 2.0% | 120.3hPa | 0V | 00:00:00 | 00:00:00 | 00:00:00 | |
| HA6NAB-11 | 2026-09-03 23:56:31 | 48.50548 | 20.71299 | 133° | 46km/h | 15356m | 3.2m/s | -53.0°C | 1.9% | 120.5hPa | 0V | 00:00:00 | 00:00:00 | 00:00:00 | |
| HA6NAB-11 | 2026-09-03 23:56:26 | 48.50584 | 20.71235 | 126° | 46km/h | 15334m | 3.4m/s | -53.0°C | 1.9% | 120.9hPa | 0V | 00:00:00 | 00:00:00 | 00:00:00 | |
| SQ9EZE-13 | 2026-09-03 23:56:21 | 48.50622 | 20.71153 | 127° | 44km/h | 15309m | 4.9m/s | -52.8°C | 2.0% | 121.4hPa | 0V | 00:00:00 | 00:00:00 | 00:00:00 | |
| HA6NAB-11 | 2026-09-03 23:56:19 | 48.50629 | 20.71140 | 127° | 44km/h | 15305m | 3.7m/s | -52.8°C | 1.9% | 121.4hPa | 0V | 00:00:00 | 00:00:00 | 00:00:00 | |
| SP9KGR-15 | 2026-09-03 23:56:17 | 48.50642 | 20.71113 | 129° | 46km/h | 15297m | 5.2m/s | -52.7°C | 1.9% | 121.6hPa | 0V | 00:00:00 | 00:00:00 | 00:00:00 | |
| GYPAP8-17 | 2026-09-03 23:56:07 | 48.50718 | 20.70983 | 131° | 49km/h | 15253m | 2.8m/s | -52.4°C | 1.8% | 122.4hPa | 0V | 00:00:00 | 00:00:00 | 00:00:00 | |
| SQ9EZE-13 | 2026-09-03 23:56:04 | 48.50753 | 20.70928 | 139° | 47km/h | 15236m | 4.2m/s | -52.3°C | 1.8% | 122.8hPa | 0V | 00:00:00 | 00:00:00 | 00:00:00 | |
| SP9KGR-15 | 2026-09-03 23:56:01 | 48.50770 | 20.70905 | 139° | 40km/h | 15228m | 3.9m/s | -52.2°C | 1.9% | 122.9hPa | 0V | 00:00:00 | 00:00:00 | 00:00:00 | |
| SP9KGR-15 | 2026-09-03 23:55:46 | 48.50909 | 20.70739 | 145° | 47km/h | 15164m | 4.1m/s | -52.5°C | 1.9% | 124.1hPa | 0V | 00:00:00 | 00:00:00 | 00:00:00 | |
| SQ9EZE-13 | 2026-09-03 23:55:45 | 48.50919 | 20.70728 | 141° | 47km/h | 15160m | 4.4m/s | -52.5°C | 1.9% | 124.2hPa | 0V | 00:00:00 | 00:00:00 | 00:00:00 | |
| SP9KGR-15 | 2026-09-03 23:55:31 | 48.51057 | 20.70547 | 138° | 55km/h | 15101m | 3.6m/s | -52.6°C | 1.9% | 125.3hPa | 0V | 00:00:00 | 00:00:00 | 00:00:00 | |
| SQ9EZE-13 | 2026-09-03 23:55:29 | 48.51077 | 20.70518 | 133° | 55km/h | 15093m | 4.2m/s | -52.7°C | 1.9% | 125.5hPa | 0V | 00:00:00 | 00:00:00 | 00:00:00 | |
| SP9KGR-15 | 2026-09-03 23:55:15 | 48.51194 | 20.70314 | 130° | 49km/h | 15035m | 4.0m/s | -52.9°C | 1.9% | 126.6hPa | 0V | 00:00:00 | 00:00:00 | 00:00:00 | |
| SQ9EZE-13 | 2026-09-03 23:55:13 | 48.51209 | 20.70284 | 127° | 51km/h | 15027m | 3.7m/s | -52.8°C | 1.9% | 126.8hPa | 0V | 00:00:00 | 00:00:00 | 00:00:00 | |
| GYPAP8-17 | 2026-09-03 23:55:11 | 48.51225 | 20.70254 | 128° | 47km/h | 15019m | 4.8m/s | -52.8°C | 1.9% | 126.9hPa | 0V | 00:00:00 | 00:00:00 | 00:00:00 | |
| SQ9EZE-14 | 2026-09-03 23:55:01 | 48.51307 | 20.70118 | 137° | 47km/h | 14978m | 4.6m/s | -52.7°C | 1.9% | 127.7hPa | 0V | 00:00:00 | 00:00:00 | 00:00:00 | |
| SP9KGR-15 | 2026-09-03 23:54:59 | 48.51324 | 20.70094 | 137° | 46km/h | 14970m | 3.4m/s | -52.8°C | 1.9% | 127.9hPa | 0V | 00:00:00 | 00:00:00 | 00:00:00 | |
| SQ9EZE-13 | 2026-09-03 23:54:57 | 48.51341 | 20.70068 | 135° | 49km/h | 14962m | 2.9m/s | -52.8°C | 1.9% | 128.1hPa | 0V | 00:00:00 | 00:00:00 | 00:00:00 | |
| SQ9EZE-14 | 2026-09-03 23:54:46 | 48.51439 | 20.69912 | 135° | 53km/h | 14918m | 3.6m/s | -52.8°C | 1.9% | 128.9hPa | 0V | 00:00:00 | 00:00:00 | 00:00:00 | |
| SP9KGR-15 | 2026-09-03 23:54:44 | 48.51457 | 20.69884 | 136° | 51km/h | 14909m | 3.5m/s | -52.7°C | 1.9% | 129.1hPa | 0V | 00:00:00 | 00:00:00 | 00:00:00 | |
| SQ9EZE-13 | 2026-09-03 23:54:41 | 48.51485 | 20.69839 | 133° | 55km/h | 14897m | 2.7m/s | -52.6°C | 1.9% | 129.4hPa | 0V | 00:00:00 | 00:00:00 | 00:00:00 | |
| SQ9EZE-14 | 2026-09-03 23:54:31 | 48.51574 | 20.69699 | 139° | 57km/h | 14857m | 3.8m/s | -52.4°C | 1.9% | 130.2hPa | 0V | 00:00:00 | 00:00:00 | 00:00:00 | |
| SQ9EZE-13 | 2026-09-03 23:54:23 | 48.51654 | 20.69587 | 136° | 51km/h | 14824m | 3.0m/s | -52.2°C | 1.8% | 130.8hPa | 0V | 00:00:00 | 00:00:00 | 00:00:00 | |
| SP9KGR-15 | 2026-09-03 23:54:12 | 48.51780 | 20.69431 | 145° | 62km/h | 14775m | 3.8m/s | -52.0°C | 1.8% | 131.8hPa | 0V | 00:00:00 | 00:00:00 | 00:00:00 | |
| SQ9EZE-13 | 2026-09-03 23:54:07 | 48.51834 | 20.69364 | 142° | 51km/h | 14754m | 4.4m/s | -52.1°C | 1.8% | 132.3hPa | 0V | 00:00:00 | 00:00:00 | 00:00:00 | |
| SP9KGR-15 | 2026-09-03 23:53:57 | 48.51966 | 20.69200 | 137° | 75km/h | 14705m | 5.1m/s | -52.2°C | 1.8% | 133.3hPa | 0V | 00:00:00 | 00:00:00 | 00:00:00 | |
| GYPAP8-17 | 2026-09-03 23:53:54 | 48.52007 | 20.69142 | 138° | 71km/h | 14691m | 4.5m/s | -52.2°C | 1.9% | 133.6hPa | 0V | 00:00:00 | 00:00:00 | 00:00:00 | |
| SQ9EZE-13 | 2026-09-03 23:53:50 | 48.52058 | 20.69067 | 136° | 69km/h | 14674m | 5.2m/s | -52.1°C | 1.9% | 133.9hPa | 0V | 00:00:00 | 00:00:00 | 00:00:00 | |
| SP9KGR-15 | 2026-09-03 23:53:41 | 48.52173 | 20.68893 | 134° | 69km/h | 14635m | 4.0m/s | -52.1°C | 1.8% | 134.7hPa | 0V | 00:00:00 | 00:00:00 | 00:00:00 | |
| SQ9EZE-13 | 2026-09-03 23:53:34 | 48.52254 | 20.68758 | 135° | 66km/h | 14603m | 5.5m/s | -52.0°C | 1.8% | 135.4hPa | 0V | 00:00:00 | 00:00:00 | 00:00:00 | |
| SP9KGR-15 | 2026-09-03 23:53:25 | 48.52356 | 20.68599 | 133° | 62km/h | 14561m | 5.0m/s | -52.0°C | 1.9% | 136.2hPa | 0V | 00:00:00 | 00:00:00 | 00:00:00 | |
| SQ9EZE-13 | 2026-09-03 23:53:18 | 48.52428 | 20.68476 | 130° | 58km/h | 14531m | 5.3m/s | -51.8°C | 1.8% | 136.8hPa | 0V | 00:00:00 | 00:00:00 | 00:00:00 | |
| SP9KGR-15 | 2026-09-03 23:53:09 | 48.52514 | 20.68332 | 137° | 58km/h | 14490m | 5.1m/s | -51.7°C | 1.8% | 137.7hPa | 0V | 00:00:00 | 00:00:00 | 00:00:00 | |
| SQ9EZE-13 | 2026-09-03 23:53:02 | 48.52590 | 20.68219 | 135° | 60km/h | 14457m | 6.2m/s | -52.0°C | 1.8% | 138.4hPa | 0V | 00:00:00 | 00:00:00 | 00:00:00 | |
| GYPAP8-17 | 2026-09-03 23:52:55 | 48.52671 | 20.68103 | 137° | 64km/h | 14423m | 3.7m/s | -52.1°C | 1.9% | 139.2hPa | 0V | 00:00:00 | 00:00:00 | 00:00:00 | |
| SP9KGR-15 | 2026-09-03 23:52:53 | 48.52694 | 20.68067 | 131° | 68km/h | 14414m | 5.1m/s | -52.1°C | 1.9% | 139.4hPa | 0V | 00:00:00 | 00:00:00 | 00:00:00 | |
| SQ9EZE-13 | 2026-09-03 23:52:47 | 48.52764 | 20.67940 | 132° | 80km/h | 14385m | 4.8m/s | -52.0°C | 1.9% | 140.0hPa | 0V | 00:00:00 | 00:00:00 | 00:00:00 | |
| SP9KGR-15 | 2026-09-03 23:52:38 | 48.52886 | 20.67749 | 135° | 75km/h | 14340m | 6.1m/s | -51.8°C | 1.9% | 141.0hPa | 0V | 00:00:00 | 00:00:00 | 00:00:00 | |
| SQ9EZE-14 | 2026-09-03 23:52:30 | 48.52996 | 20.67584 | 137° | 77km/h | 14302m | 4.2m/s | -51.9°C | 1.9% | 141.8hPa | 0V | 00:00:00 | 00:00:00 | 00:00:00 | |
| SP9KGR-15 | 2026-09-03 23:52:22 | 48.53099 | 20.67421 | 133° | 75km/h | 14263m | 3.9m/s | -51.9°C | 1.9% | 142.6hPa | 0V | 00:00:00 | 00:00:00 | 00:00:00 | |
| SQ9EZE-14 | 2026-09-03 23:52:15 | 48.53194 | 20.67260 | 133° | 86km/h | 14229m | 4.6m/s | -52.3°C | 2.0% | 143.4hPa | 0V | 00:00:00 | 00:00:00 | 00:00:00 | |
| SP9KGR-15 | 2026-09-03 23:52:06 | 48.53314 | 20.67067 | 136° | 80km/h | 14188m | 4.3m/s | -52.4°C | 2.0% | 144.3hPa | 0V | 00:00:00 | 00:00:00 | 00:00:00 | |
| GYPAP8-17 | 2026-09-03 23:52:02 | 48.53371 | 20.66971 | 130° | 88km/h | 14169m | 4.2m/s | -52.4°C | 1.9% | 144.7hPa | 0V | 00:00:00 | 00:00:00 | 00:00:00 | |
| SQ9EZE-13 | 2026-09-03 23:51:59 | 48.53412 | 20.66897 | 131° | 82km/h | 14156m | 4.0m/s | -52.4°C | 2.0% | 145.0hPa | 0V | 00:00:00 | 00:00:00 | 00:00:00 | |
| SP9KGR-15 | 2026-09-03 23:51:51 | 48.53518 | 20.66695 | 127° | 89km/h | 14119m | 4.1m/s | -52.5°C | 2.0% | 145.9hPa | 0V | 00:00:00 | 00:00:00 | 00:00:00 | |
| SQ9EZE-13 | 2026-09-03 23:51:40 | 48.53661 | 20.66404 | 128° | 86km/h | 14068m | 5.3m/s | -52.7°C | 2.0% | 147.0hPa | 0V | 00:00:00 | 00:00:00 | 00:00:00 | |
| SP9KGR-15 | 2026-09-03 23:51:35 | 48.53727 | 20.66274 | 129° | 82km/h | 14047m | 4.8m/s | -52.7°C | 2.1% | 147.5hPa | 0V | 00:00:00 | 00:00:00 | 00:00:00 | |
| SQ9EZE-13 | 2026-09-03 23:51:21 | 48.53899 | 20.65936 | 129° | 77km/h | 13984m | 4.7m/s | -52.6°C | 2.1% | 148.9hPa | 0V | 00:00:00 | 00:00:00 | 00:00:00 | |
| SP9KGR-15 | 2026-09-03 23:51:19 | 48.53923 | 20.65890 | 131° | 80km/h | 13974m | 5.4m/s | -52.7°C | 2.1% | 149.1hPa | 0V | 00:00:00 | 00:00:00 | 00:00:00 | |
| GYPAP8-17 | 2026-09-03 23:51:05 | 48.54108 | 20.65588 | 138° | 75km/h | 13914m | 5.5m/s | -52.5°C | 2.0% | 150.5hPa | 0V | 00:00:00 | 00:00:00 | 00:00:00 | |
| SP9KGR-15 | 2026-09-03 23:51:04 | 48.54122 | 20.65568 | 136° | 77km/h | 13908m | 5.2m/s | -52.5°C | 2.0% | 150.6hPa | 0V | 00:00:00 | 00:00:00 | 00:00:00 | |
| SQ9EZE-13 | 2026-09-03 23:50:49 | 48.54329 | 20.65259 | 141° | 77km/h | 13846m | 3.6m/s | -53.1°C | 2.1% | 152.1hPa | 0V | 00:00:00 | 00:00:00 | 00:00:00 | |
| SP9KGR-15 | 2026-09-03 23:50:48 | 48.54344 | 20.65240 | 140° | 75km/h | 13841m | 4.8m/s | -53.1°C | 2.1% | 152.2hPa | 0V | 00:00:00 | 00:00:00 | 00:00:00 | |
| SQ9EZE-13 | 2026-09-03 23:50:33 | 48.54576 | 20.64962 | 143° | 82km/h | 13778m | 4.4m/s | -53.3°C | 2.2% | 153.7hPa | 0V | 00:00:00 | 00:00:00 | 00:00:00 | |
| SP9KGR-15 | 2026-09-03 23:50:32 | 48.54592 | 20.64943 | 141° | 82km/h | 13774m | 3.8m/s | -53.3°C | 2.2% | 153.8hPa | 0V | 00:00:00 | 00:00:00 | 00:00:00 | |
| HA6NAB-11 | 2026-09-03 23:50:25 | 48.54705 | 20.64809 | 145° | 78km/h | 13744m | 4.2m/s | -53.4°C | 2.2% | 154.5hPa | 0V | 00:00:00 | 00:00:00 | 00:00:00 | |
| HA6NAB-11 | 2026-09-03 23:50:19 | 48.54801 | 20.64693 | 140° | 84km/h | 13720m | 3.7m/s | -53.4°C | 2.2% | 155.1hPa | 0V | 00:00:00 | 00:00:00 | 00:00:00 | |
| SQ9EZE-13 | 2026-09-03 23:50:18 | 48.54832 | 20.64651 | 139° | 80km/h | 13711m | 3.8m/s | -53.4°C | 2.2% | 155.3hPa | 0V | 00:00:00 | 00:00:00 | 00:00:00 | |
| SP9KGR-15 | 2026-09-03 23:50:17 | 48.54832 | 20.64651 | 139° | 80km/h | 13711m | 3.8m/s | -53.4°C | 2.2% | 155.3hPa | 0V | 00:00:00 | 00:00:00 | 00:00:00 | |
| SQ9EZE-14 | 2026-09-03 23:50:14 | 48.54877 | 20.64592 | 143° | 80km/h | 13700m | 4.0m/s | -53.4°C | 2.2% | 155.6hPa | 0V | 00:00:00 | 00:00:00 | 00:00:00 | |
| HA6NAB-11 | 2026-09-03 23:50:13 | 48.54893 | 20.64573 | 143° | 78km/h | 13696m | 4.1m/s | -53.4°C | 2.2% | 155.7hPa | 0V | 00:00:00 | 00:00:00 | 00:00:00 | |
| HA6NAB-11 | 2026-09-03 23:50:08 | 48.54971 | 20.64484 | 143° | 78km/h | 13676m | 3.3m/s | -53.7°C | 2.2% | 156.2hPa | 0V | 00:00:00 | 00:00:00 | 00:00:00 | |
| SQ9EZE-13 | 2026-09-03 23:50:02 | 48.55071 | 20.64345 | 135° | 77km/h | 13648m | 3.6m/s | -53.8°C | 2.3% | 156.8hPa | 0V | 00:00:00 | 00:00:00 | 00:00:00 | |
| GYPAP8-17 | 2026-09-03 23:50:01 | 48.55071 | 20.64345 | 135° | 77km/h | 13648m | 3.6m/s | -53.8°C | 2.3% | 156.8hPa | 0V | 00:00:00 | 00:00:00 | 00:00:00 | |
| SQ9EZE-14 | 2026-09-03 23:49:58 | 48.55114 | 20.64282 | 138° | 78km/h | 13637m | 3.8m/s | -53.9°C | 2.3% | 157.1hPa | 0V | 00:00:00 | 00:00:00 | 00:00:00 | |
| HA6NAB-11 | 2026-09-03 23:49:54 | 48.55171 | 20.64202 | 140° | 77km/h | 13622m | 5.2m/s | -53.9°C | 2.3% | 157.5hPa | 0V | 00:00:00 | 00:00:00 | 00:00:00 | |
| HA6NAB-11 | 2026-09-03 23:49:48 | 48.55263 | 20.64093 | 143° | 77km/h | 13597m | 4.0m/s | -53.9°C | 2.3% | 158.1hPa | 0V | 00:00:00 | 00:00:00 | 00:00:00 | |
| SP9KGR-15 | 2026-09-03 23:49:46 | 48.55293 | 20.64057 | 141° | 75km/h | 13590m | 4.8m/s | -54.0°C | 2.3% | 158.3hPa | 0V | 00:00:00 | 00:00:00 | 00:00:00 | |
| SQ9EZE-13 | 2026-09-03 23:49:45 | 48.55307 | 20.64039 | 141° | 75km/h | 13586m | 2.6m/s | -54.2°C | 2.3% | 158.4hPa | 0V | 00:00:00 | 00:00:00 | 00:00:00 | |
| HA6NAB-11 | 2026-09-03 23:49:43 | 48.55352 | 20.63985 | 143° | 77km/h | 13575m | 3.0m/s | -54.5°C | 2.5% | 158.7hPa | 0V | 00:00:00 | 00:00:00 | 00:00:00 | |
| SP9KGR-15 | 2026-09-03 23:49:31 | 48.55500 | 20.63758 | 130° | 77km/h | 13532m | 3.8m/s | -54.4°C | 2.4% | 159.8hPa | 0V | 00:00:00 | 00:00:00 | 00:00:00 | |
| SQ9EZE-13 | 2026-09-03 23:49:29 | 48.55525 | 20.63714 | 133° | 75km/h | 13525m | 4.8m/s | -54.4°C | 2.4% | 160.0hPa | 0V | 00:00:00 | 00:00:00 | 00:00:00 | |
| SP9KGR-15 | 2026-09-03 23:49:15 | 48.55715 | 20.63439 | 142° | 77km/h | 13471m | 4.3m/s | -54.3°C | 2.4% | 161.3hPa | 0V | 00:00:00 | 00:00:00 | 00:00:00 | |
| SQ9EZE-13 | 2026-09-03 23:49:13 | 48.55745 | 20.63402 | 142° | 75km/h | 13463m | 4.8m/s | -54.5°C | 2.5% | 161.5hPa | 0V | 00:00:00 | 00:00:00 | 00:00:00 | |
| GYPAP8-17 | 2026-09-03 23:49:04 | 48.55889 | 20.63218 | 142° | 78km/h | 13424m | 3.6m/s | -54.5°C | 2.5% | 162.5hPa | 0V | 00:00:00 | 00:00:00 | 00:00:00 | |
| SP9KGR-15 | 2026-09-03 23:48:59 | 48.55949 | 20.63148 | 145° | 73km/h | 13408m | 4.0m/s | -54.5°C | 2.4% | 162.9hPa | 0V | 00:00:00 | 00:00:00 | 00:00:00 | |
| SQ9EZE-13 | 2026-09-03 23:48:57 | 48.55980 | 20.63114 | 144° | 77km/h | 13400m | 3.2m/s | -54.5°C | 2.5% | 163.1hPa | 0V | 00:00:00 | 00:00:00 | 00:00:00 | |
| SP9KGR-15 | 2026-09-03 23:48:44 | 48.56173 | 20.62884 | 139° | 71km/h | 13348m | 4.5m/s | -54.7°C | 2.6% | 164.5hPa | 0V | 00:00:00 | 00:00:00 | 00:00:00 | |
| SQ9EZE-13 | 2026-09-03 23:48:42 | 48.56199 | 20.62848 | 137° | 69km/h | 13340m | 4.7m/s | -54.7°C | 2.6% | 164.6hPa | 0V | 00:00:00 | 00:00:00 | 00:00:00 | |
| SP9KGR-15 | 2026-09-03 23:48:28 | 48.56393 | 20.62608 | 143° | 75km/h | 13279m | 4.6m/s | -54.9°C | 2.6% | 166.2hPa | 0V | 00:00:00 | 00:00:00 | 00:00:00 | |
| HA6NAB-11 | 2026-09-03 23:48:27 | 48.56408 | 20.62590 | 146° | 75km/h | 13274m | 4.2m/s | -54.9°C | 2.6% | 166.4hPa | 0V | 00:00:00 | 00:00:00 | 00:00:00 | |
| HA6NAB-11 | 2026-09-03 23:48:21 | 48.56507 | 20.62495 | 150° | 80km/h | 13250m | 5.3m/s | -54.8°C | 2.6% | 167.0hPa | 0V | 00:00:00 | 00:00:00 | 00:00:00 | |
| HA6NAB-11 | 2026-09-03 23:48:15 | 48.56608 | 20.62417 | 154° | 73km/h | 13223m | 5.3m/s | -54.8°C | 2.8% | 167.7hPa | 0V | 00:00:00 | 00:00:00 | 00:00:00 | |
| SP9KGR-15 | 2026-09-03 23:48:12 | 48.56659 | 20.62376 | 152° | 78km/h | 13212m | 4.8m/s | -54.7°C | 2.7% | 168.0hPa | 0V | 00:00:00 | 00:00:00 | 00:00:00 | |
| SQ9EZE-13 | 2026-09-03 23:48:11 | 48.56677 | 20.62361 | 152° | 82km/h | 13208m | 3.1m/s | -54.7°C | 2.8% | 168.1hPa | 0V | 00:00:00 | 00:00:00 | 00:00:00 | |
| GYPAP8-17 | 2026-09-03 23:48:10 | 48.56695 | 20.62346 | 153° | 84km/h | 13204m | 4.0m/s | -54.6°C | 2.7% | 168.2hPa | 0V | 00:00:00 | 00:00:00 | 00:00:00 | |
| HA6NAB-11 | 2026-09-03 23:48:09 | 48.56714 | 20.62331 | 155° | 86km/h | 13200m | 5.0m/s | -54.6°C | 2.8% | 168.4hPa | 0V | 00:00:00 | 00:00:00 | 00:00:00 | |
| HA6NAB-11 | 2026-09-03 23:48:04 | 48.56808 | 20.62270 | 160° | 75km/h | 13179m | 5.0m/s | -54.4°C | 2.7% | 168.9hPa | 0V | 00:00:00 | 00:00:00 | 00:00:00 | |
| HA6NAB-11 | 2026-09-03 23:47:59 | 48.56909 | 20.62198 | 153° | 77km/h | 13152m | 4.8m/s | -54.2°C | 2.9% | 169.6hPa | 0V | 00:00:00 | 00:00:00 | 00:00:00 | |
| SQ9EZE-14 | 2026-09-03 23:47:58 | 48.56909 | 20.62198 | 153° | 77km/h | 13152m | 4.8m/s | -54.2°C | 2.9% | 169.6hPa | 0V | 00:00:00 | 00:00:00 | 00:00:00 | |
| SP9KGR-15 | 2026-09-03 23:47:56 | 48.56945 | 20.62170 | 154° | 82km/h | 13146m | 4.3m/s | -54.2°C | 2.9% | 169.7hPa | 0V | 00:00:00 | 00:00:00 | 00:00:00 | |
| SQ9EZE-14 | 2026-09-03 23:47:43 | 48.57211 | 20.62010 | 162° | 95km/h | 13072m | 7.2m/s | -53.8°C | 2.9% | 171.7hPa | 0V | 00:00:00 | 00:00:00 | 00:00:00 | |
| SQ9EZE-13 | 2026-09-03 23:47:41 | 48.57233 | 20.61999 | 163° | 95km/h | 13065m | 7.0m/s | -53.8°C | 3.0% | 171.9hPa | 0V | 00:00:00 | 00:00:00 | 00:00:00 | |
| SP9KGR-15 | 2026-09-03 23:47:25 | 48.57525 | 20.61801 | 152° | 86km/h | 12985m | 5.5m/s | -55.3°C | 3.7% | 174.0hPa | 0V | 00:00:00 | 00:00:00 | 00:00:00 | |
| SP9KGR-15 | 2026-09-03 23:47:08 | 48.57885 | 20.61561 | 161° | 102km/h | 12910m | 5.4m/s | -56.0°C | 4.2% | 176.0hPa | 0V | 00:00:00 | 00:00:00 | 00:00:00 | |
| GYPAP8-17 | 2026-09-03 23:47:07 | 48.57932 | 20.61533 | 159° | 99km/h | 12901m | 4.5m/s | -55.9°C | 4.2% | 176.3hPa | 0V | 00:00:00 | 00:00:00 | 00:00:00 | |
| SQ9EZE-13 | 2026-09-03 23:47:05 | 48.57956 | 20.61519 | 158° | 97km/h | 12896m | 5.4m/s | -55.9°C | 4.3% | 176.4hPa | 0V | 00:00:00 | 00:00:00 | 00:00:00 | |
| SP9KGR-15 | 2026-09-03 23:46:53 | 48.58228 | 20.61343 | 158° | 99km/h | 12843m | 4.0m/s | -56.2°C | 4.5% | 177.9hPa | 0V | 00:00:00 | 00:00:00 | 00:00:00 | |
| SQ9EZE-13 | 2026-09-03 23:46:49 | 48.58319 | 20.61286 | 159° | 95km/h | 12825m | 4.7m/s | -56.2°C | 4.6% | 178.4hPa | 0V | 00:00:00 | 00:00:00 | 00:00:00 | |
| SP9KGR-15 | 2026-09-03 23:46:37 | 48.58600 | 20.61118 | 158° | 97km/h | 12774m | 4.8m/s | -56.2°C | 4.8% | 179.9hPa | 0V | 00:00:00 | 00:00:00 | 00:00:00 | |
| SQ9EZE-13 | 2026-09-03 23:46:34 | 48.58667 | 20.61075 | 159° | 95km/h | 12761m | 5.4m/s | -56.2°C | 4.9% | 180.2hPa | 0V | 00:00:00 | 00:00:00 | 00:00:00 | |
| SP9KGR-15 | 2026-09-03 23:46:21 | 48.58975 | 20.60894 | 161° | 102km/h | 12702m | 5.3m/s | -55.8°C | 4.9% | 181.9hPa | 0V | 00:00:00 | 00:00:00 | 00:00:00 | |
| SQ9EZE-13 | 2026-09-03 23:46:14 | 48.59143 | 20.60802 | 159° | 104km/h | 12668m | 5.9m/s | -55.6°C | 5.0% | 182.8hPa | 0V | 00:00:00 | 00:00:00 | 00:00:00 | |
| GYPAP8-17 | 2026-09-03 23:46:08 | 48.59295 | 20.60714 | 162° | 108km/h | 12638m | 5.1m/s | -55.9°C | 5.6% | 183.7hPa | 0V | 00:00:00 | 00:00:00 | 00:00:00 | |
| SP9KGR-15 | 2026-09-03 23:46:05 | 48.59372 | 20.60675 | 162° | 108km/h | 12624m | 4.4m/s | -56.0°C | 5.8% | 184.1hPa | 0V | 00:00:00 | 00:00:00 | 00:00:00 | |
| SQ9EZE-13 | 2026-09-03 23:45:58 | 48.59552 | 20.60579 | 160° | 106km/h | 12591m | 5.9m/s | -56.3°C | 6.2% | 185.1hPa | 0V | 00:00:00 | 00:00:00 | 00:00:00 | |
| SP9KGR-15 | 2026-09-03 23:45:50 | 48.59768 | 20.60450 | 161° | 120km/h | 12552m | 5.3m/s | -56.6°C | 6.9% | 186.3hPa | 0V | 00:00:00 | 00:00:00 | 00:00:00 | |
| SQ9EZE-13 | 2026-09-03 23:45:43 | 48.59969 | 20.60332 | 156° | 124km/h | 12518m | 4.1m/s | -56.6°C | 7.6% | 187.3hPa | 0V | 00:00:00 | 00:00:00 | 00:00:00 | |
| SQ9EZE-14 | 2026-09-03 23:45:41 | 48.60027 | 20.60291 | 156° | 128km/h | 12507m | 4.5m/s | -56.6°C | 7.9% | 187.5hPa | 0V | 00:00:00 | 00:00:00 | 00:00:00 | |
| SP9KGR-15 | 2026-09-03 23:45:35 | 48.60202 | 20.60177 | 158° | 126km/h | 12482m | 4.7m/s | -56.6°C | 8.4% | 188.3hPa | 0V | 00:00:00 | 00:00:00 | 00:00:00 | |
| SQ9EZE-13 | 2026-09-03 23:45:28 | 48.60403 | 20.60045 | 156° | 122km/h | 12451m | 5.2m/s | -56.7°C | 9.3% | 189.3hPa | 0V | 00:00:00 | 00:00:00 | 00:00:00 | |
| SQ9EZE-14 | 2026-09-03 23:45:26 | 48.60460 | 20.60006 | 158° | 126km/h | 12442m | 4.7m/s | -56.7°C | 9.6% | 189.5hPa | 0V | 00:00:00 | 00:00:00 | 00:00:00 | |
| SP9KGR-15 | 2026-09-03 23:45:18 | 48.60711 | 20.59860 | 159° | 131km/h | 12403m | 5.4m/s | -56.7°C | 11.1% | 190.7hPa | 0V | 00:00:00 | 00:00:00 | 00:00:00 | |
| GYPAP8-17 | 2026-09-03 23:45:15 | 48.60830 | 20.59784 | 158° | 126km/h | 12384m | 4.3m/s | -56.7°C | 12.1% | 191.3hPa | 0V | 00:00:00 | 00:00:00 | 00:00:00 | |
| SQ9EZE-13 | 2026-09-03 23:45:13 | 48.60860 | 20.59765 | 158° | 128km/h | 12379m | 5.3m/s | -56.7°C | 12.3% | 191.4hPa | 0V | 00:00:00 | 00:00:00 | 00:00:00 | |
| SP9KGR-15 | 2026-09-03 23:45:03 | 48.61161 | 20.59574 | 158° | 124km/h | 12333m | 3.7m/s | -56.7°C | 14.9% | 192.9hPa | 0V | 00:00:00 | 00:00:00 | 00:00:00 | |
| SQ9EZE-13 | 2026-09-03 23:44:57 | 48.61332 | 20.59467 | 159° | 122km/h | 12305m | 6.0m/s | -56.8°C | 16.6% | 193.7hPa | 0V | 00:00:00 | 00:00:00 | 00:00:00 | |
| SP9KGR-15 | 2026-09-03 23:44:47 | 48.61624 | 20.59306 | 162° | 119km/h | 12260m | 4.2m/s | -56.9°C | 20.2% | 195.2hPa | 0V | 00:00:00 | 00:00:00 | 00:00:00 | |
| SQ9EZE-13 | 2026-09-03 23:44:35 | 48.61973 | 20.59135 | 165° | 119km/h | 12205m | 3.7m/s | -56.8°C | 25.4% | 196.9hPa | 0V | 00:00:00 | 00:00:00 | 00:00:00 | |
| SP9KGR-15 | 2026-09-03 23:44:31 | 48.62086 | 20.59078 | 161° | 115km/h | 12188m | 4.1m/s | -57.1°C | 27.2% | 197.4hPa | 0V | 00:00:00 | 00:00:00 | 00:00:00 | |
| HA6NAB-11 | 2026-09-03 23:44:30 | 48.62141 | 20.59050 | 163° | 117km/h | 12178m | 5.1m/s | -57.1°C | 28.5% | 197.7hPa | 0V | 00:00:00 | 00:00:00 | 00:00:00 | |
| HA6NAB-11 | 2026-09-03 23:44:24 | 48.62285 | 20.58986 | 165° | 119km/h | 12153m | 3.8m/s | 0°C | 0% | 198.5hPa | 0V | 00:00:00 | 00:00:00 | 00:00:00 | |
| HA6NAB-11 | 2026-09-03 23:44:19 | 48.62462 | 20.58918 | 168° | 122km/h | 12125m | 6.0m/s | 0°C | 0% | 199.3hPa | 0V | 00:00:00 | 00:00:00 | 00:00:00 | |
| SP9KGR-15 | 2026-09-03 23:44:16 | 48.62523 | 20.58895 | 166° | 126km/h | 12116m | 3.9m/s | -57.6°C | 36.4% | 199.6hPa | 0V | 00:00:00 | 00:00:00 | 00:00:00 | |
| HA6NAB-11 | 2026-09-03 23:44:12 | 48.62643 | 20.58842 | 165° | 124km/h | 12098m | 4.3m/s | 0°C | 0% | 200.2hPa | 0V | 00:00:00 | 00:00:00 | 00:00:00 | |
| HA6NAB-11 | 2026-09-03 23:44:06 | 48.62820 | 20.58776 | 172° | 119km/h | 12073m | 4.6m/s | 0°C | 0% | 201.0hPa | 0V | 00:00:00 | 00:00:00 | 00:00:00 | |
| SQ9EZE-13 | 2026-09-03 23:44:03 | 48.62917 | 20.58759 | 177° | 139km/h | 12057m | 5.1m/s | -57.9°C | 48.8% | 201.5hPa | 0V | 00:00:00 | 00:00:00 | 00:00:00 | |
| HA6NAB-11 | 2026-09-03 23:44:01 | 48.63021 | 20.58743 | 171° | 135km/h | 12033m | 10.1m/s | 0°C | 0% | 202.2hPa | 0V | 00:00:00 | 00:00:00 | 00:00:00 | |
| SP9KGR-15 | 2026-09-03 23:44:00 | 48.63021 | 20.58743 | 171° | 135km/h | 12033m | 10.1m/s | -57.8°C | 47.8% | 202.2hPa | 0V | 00:00:00 | 00:00:00 | 00:00:00 | |
| SQ9EZE-13 | 2026-09-03 23:43:48 | 48.63418 | 20.58627 | 172° | 148km/h | 11948m | 6.8m/s | -58.5°C | 57.9% | 205.0hPa | 0V | 00:00:00 | 00:00:00 | 00:00:00 | |
| SP9KGR-15 | 2026-09-03 23:43:45 | 48.63534 | 20.58610 | 178° | 159km/h | 11931m | 5.2m/s | -58.5°C | 58.6% | 205.6hPa | 0V | 00:00:00 | 00:00:00 | 00:00:00 | |
| SQ9EZE-13 | 2026-09-03 23:43:32 | 48.64053 | 20.58524 | 174° | 161km/h | 11854m | 4.5m/s | -58.7°C | 63.8% | 208.1hPa | 0V | 00:00:00 | 00:00:00 | 00:00:00 | |
| SP9KGR-15 | 2026-09-03 23:43:30 | 48.64132 | 20.58508 | 173° | 159km/h | 11845m | 5.3m/s | -58.6°C | 62.0% | 208.4hPa | 0V | 00:00:00 | 00:00:00 | 00:00:00 | |
| SQ9EZE-14 | 2026-09-03 23:43:26 | 48.64328 | 20.58458 | 171° | 162km/h | 11821m | 4.8m/s | -58.6°C | 62.8% | 209.1hPa | 0V | 00:00:00 | 00:00:00 | 00:00:00 | |
| SQ9EZE-13 | 2026-09-03 23:43:18 | 48.64675 | 20.58408 | 179° | 164km/h | 11782m | 5.7m/s | -58.3°C | 58.0% | 210.5hPa | 0V | 00:00:00 | 00:00:00 | 00:00:00 | |
| SP9KGR-15 | 2026-09-03 23:43:15 | 48.64760 | 20.58401 | 178° | 172km/h | 11771m | 6.7m/s | -58.2°C | 56.8% | 210.8hPa | 0V | 00:00:00 | 00:00:00 | 00:00:00 | |
| SQ9EZE-14 | 2026-09-03 23:43:10 | 48.64985 | 20.58372 | 174° | 173km/h | 11738m | 6.3m/s | -57.9°C | 58.4% | 211.9hPa | 0V | 00:00:00 | 00:00:00 | 00:00:00 | |
| SQ9EZE-13 | 2026-09-03 23:43:02 | 48.65361 | 20.58290 | 174° | 164km/h | 11690m | 5.7m/s | -57.6°C | 54.1% | 213.5hPa | 0V | 00:00:00 | 00:00:00 | 00:00:00 | |
| SP9KGR-15 | 2026-09-03 23:42:59 | 48.65445 | 20.58274 | 173° | 170km/h | 11680m | 7.0m/s | -57.6°C | 51.7% | 213.9hPa | 0V | 00:00:00 | 00:00:00 | 00:00:00 | |
| SQ9EZE-13 | 2026-09-03 23:42:45 | 48.66073 | 20.58186 | 177° | 175km/h | 11596m | 3.9m/s | -57.6°C | 51.6% | 216.8hPa | 0V | 00:00:00 | 00:00:00 | 00:00:00 | |
| SP9KGR-15 | 2026-09-03 23:42:44 | 48.66163 | 20.58176 | 177° | 179km/h | 11587m | 3.6m/s | -57.6°C | 51.8% | 217.1hPa | 0V | 00:00:00 | 00:00:00 | 00:00:00 | |
| SQ9EZE-13 | 2026-09-03 23:42:29 | 48.66824 | 20.58119 | 176° | 179km/h | 11523m | 6.0m/s | -57.3°C | 51.9% | 219.3hPa | 0V | 00:00:00 | 00:00:00 | 00:00:00 | |
| SP9KGR-15 | 2026-09-03 23:42:27 | 48.66915 | 20.58108 | 177° | 183km/h | 11513m | 3.7m/s | -57.3°C | 52.6% | 219.6hPa | 0V | 00:00:00 | 00:00:00 | 00:00:00 | |
| GYPAP8-17 | 2026-09-03 23:42:15 | 48.67491 | 20.58016 | 173° | 173km/h | 11456m | 6.1m/s | -56.7°C | 52.6% | 221.5hPa | 0V | 00:00:00 | 00:00:00 | 00:00:00 | |
| SQ9EZE-13 | 2026-09-03 23:42:13 | 48.67624 | 20.57986 | 173° | 184km/h | 11441m | 3.2m/s | -56.6°C | 51.6% | 222.0hPa | 0V | 00:00:00 | 00:00:00 | 00:00:00 | |
| SP9KGR-15 | 2026-09-03 23:42:12 | 48.67624 | 20.57986 | 173° | 184km/h | 11441m | 3.2m/s | -56.6°C | 51.6% | 222.0hPa | 0V | 00:00:00 | 00:00:00 | 00:00:00 | |
| HA6NAB-11 | 2026-09-03 23:42:01 | 48.68145 | 20.57882 | 174° | 193km/h | 11368m | 5.3m/s | 0°C | 0% | 224.6hPa | 0V | 00:00:00 | 00:00:00 | 00:00:00 | |
| SP9KGR-15 | 2026-09-03 23:41:57 | 48.68393 | 20.57841 | 175° | 195km/h | 11344m | 3.2m/s | -55.9°C | 55.4% | 225.4hPa | 0V | 00:00:00 | 00:00:00 | 00:00:00 | |
| HA6NAB-11 | 2026-09-03 23:41:56 | 48.68393 | 20.57841 | 175° | 195km/h | 11344m | 3.2m/s | 0°C | 0% | 225.4hPa | 0V | 00:00:00 | 00:00:00 | 00:00:00 | |
| HA6NAB-11 | 2026-09-03 23:41:49 | 48.68738 | 20.57768 | 173° | 195km/h | 11311m | 4.1m/s | 0°C | 0% | 226.6hPa | 0V | 00:00:00 | 00:00:00 | 00:00:00 | |
| HA6NAB-11 | 2026-09-03 23:41:43 | 48.69033 | 20.57700 | 173° | 195km/h | 11285m | 4.0m/s | 0°C | 0% | 227.5hPa | 0V | 00:00:00 | 00:00:00 | 00:00:00 | |
| SP9KGR-15 | 2026-09-03 23:41:40 | 48.69182 | 20.57672 | 174° | 203km/h | 11272m | 3.9m/s | -55.3°C | 56.5% | 227.9hPa | 0V | 00:00:00 | 00:00:00 | 00:00:00 | |
| HA6NAB-11 | 2026-09-03 23:41:38 | 48.69283 | 20.57652 | 173° | 201km/h | 11263m | 4.4m/s | 0°C | 0% | 228.3hPa | 0V | 00:00:00 | 00:00:00 | 00:00:00 | |
| HA6NAB-11 | 2026-09-03 23:41:32 | 48.69586 | 20.57577 | 173° | 201km/h | 11239m | 3.0m/s | 0°C | 0% | 0hPa | 0V | 00:00:00 | 00:00:00 | 00:00:00 | |
| HA6NAB-11 | 2026-09-03 23:41:27 | 48.69840 | 20.57532 | 174° | 201km/h | 11218m | 4.8m/s | 0°C | 0% | 0hPa | 0V | 00:00:00 | 00:00:00 | 00:00:00 | |
| SP9KGR-15 | 2026-09-03 23:41:24 | 48.69992 | 20.57504 | 173° | 203km/h | 11204m | 3.9m/s | -54.7°C | 57.9% | 230.4hPa | 0V | 00:00:00 | 00:00:00 | 00:00:00 | |
| SQ9EZE-13 | 2026-09-03 23:41:21 | 48.70144 | 20.57467 | 171° | 201km/h | 11190m | 4.9m/s | -54.6°C | 57.8% | 230.9hPa | 0V | 00:00:00 | 00:00:00 | 00:00:00 | |
| HA6NAB-11 | 2026-09-03 23:41:18 | 48.70296 | 20.57431 | 174° | 208km/h | 11177m | 4.0m/s | 0°C | 0% | 0hPa | 0V | 00:00:00 | 00:00:00 | 00:00:00 | |
| SQ9EZE-14 | 2026-09-03 23:41:10 | 48.70702 | 20.57344 | 171° | 204km/h | 11142m | 5.2m/s | -54.2°C | 58.2% | 232.6hPa | 0V | 00:00:00 | 00:00:00 | 00:00:00 | |
| HA6NAB-11 | 2026-09-03 23:41:09 | 48.70806 | 20.57318 | 172° | 212km/h | 11133m | 3.5m/s | 0°C | 0% | 0hPa | 0V | 00:00:00 | 00:00:00 | 00:00:00 | |
| SP9KGR-15 | 2026-09-03 23:41:08 | 48.70806 | 20.57318 | 172° | 212km/h | 11133m | 3.5m/s | -54.1°C | 58.1% | 233.0hPa | 0V | 00:00:00 | 00:00:00 | 00:00:00 | |
| SQ9EZE-13 | 2026-09-03 23:41:05 | 48.70964 | 20.57279 | 171° | 210km/h | 11121m | 4.9m/s | -54.0°C | 57.0% | 233.3hPa | 0V | 00:00:00 | 00:00:00 | 00:00:00 | |
| SQ9EZE-14 | 2026-09-03 23:40:55 | 48.71528 | 20.57129 | 172° | 204km/h | 11075m | 4.9m/s | -53.6°C | 57.0% | 235.0hPa | 0V | 00:00:00 | 00:00:00 | 00:00:00 | |
| SP9KGR-15 | 2026-09-03 23:40:52 | 48.71630 | 20.57106 | 172° | 204km/h | 11067m | 4.6m/s | -53.5°C | 56.5% | 235.3hPa | 0V | 00:00:00 | 00:00:00 | 00:00:00 | |
| SQ9EZE-13 | 2026-09-03 23:40:47 | 48.71886 | 20.57040 | 172° | 208km/h | 11047m | 3.2m/s | -53.3°C | 56.4% | 236.1hPa | 0V | 00:00:00 | 00:00:00 | 00:00:00 | |
| SP9KGR-15 | 2026-09-03 23:40:38 | 48.72401 | 20.56900 | 171° | 201km/h | 11010m | 3.5m/s | -52.9°C | 56.8% | 237.4hPa | 0V | 00:00:00 | 00:00:00 | 00:00:00 | |
| SQ9EZE-13 | 2026-09-03 23:40:31 | 48.72706 | 20.56821 | 172° | 206km/h | 10987m | 3.0m/s | -52.7°C | 56.9% | 238.3hPa | 0V | 00:00:00 | 00:00:00 | 00:00:00 | |
| SP9KGR-15 | 2026-09-03 23:40:21 | 48.73220 | 20.56677 | 170° | 206km/h | 10948m | 4.4m/s | -52.4°C | 56.7% | 239.7hPa | 0V | 00:00:00 | 00:00:00 | 00:00:00 | |
| SQ9EZE-13 | 2026-09-03 23:40:13 | 48.73683 | 20.56551 | 170° | 204km/h | 10910m | 3.3m/s | -52.0°C | 55.6% | 241.2hPa | 0V | 00:00:00 | 00:00:00 | 00:00:00 | |
| SP9KGR-15 | 2026-09-03 23:40:05 | 48.74040 | 20.56445 | 170° | 210km/h | 10879m | 4.9m/s | -51.7°C | 55.0% | 242.3hPa | 0V | 00:00:00 | 00:00:00 | 00:00:00 | |
| HA6NAB-11 | 2026-09-03 23:39:59 | 48.74349 | 20.56364 | 172° | 201km/h | 10855m | 4.8m/s | 0°C | 0% | 0hPa | 0V | 00:00:00 | 00:00:00 | 00:00:00 | |
| SQ9EZE-13 | 2026-09-03 23:39:56 | 48.74500 | 20.56327 | 171° | 199km/h | 10841m | 4.6m/s | -51.4°C | 54.9% | 243.7hPa | 0V | 00:00:00 | 00:00:00 | 00:00:00 | |
| HA6NAB-11 | 2026-09-03 23:39:54 | 48.74651 | 20.56289 | 171° | 204km/h | 10828m | 3.4m/s | 0°C | 0% | 0hPa | 0V | 00:00:00 | 00:00:00 | 00:00:00 | |
| SP9KGR-15 | 2026-09-03 23:39:49 | 48.74851 | 20.56226 | 169° | 201km/h | 10812m | 5.1m/s | -51.1°C | 55.3% | 244.8hPa | 0V | 00:00:00 | 00:00:00 | 00:00:00 | |
| HA6NAB-11 | 2026-09-03 23:39:45 | 48.75050 | 20.56170 | 171° | 201km/h | 10796m | 4.0m/s | 0°C | 0% | 0hPa | 0V | 00:00:00 | 00:00:00 | 00:00:00 | |
| SQ9EZE-13 | 2026-09-03 23:39:41 | 48.75253 | 20.56119 | 172° | 204km/h | 10778m | 5.5m/s | -50.8°C | 54.0% | 246.0hPa | 0V | 00:00:00 | 00:00:00 | 00:00:00 | |
| HA6NAB-11 | 2026-09-03 23:39:38 | 48.75406 | 20.56079 | 171° | 203km/h | 10766m | 4.4m/s | 0°C | 0% | 0hPa | 0V | 00:00:00 | 00:00:00 | 00:00:00 | |
| SP9KGR-15 | 2026-09-03 23:39:34 | 48.75606 | 20.56019 | 169° | 203km/h | 10750m | 4.2m/s | -50.6°C | 54.0% | 247.1hPa | 0V | 00:00:00 | 00:00:00 | 00:00:00 | |
| SQ9EZE-13 | 2026-09-03 23:39:26 | 48.75999 | 20.55901 | 171° | 197km/h | 10718m | 4.0m/s | -50.3°C | 54.3% | 248.4hPa | 0V | 00:00:00 | 00:00:00 | 00:00:00 | |
| SP9KGR-15 | 2026-09-03 23:39:20 | 48.76353 | 20.55799 | 170° | 203km/h | 10690m | 3.9m/s | -50.1°C | 54.0% | 249.5hPa | 0V | 00:00:00 | 00:00:00 | 00:00:00 | |
| SQ9EZE-13 | 2026-09-03 23:39:10 | 48.76790 | 20.55665 | 169° | 197km/h | 10651m | 4.3m/s | -49.7°C | 53.5% | 250.9hPa | 0V | 00:00:00 | 00:00:00 | 00:00:00 | |
| SP9KGR-15 | 2026-09-03 23:39:05 | 48.77093 | 20.55569 | 169° | 204km/h | 10623m | 4.2m/s | -49.5°C | 53.5% | 252.0hPa | 0V | 00:00:00 | 00:00:00 | 00:00:00 | |
| SQ9EZE-14 | 2026-09-03 23:38:55 | 48.77582 | 20.55417 | 172° | 208km/h | 10575m | 5.0m/s | -49.1°C | 52.8% | 253.8hPa | 0V | 00:00:00 | 00:00:00 | 00:00:00 | |
| SQ9EZE-13 | 2026-09-03 23:38:54 | 48.77582 | 20.55417 | 172° | 208km/h | 10575m | 5.0m/s | -49.1°C | 52.8% | 253.8hPa | 0V | 00:00:00 | 00:00:00 | 00:00:00 | |
| SP9KGR-15 | 2026-09-03 23:38:48 | 48.77881 | 20.55330 | 168° | 195km/h | 10543m | 6.8m/s | -48.8°C | 53.2% | 255.1hPa | 0V | 00:00:00 | 00:00:00 | 00:00:00 | |
| SQ9EZE-13 | 2026-09-03 23:38:39 | 48.78323 | 20.55197 | 171° | 199km/h | 10491m | 7.3m/s | -48.3°C | 53.6% | 257.1hPa | 0V | 00:00:00 | 00:00:00 | 00:00:00 | |
| SQ9EZE-14 | 2026-09-03 23:38:38 | 48.78372 | 20.55183 | 170° | 197km/h | 10484m | 6.4m/s | -48.3°C | 53.2% | 257.4hPa | 0V | 00:00:00 | 00:00:00 | 00:00:00 | |
| GYPAP8-17 | 2026-09-03 23:38:34 | 48.78612 | 20.55116 | 171° | 195km/h | 10452m | 7.2m/s | -48.0°C | 53.0% | 258.6hPa | 0V | 00:00:00 | 00:00:00 | 00:00:00 | |
| SP9KGR-15 | 2026-09-03 23:38:33 | 48.78612 | 20.55116 | 171° | 195km/h | 10452m | 7.2m/s | -48.0°C | 53.0% | 258.6hPa | 0V | 00:00:00 | 00:00:00 | 00:00:00 | |
| SQ9EZE-13 | 2026-09-03 23:38:23 | 48.79118 | 20.54982 | 171° | 201km/h | 10397m | 6.0m/s | -47.5°C | 56.4% | 260.7hPa | 0V | 00:00:00 | 00:00:00 | 00:00:00 | |
| SP9KGR-15 | 2026-09-03 23:38:17 | 48.79411 | 20.54903 | 172° | 197km/h | 10363m | 4.8m/s | -47.2°C | 59.7% | 262.1hPa | 0V | 00:00:00 | 00:00:00 | 00:00:00 | |
| SQ9EZE-13 | 2026-09-03 23:38:06 | 48.80008 | 20.54754 | 170° | 195km/h | 10297m | 8.2m/s | -46.6°C | 61.9% | 264.8hPa | 0V | 00:00:00 | 00:00:00 | 00:00:00 | |
| SP9KGR-15 | 2026-09-03 23:38:01 | 48.80203 | 20.54692 | 170° | 199km/h | 10275m | 4.2m/s | -46.5°C | 63.4% | 265.6hPa | 0V | 00:00:00 | 00:00:00 | 00:00:00 | |
| GYPAP8-17 | 2026-09-03 23:37:53 | 48.80605 | 20.54580 | 169° | 195km/h | 10235m | 4.4m/s | -46.1°C | 65.6% | 267.2hPa | 0V | 00:00:00 | 00:00:00 | 00:00:00 | |
| SQ9EZE-13 | 2026-09-03 23:37:50 | 48.80795 | 20.54516 | 169° | 188km/h | 10210m | 5.8m/s | -45.9°C | 64.7% | 268.3hPa | 0V | 00:00:00 | 00:00:00 | 00:00:00 | |
| SP9KGR-15 | 2026-09-03 23:37:45 | 48.80980 | 20.54464 | 171° | 192km/h | 10183m | 5.1m/s | -45.7°C | 64.6% | 269.3hPa | 0V | 00:00:00 | 00:00:00 | 00:00:00 | |
| SQ9EZE-13 | 2026-09-03 23:37:34 | 48.81510 | 20.54306 | 170° | 188km/h | 10125m | 5.5m/s | -45.2°C | 62.6% | 271.6hPa | 0V | 00:00:00 | 00:00:00 | 00:00:00 | |
| SQ9EZE-13 | 2026-09-03 23:37:17 | 48.82322 | 20.54079 | 170° | 195km/h | 10047m | 6.2m/s | -44.6°C | 66.1% | 274.8hPa | 0V | 00:00:00 | 00:00:00 | 00:00:00 | |
| SP9KGR-15 | 2026-09-03 23:37:15 | 48.82421 | 20.54047 | 168° | 201km/h | 10036m | 6.4m/s | -44.5°C | 66.0% | 275.2hPa | 0V | 00:00:00 | 00:00:00 | 00:00:00 | |
| HA6NAB-11 | 2026-09-03 23:37:08 | 48.82790 | 20.53909 | 171° | 179km/h | 9983m | 10.2m/s | 0°C | 0% | 0hPa | 0V | 00:00:00 | 00:00:00 | 00:00:00 | |
| HA6NAB-11 | 2026-09-03 23:37:03 | 48.83014 | 20.53848 | 169° | 183km/h | 9948m | 5.3m/s | 0°C | 0% | 0hPa | 0V | 00:00:00 | 00:00:00 | 00:00:00 | |
| SQ9EZE-13 | 2026-09-03 23:37:02 | 48.83014 | 20.53848 | 169° | 183km/h | 9948m | 5.3m/s | -43.8°C | 68.9% | 278.8hPa | 0V | 00:00:00 | 00:00:00 | 00:00:00 | |
| SP9KGR-15 | 2026-09-03 23:36:59 | 48.83151 | 20.53793 | 166° | 193km/h | 9933m | 5.1m/s | -43.7°C | 67.5% | 279.5hPa | 0V | 00:00:00 | 00:00:00 | 00:00:00 | |
| HA6NAB-11 | 2026-09-03 23:36:56 | 48.83297 | 20.53741 | 169° | 197km/h | 9917m | 3.2m/s | 0°C | 0% | 0hPa | 0V | 00:00:00 | 00:00:00 | 00:00:00 | |
| GYPAP8-17 | 2026-09-03 23:36:52 | 48.83491 | 20.53676 | 167° | 193km/h | 9893m | 7.0m/s | -43.4°C | 67.6% | 281.1hPa | 0V | 00:00:00 | 00:00:00 | 00:00:00 | |
| HA6NAB-11 | 2026-09-03 23:36:50 | 48.83583 | 20.53640 | 166° | 181km/h | 9879m | 7.4m/s | 0°C | 0% | 0hPa | 0V | 00:00:00 | 00:00:00 | 00:00:00 | |
| SQ9EZE-13 | 2026-09-03 23:36:46 | 48.83757 | 20.53571 | 166° | 179km/h | 9847m | 7.0m/s | -43.2°C | 68.9% | 283.1hPa | 0V | 00:00:00 | 00:00:00 | 00:00:00 | |
| SP9KGR-15 | 2026-09-03 23:36:44 | 48.83844 | 20.53533 | 165° | 181km/h | 9833m | 4.2m/s | -43.1°C | 69.8% | 283.6hPa | 0V | 00:00:00 | 00:00:00 | 00:00:00 | |
| SQ9EZE-14 | 2026-09-03 23:36:38 | 48.84101 | 20.53425 | 165° | 177km/h | 9798m | 6.7m/s | -42.9°C | 66.9% | 285.1hPa | 0V | 00:00:00 | 00:00:00 | 00:00:00 | |
| SQ9EZE-13 | 2026-09-03 23:36:30 | 48.84443 | 20.53282 | 165° | 173km/h | 9755m | 3.9m/s | -42.7°C | 67.0% | 286.9hPa | 0V | 00:00:00 | 00:00:00 | 00:00:00 | |
| SP9KGR-15 | 2026-09-03 23:36:29 | 48.84529 | 20.53245 | 166° | 173km/h | 9746m | 4.3m/s | -42.6°C | 67.3% | 287.3hPa | 0V | 00:00:00 | 00:00:00 | 00:00:00 | |
| SQ9EZE-14 | 2026-09-03 23:36:23 | 48.84777 | 20.53141 | 167° | 170km/h | 9719m | 3.7m/s | -42.4°C | 66.9% | 288.5hPa | 0V | 00:00:00 | 00:00:00 | 00:00:00 | |
| SQ9EZE-13 | 2026-09-03 23:36:15 | 48.85072 | 20.53024 | 164° | 168km/h | 9685m | 6.2m/s | -42.2°C | 65.4% | 289.9hPa | 0V | 00:00:00 | 00:00:00 | 00:00:00 | |
| HA6NAB-11 | 2026-09-03 23:36:13 | 48.85192 | 20.52961 | 161° | 166km/h | 9671m | 4.3m/s | 0°C | 0% | 0hPa | 0V | 00:00:00 | 00:00:00 | 00:00:00 | |
| SP9KGR-15 | 2026-09-03 23:36:12 | 48.85192 | 20.52961 | 161° | 166km/h | 9671m | 4.3m/s | -42.1°C | 66.9% | 290.6hPa | 0V | 00:00:00 | 00:00:00 | 00:00:00 | |
| SP9KGR-15 | 2026-09-03 23:35:57 | 48.85789 | 20.52721 | 166° | 157km/h | 9569m | 7.7m/s | -41.4°C | 63.7% | 295.0hPa | 0V | 00:00:00 | 00:00:00 | 00:00:00 | |
| SQ9EZE-13 | 2026-09-03 23:35:42 | 48.86380 | 20.52502 | 166° | 166km/h | 9465m | 6.3m/s | -40.8°C | 63.3% | 299.2hPa | 0V | 00:00:00 | 00:00:00 | 00:00:00 | |
| SP9KGR-15 | 2026-09-03 23:35:41 | 48.86420 | 20.52486 | 166° | 164km/h | 9458m | 7.3m/s | -40.8°C | 63.4% | 299.5hPa | 0V | 00:00:00 | 00:00:00 | 00:00:00 | |
| SQ9EZE-13 | 2026-09-03 23:35:27 | 48.86939 | 20.52288 | 166° | 148km/h | 9374m | 5.1m/s | -40.2°C | 63.2% | 303.4hPa | 0V | 00:00:00 | 00:00:00 | 00:00:00 | |
| SP9KGR-15 | 2026-09-03 23:35:25 | 48.87012 | 20.52260 | 168° | 151km/h | 9362m | 5.4m/s | -40.1°C | 62.8% | 303.9hPa | 0V | 00:00:00 | 00:00:00 | 00:00:00 | |
| GYPAP8-17 | 2026-09-03 23:35:11 | 48.87549 | 20.52057 | 166° | 144km/h | 9289m | 5.7m/s | -39.5°C | 61.5% | 307.3hPa | 0V | 00:00:00 | 00:00:00 | 00:00:00 | |
| HA6NAB-11 | 2026-09-03 23:35:08 | 48.87653 | 20.52014 | 165° | 139km/h | 9275m | 5.3m/s | 0°C | 0% | 0hPa | 0V | 00:00:00 | 00:00:00 | 00:00:00 | |
| SQ9EZE-13 | 2026-09-03 23:34:57 | 48.88015 | 20.51852 | 162° | 137km/h | 9213m | 7.5m/s | -39.0°C | 61.2% | 310.7hPa | 0V | 00:00:00 | 00:00:00 | 00:00:00 | |
| SP9KGR-15 | 2026-09-03 23:34:54 | 48.88080 | 20.51819 | 165° | 133km/h | 9201m | 6.7m/s | -38.9°C | 61.4% | 311.2hPa | 0V | 00:00:00 | 00:00:00 | 00:00:00 | |
| SQ9EZE-13 | 2026-09-03 23:34:41 | 48.88521 | 20.51615 | 162° | 135km/h | 9125m | 9.0m/s | -38.4°C | 54.4% | 314.5hPa | 0V | 00:00:00 | 00:00:00 | 00:00:00 | |
| SP9KGR-15 | 2026-09-03 23:34:40 | 48.88588 | 20.51584 | 166° | 139km/h | 9107m | 7.8m/s | -38.3°C | 52.4% | 315.3hPa | 0V | 00:00:00 | 00:00:00 | 00:00:00 | |
| HA6NAB-11 | 2026-09-03 23:34:30 | 48.88878 | 20.51454 | 163° | 128km/h | 9051m | 5.1m/s | 0°C | 0% | 0hPa | 0V | 00:00:00 | 00:00:00 | 00:00:00 | |
| HA6NAB-11 | 2026-09-03 23:34:25 | 48.89042 | 20.51380 | 167° | 135km/h | 9027m | 4.2m/s | 0°C | 0% | 0hPa | 0V | 00:00:00 | 00:00:00 | 00:00:00 | |
| SP9KGR-15 | 2026-09-03 23:34:23 | 48.89106 | 20.51356 | 165° | 131km/h | 9018m | 3.6m/s | -37.4°C | 41.7% | 319.5hPa | 0V | 00:00:00 | 00:00:00 | 00:00:00 | |
| SQ9EZE-14 | 2026-09-03 23:34:21 | 48.89170 | 20.51325 | 161° | 133km/h | 9007m | 6.9m/s | -37.3°C | 39.6% | 320.0hPa | 0V | 00:00:00 | 00:00:00 | 00:00:00 | |
| SQ9EZE-13 | 2026-09-03 23:34:10 | 48.89518 | 20.51147 | 164° | 126km/h | 8950m | 4.0m/s | -36.9°C | 31.1% | 322.7hPa | 0V | 00:00:00 | 00:00:00 | 00:00:00 | |
| SP9KGR-15 | 2026-09-03 23:34:08 | 48.89610 | 20.51101 | 161° | 130km/h | 8935m | 4.8m/s | -36.8°C | 32.0% | 323.4hPa | 0V | 00:00:00 | 00:00:00 | 00:00:00 | |
| GYPAP8-17 | 2026-09-03 23:34:07 | 48.89610 | 20.51101 | 161° | 130km/h | 8935m | 4.8m/s | -36.8°C | 32.0% | 323.4hPa | 0V | 00:00:00 | 00:00:00 | 00:00:00 | |
| SQ9EZE-14 | 2026-09-03 23:34:06 | 48.89641 | 20.51083 | 161° | 133km/h | 8929m | 6.5m/s | -36.8°C | 32.7% | 323.6hPa | 0V | 00:00:00 | 00:00:00 | 00:00:00 | |
| SQ9EZE-13 | 2026-09-03 23:33:54 | 48.90006 | 20.50875 | 161° | 119km/h | 8873m | 4.4m/s | -36.4°C | 37.0% | 326.3hPa | 0V | 00:00:00 | 00:00:00 | 00:00:00 | |
| SP9KGR-15 | 2026-09-03 23:33:52 | 48.90065 | 20.50844 | 162° | 126km/h | 8863m | 6.2m/s | -36.4°C | 36.8% | 326.7hPa | 0V | 00:00:00 | 00:00:00 | 00:00:00 | |
| HA6NAB-11 | 2026-09-03 23:33:42 | 48.90377 | 20.50661 | 160° | 135km/h | 8809m | 4.6m/s | 0°C | 0% | 0hPa | 0V | 00:00:00 | 00:00:00 | 00:00:00 | |
| SQ9EZE-13 | 2026-09-03 23:33:38 | 48.90499 | 20.50590 | 160° | 122km/h | 8786m | 4.9m/s | -35.9°C | 31.9% | 330.4hPa | 0V | 00:00:00 | 00:00:00 | 00:00:00 | |
| HA6NAB-11 | 2026-09-03 23:33:37 | 48.90556 | 20.50557 | 161° | 120km/h | 8776m | 4.5m/s | 0°C | 0% | 0hPa | 0V | 00:00:00 | 00:00:00 | 00:00:00 | |
| SP9KGR-15 | 2026-09-03 23:33:36 | 48.90556 | 20.50557 | 161° | 120km/h | 8776m | 4.5m/s | -35.8°C | 32.5% | 330.8hPa | 0V | 00:00:00 | 00:00:00 | 00:00:00 | |
| GYPAP8-17 | 2026-09-03 23:33:25 | 48.90874 | 20.50357 | 160° | 124km/h | 8718m | 6.3m/s | -35.4°C | 35.5% | 333.7hPa | 0V | 00:00:00 | 00:00:00 | 00:00:00 | |
| SQ9EZE-13 | 2026-09-03 23:33:24 | 48.90932 | 20.50321 | 158° | 124km/h | 8707m | 5.4m/s | -35.3°C | 36.0% | 334.2hPa | 0V | 00:00:00 | 00:00:00 | 00:00:00 | |
| SP9KGR-15 | 2026-09-03 23:33:20 | 48.91019 | 20.50268 | 161° | 122km/h | 8690m | 6.0m/s | -35.1°C | 36.4% | 335.0hPa | 0V | 00:00:00 | 00:00:00 | 00:00:00 | |
| SQ9EZE-13 | 2026-09-03 23:33:08 | 48.91373 | 20.50068 | 159° | 124km/h | 8635m | 4.5m/s | -34.6°C | 43.7% | 337.7hPa | 0V | 00:00:00 | 00:00:00 | 00:00:00 | |
| SP9KGR-15 | 2026-09-03 23:33:06 | 48.91460 | 20.50014 | 159° | 122km/h | 8621m | 5.3m/s | -34.5°C | 46.3% | 338.3hPa | 0V | 00:00:00 | 00:00:00 | 00:00:00 | |
| SQ9EZE-13 | 2026-09-03 23:32:52 | 48.91843 | 20.49771 | 157° | 133km/h | 8561m | 5.4m/s | -34.0°C | 58.5% | 341.3hPa | 0V | 00:00:00 | 00:00:00 | 00:00:00 | |
| SP9KGR-15 | 2026-09-03 23:32:50 | 48.91904 | 20.49729 | 157° | 130km/h | 8553m | 4.5m/s | -33.9°C | 61.7% | 341.7hPa | 0V | 00:00:00 | 00:00:00 | 00:00:00 | |
| SQ9EZE-13 | 2026-09-03 23:32:36 | 48.92315 | 20.49446 | 153° | 133km/h | 8480m | 5.1m/s | -33.7°C | 75.3% | 345.3hPa | 0V | 00:00:00 | 00:00:00 | 00:00:00 | |
| SP9KGR-15 | 2026-09-03 23:32:35 | 48.92374 | 20.49403 | 156° | 128km/h | 8469m | 4.6m/s | -33.8°C | 76.0% | 345.7hPa | 0V | 00:00:00 | 00:00:00 | 00:00:00 | |
| GYPAP8-17 | 2026-09-03 23:32:23 | 48.92708 | 20.49193 | 153° | 122km/h | 8408m | 7.2m/s | -33.2°C | 63.7% | 348.8hPa | 0V | 00:00:00 | 00:00:00 | 00:00:00 | |
| SQ9EZE-13 | 2026-09-03 23:32:21 | 48.92788 | 20.49124 | 152° | 119km/h | 8390m | 6.9m/s | -33.0°C | 57.7% | 349.7hPa | 0V | 00:00:00 | 00:00:00 | 00:00:00 | |
| SP9KGR-15 | 2026-09-03 23:32:19 | 48.92814 | 20.49103 | 156° | 117km/h | 8384m | 4.9m/s | -32.9°C | 56.5% | 350.0hPa | 0V | 00:00:00 | 00:00:00 | 00:00:00 | |
| SQ9EZE-13 | 2026-09-03 23:32:05 | 48.93242 | 20.48852 | 158° | 119km/h | 8285m | 8.7m/s | -32.3°C | 27.3% | 354.8hPa | 0V | 00:00:00 | 00:00:00 | 00:00:00 | |
| SP9KGR-15 | 2026-09-03 23:32:04 | 48.93269 | 20.48834 | 158° | 117km/h | 8277m | 5.9m/s | -32.3°C | 24.6% | 355.2hPa | 0V | 00:00:00 | 00:00:00 | 00:00:00 | |
| SQ9EZE-14 | 2026-09-03 23:31:50 | 48.93617 | 20.48619 | 154° | 111km/h | 8211m | 5.0m/s | -32.0°C | 11.2% | 358.5hPa | 0V | 00:00:00 | 00:00:00 | 00:00:00 | |
| SP9KGR-15 | 2026-09-03 23:31:49 | 48.93666 | 20.48580 | 154° | 110km/h | 8201m | 5.8m/s | -32.0°C | 11.0% | 359.1hPa | 0V | 00:00:00 | 00:00:00 | 00:00:00 | |
| SQ9EZE-13 | 2026-09-03 23:31:34 | 48.94028 | 20.48316 | 157° | 111km/h | 8125m | 5.5m/s | -31.6°C | 9.6% | 363.1hPa | 0V | 00:00:00 | 00:00:00 | 00:00:00 | |
| SP9KGR-15 | 2026-09-03 23:31:33 | 48.94053 | 20.48298 | 155° | 110km/h | 8120m | 4.2m/s | -31.5°C | 9.6% | 363.3hPa | 0V | 00:00:00 | 00:00:00 | 00:00:00 | |
| SQ9EZE-13 | 2026-09-03 23:31:19 | 48.94374 | 20.48049 | 159° | 97km/h | 8056m | 5.1m/s | -31.2°C | 8.2% | 366.5hPa | 0V | 00:00:00 | 00:00:00 | 00:00:00 | |
| SP9KGR-15 | 2026-09-03 23:31:17 | 48.94419 | 20.48021 | 159° | 99km/h | 8048m | 2.8m/s | -31.1°C | 8.2% | 366.9hPa | 0V | 00:00:00 | 00:00:00 | 00:00:00 | |
| HA6NAB-11 | 2026-09-03 23:31:05 | 48.94695 | 20.47840 | 151° | 111km/h | 8000m | 5.4m/s | 0°C | 0% | 0hPa | 0V | 00:00:00 | 00:00:00 | 00:00:00 | |
| SQ9EZE-13 | 2026-09-03 23:31:03 | 48.94740 | 20.47799 | 150° | 99km/h | 7989m | 6.0m/s | -30.7°C | 7.3% | 370.0hPa | 0V | 00:00:00 | 00:00:00 | 00:00:00 | |
| HA6NAB-11 | 2026-09-03 23:31:00 | 48.94817 | 20.47735 | 156° | 80km/h | 7967m | 5.0m/s | 0°C | 0% | 0hPa | 0V | 00:00:00 | 00:00:00 | 00:00:00 | |
| GYPAP8-17 | 2026-09-03 23:30:53 | 48.94930 | 20.47647 | 151° | 82km/h | 7937m | 8.5m/s | -30.3°C | 6.9% | 372.8hPa | 0V | 00:00:00 | 00:00:00 | 00:00:00 | |
| SQ9EZE-13 | 2026-09-03 23:30:47 | 48.95039 | 20.47539 | 154° | 84km/h | 7897m | 8.0m/s | -30.0°C | 6.8% | 374.8hPa | 0V | 00:00:00 | 00:00:00 | 00:00:00 | |
| SP9KGR-15 | 2026-09-03 23:30:45 | 48.95100 | 20.47497 | 157° | 95km/h | 7877m | 5.1m/s | -29.9°C | 6.9% | 375.8hPa | 0V | 00:00:00 | 00:00:00 | 00:00:00 | |
| SQ9EZE-13 | 2026-09-03 23:30:32 | 48.95351 | 20.47275 | 148° | 86km/h | 7812m | 4.7m/s | -29.8°C | 8.0% | 379.4hPa | 0V | 00:00:00 | 00:00:00 | 00:00:00 | |
| SQ9EZE-13 | 2026-09-03 23:30:16 | 48.95644 | 20.46953 | 143° | 73km/h | 7743m | 6.5m/s | -29.4°C | 8.4% | 383.0hPa | 0V | 00:00:00 | 00:00:00 | 00:00:00 | |
| SP9KGR-15 | 2026-09-03 23:30:15 | 48.95658 | 20.46936 | 141° | 73km/h | 7737m | 7.0m/s | -29.4°C | 8.4% | 383.4hPa | 0V | 00:00:00 | 00:00:00 | 00:00:00 | |
| GYPAP8-17 | 2026-09-03 23:30:09 | 48.95742 | 20.46847 | 152° | 84km/h | 7708m | 4.5m/s | -29.1°C | 8.5% | 385.0hPa | 0V | 00:00:00 | 00:00:00 | 00:00:00 | |
| SQ9EZE-13 | 2026-09-03 23:30:00 | 48.95910 | 20.46672 | 147° | 88km/h | 7640m | 4.6m/s | -28.6°C | 8.4% | 388.7hPa | 0V | 00:00:00 | 00:00:00 | 00:00:00 | |
| SP9KGR-15 | 2026-09-03 23:29:59 | 48.95910 | 20.46672 | 147° | 88km/h | 7640m | 4.6m/s | -28.6°C | 8.4% | 388.7hPa | 0V | 00:00:00 | 00:00:00 | 00:00:00 | |
| SQ9EZE-14 | 2026-09-03 23:29:50 | 48.96062 | 20.46517 | 148° | 91km/h | 7595m | 5.1m/s | -28.2°C | 8.5% | 391.1hPa | 0V | 00:00:00 | 00:00:00 | 00:00:00 | |
| SP9KGR-15 | 2026-09-03 23:29:44 | 48.96165 | 20.46417 | 146° | 69km/h | 7544m | 9.4m/s | -27.8°C | 8.1% | 393.9hPa | 0V | 00:00:00 | 00:00:00 | 00:00:00 | |
| SQ9EZE-13 | 2026-09-03 23:29:43 | 48.96178 | 20.46402 | 144° | 64km/h | 7535m | 9.0m/s | -27.8°C | 8.1% | 394.3hPa | 0V | 00:00:00 | 00:00:00 | 00:00:00 | |
| SQ9EZE-14 | 2026-09-03 23:29:35 | 48.96321 | 20.46240 | 144° | 86km/h | 7476m | 5.4m/s | -27.3°C | 7.8% | 397.6hPa | 0V | 00:00:00 | 00:00:00 | 00:00:00 | |
| SP9KGR-15 | 2026-09-03 23:29:29 | 48.96413 | 20.46122 | 148° | 66km/h | 7446m | 5.5m/s | -27.1°C | 6.9% | 399.2hPa | 0V | 00:00:00 | 00:00:00 | 00:00:00 | |
| GYPAP8-17 | 2026-09-03 23:29:24 | 48.96469 | 20.46073 | 147° | 68km/h | 7421m | 5.9m/s | -26.9°C | 6.3% | 400.6hPa | 0V | 00:00:00 | 00:00:00 | 00:00:00 | |
| SP9KGR-15 | 2026-09-03 23:29:13 | 48.96634 | 20.45886 | 149° | 64km/h | 7349m | 3.9m/s | -26.3°C | 8.0% | 404.7hPa | 0V | 00:00:00 | 00:00:00 | 00:00:00 | |
| SQ9EZE-13 | 2026-09-03 23:28:58 | 48.96820 | 20.45648 | 149° | 55km/h | 7250m | 7.5m/s | -25.4°C | 7.6% | 410.0hPa | 0V | 00:00:00 | 00:00:00 | 00:00:00 | |
| SP9KGR-15 | 2026-09-03 23:28:56 | 48.96832 | 20.45637 | 151° | 57km/h | 7243m | 5.9m/s | -25.4°C | 7.6% | 410.4hPa | 0V | 00:00:00 | 00:00:00 | 00:00:00 | |
| SQ9EZE-13 | 2026-09-03 23:28:42 | 48.97038 | 20.45434 | 148° | 64km/h | 7155m | 5.7m/s | -24.7°C | 7.2% | 415.5hPa | 0V | 00:00:00 | 00:00:00 | 00:00:00 | |
| SP9KGR-15 | 2026-09-03 23:28:41 | 48.97064 | 20.45409 | 150° | 60km/h | 7143m | 6.3m/s | -24.6°C | 7.3% | 416.3hPa | 0V | 00:00:00 | 00:00:00 | 00:00:00 | |
| GYPAP8-17 | 2026-09-03 23:28:40 | 48.97077 | 20.45397 | 149° | 58km/h | 7138m | 4.2m/s | -24.6°C | 7.3% | 416.5hPa | 0V | 00:00:00 | 00:00:00 | 00:00:00 | |
| SQ9EZE-13 | 2026-09-03 23:28:27 | 48.97220 | 20.45210 | 140° | 73km/h | 7067m | 8.8m/s | -24.0°C | 6.8% | 420.5hPa | 0V | 00:00:00 | 00:00:00 | 00:00:00 | |
| SP9KGR-15 | 2026-09-03 23:28:26 | 48.97246 | 20.45173 | 138° | 66km/h | 7054m | 6.5m/s | -23.8°C | 6.7% | 421.4hPa | 0V | 00:00:00 | 00:00:00 | 00:00:00 | |
| SQ9EZE-13 | 2026-09-03 23:28:11 | 48.97421 | 20.44977 | 145° | 60km/h | 6979m | 6.0m/s | -23.1°C | 5.2% | 425.7hPa | 0V | 00:00:00 | 00:00:00 | 00:00:00 | |
| SP9KGR-15 | 2026-09-03 23:28:09 | 48.97446 | 20.44948 | 143° | 64km/h | 6969m | 4.7m/s | -23.1°C | 5.5% | 426.2hPa | 0V | 00:00:00 | 00:00:00 | 00:00:00 | |
| SQ9EZE-13 | 2026-09-03 23:27:56 | 48.97595 | 20.44746 | 130° | 64km/h | 6899m | 4.2m/s | -22.7°C | 6.0% | 430.3hPa | 0V | 00:00:00 | 00:00:00 | 00:00:00 | |
| GYPAP8-17 | 2026-09-03 23:27:55 | 48.97617 | 20.44709 | 136° | 68km/h | 6888m | 5.8m/s | -22.6°C | 6.2% | 430.8hPa | 0V | 00:00:00 | 00:00:00 | 00:00:00 | |
| SP9KGR-15 | 2026-09-03 23:27:54 | 48.97630 | 20.44691 | 142° | 69km/h | 6883m | 4.8m/s | -22.6°C | 6.4% | 431.3hPa | 0V | 00:00:00 | 00:00:00 | 00:00:00 | |
| SP9KGR-15 | 2026-09-03 23:27:37 | 48.97826 | 20.44449 | 142° | 66km/h | 6776m | 6.2m/s | -22.5°C | 18.3% | 437.7hPa | 0V | 00:00:00 | 00:00:00 | 00:00:00 | |
| SQ9EZE-13 | 2026-09-03 23:27:36 | 48.97839 | 20.44432 | 143° | 69km/h | 6769m | 8.6m/s | -22.4°C | 19.2% | 438.0hPa | 0V | 00:00:00 | 00:00:00 | 00:00:00 | |
| SQ9EZE-14 | 2026-09-03 23:27:33 | 48.97879 | 20.44383 | 142° | 62km/h | 6751m | 5.7m/s | -22.5°C | 0% | 439.2hPa | 0V | 00:00:00 | 00:00:00 | 00:00:00 | |
| SP9KGR-15 | 2026-09-03 23:27:22 | 48.97995 | 20.44216 | 123° | 38km/h | 6675m | 6.2m/s | -22.6°C | 42.6% | 443.7hPa | 0V | 00:00:00 | 00:00:00 | 00:00:00 | |
| SQ9EZE-13 | 2026-09-03 23:27:21 | 48.97995 | 20.44216 | 123° | 38km/h | 6675m | 6.2m/s | -22.6°C | 42.6% | 443.7hPa | 0V | 00:00:00 | 00:00:00 | 00:00:00 | |
| SQ9EZE-14 | 2026-09-03 23:27:18 | 48.98010 | 20.44183 | 128° | 37km/h | 6658m | 5.7m/s | -22.5°C | 0% | 444.8hPa | 0V | 00:00:00 | 00:00:00 | 00:00:00 | |
| GYPAP8-17 | 2026-09-03 23:27:10 | 48.98078 | 20.44061 | 126° | 40km/h | 6596m | 7.8m/s | -22.0°C | 45.3% | 448.5hPa | 0V | 00:00:00 | 00:00:00 | 00:00:00 | |
| SQ9EZE-13 | 2026-09-03 23:27:06 | 48.98105 | 20.44009 | 130° | 42km/h | 6568m | 8.2m/s | -21.7°C | 44.8% | 450.2hPa | 0V | 00:00:00 | 00:00:00 | 00:00:00 | |
| SQ9EZE-13 | 2026-09-03 23:26:51 | 48.98208 | 20.43797 | 143° | 47km/h | 6480m | 6.9m/s | -20.9°C | 43.6% | 455.7hPa | 0V | 00:00:00 | 00:00:00 | 00:00:00 | |
| SP9KGR-15 | 2026-09-03 23:26:50 | 48.98208 | 20.43797 | 143° | 47km/h | 6480m | 6.9m/s | -20.9°C | 43.6% | 455.7hPa | 0V | 00:00:00 | 00:00:00 | 00:00:00 | |
| SP9KGR-15 | 2026-09-03 23:26:35 | 48.98371 | 20.43548 | 136° | 55km/h | 6382m | 6.1m/s | -20.0°C | 42.2% | 461.8hPa | 0V | 00:00:00 | 00:00:00 | 00:00:00 | |
| SQ9EZE-13 | 2026-09-03 23:26:34 | 48.98371 | 20.43548 | 136° | 55km/h | 6382m | 6.1m/s | -20.0°C | 42.2% | 461.8hPa | 0V | 00:00:00 | 00:00:00 | 00:00:00 | |
| GYPAP8-17 | 2026-09-03 23:26:26 | 48.98449 | 20.43402 | 140° | 49km/h | 6318m | 7.4m/s | -19.4°C | 41.5% | 465.7hPa | 0V | 00:00:00 | 00:00:00 | 00:00:00 | |
| SQ9EZE-13 | 2026-09-03 23:26:20 | 48.98520 | 20.43318 | 140° | 58km/h | 6278m | 8.4m/s | -19.0°C | 40.3% | 468.2hPa | 0V | 00:00:00 | 00:00:00 | 00:00:00 | |
| SP9KGR-15 | 2026-09-03 23:25:49 | 48.98798 | 20.42821 | 129° | 53km/h | 6066m | 7.7m/s | -17.1°C | 27.5% | 481.8hPa | 0V | 00:00:00 | 00:00:00 | 00:00:00 | |
| GYPAP8-17 | 2026-09-03 23:25:41 | 48.98866 | 20.42723 | 126° | 55km/h | 6020m | 6.3m/s | -16.7°C | 27.3% | 484.7hPa | 0V | 00:00:00 | 00:00:00 | 00:00:00 | |
| SQ9EZE-13 | 2026-09-03 23:25:33 | 48.98932 | 20.42581 | 126° | 68km/h | 5965m | 6.0m/s | -16.2°C | 24.8% | 488.2hPa | 0V | 00:00:00 | 00:00:00 | 00:00:00 | |
| SQ9EZE-14 | 2026-09-03 23:25:18 | 48.99058 | 20.42327 | 121° | 64km/h | 5875m | 8.2m/s | -15.7°C | 0% | 494.0hPa | 0V | 00:00:00 | 00:00:00 | 00:00:00 | |
| SQ9EZE-13 | 2026-09-03 23:25:16 | 48.99071 | 20.42286 | 113° | 53km/h | 5861m | 5.1m/s | -15.6°C | 13.9% | 495.0hPa | 0V | 00:00:00 | 00:00:00 | 00:00:00 | |
| SP9KGR-15 | 2026-09-03 23:25:01 | 48.99183 | 20.42040 | 132° | 53km/h | 5775m | 5.8m/s | -15.0°C | 12.0% | 500.6hPa | 0V | 00:00:00 | 00:00:00 | 00:00:00 | |
| SQ9EZE-13 | 2026-09-03 23:25:00 | 48.99191 | 20.42023 | 126° | 55km/h | 5770m | 4.9m/s | -14.9°C | 12.0% | 501.0hPa | 0V | 00:00:00 | 00:00:00 | 00:00:00 | |
| GYPAP8-17 | 2026-09-03 23:24:56 | 48.99221 | 20.41950 | 121° | 51km/h | 5745m | 6.5m/s | -14.7°C | 11.3% | 502.6hPa | 0V | 00:00:00 | 00:00:00 | 00:00:00 | |
| SQ9EZE-13 | 2026-09-03 23:24:46 | 48.99299 | 20.41776 | 127° | 44km/h | 5685m | 7.4m/s | -14.3°C | 10.5% | 506.6hPa | 0V | 00:00:00 | 00:00:00 | 00:00:00 | |
| SP9KGR-15 | 2026-09-03 23:24:32 | 48.99394 | 20.41545 | 126° | 51km/h | 5615m | 4.7m/s | -13.9°C | 11.2% | 511.4hPa | 0V | 00:00:00 | 00:00:00 | 00:00:00 | |
| SQ9EZE-13 | 2026-09-03 23:24:29 | 48.99410 | 20.41512 | 131° | 57km/h | 5606m | 4.6m/s | -13.8°C | 11.3% | 511.9hPa | 0V | 00:00:00 | 00:00:00 | 00:00:00 | |
| SP9KGR-15 | 2026-09-03 23:24:16 | 48.99515 | 20.41260 | 125° | 69km/h | 5521m | 7.3m/s | -13.4°C | 13.4% | 517.7hPa | 0V | 00:00:00 | 00:00:00 | 00:00:00 | |
| SQ9EZE-13 | 2026-09-03 23:24:13 | 48.99537 | 20.41217 | 131° | 71km/h | 5510m | 4.7m/s | -13.4°C | 13.5% | 518.5hPa | 0V | 00:00:00 | 00:00:00 | 00:00:00 | |
| GYPAP8-17 | 2026-09-03 23:24:12 | 48.99549 | 20.41196 | 132° | 71km/h | 5505m | 4.6m/s | -13.4°C | 13.4% | 518.8hPa | 0V | 00:00:00 | 00:00:00 | 00:00:00 | |
| SP9KGR-15 | 2026-09-03 23:24:00 | 48.99654 | 20.40996 | 123° | 49km/h | 5437m | 5.6m/s | -13.0°C | 12.7% | 523.5hPa | 0V | 00:00:00 | 00:00:00 | 00:00:00 | |
| SQ9EZE-13 | 2026-09-03 23:23:58 | 48.99669 | 20.40966 | 135° | 51km/h | 5424m | 6.9m/s | -12.9°C | 12.7% | 524.3hPa | 0V | 00:00:00 | 00:00:00 | 00:00:00 | |
| SP9KGR-15 | 2026-09-03 23:23:45 | 48.99786 | 20.40740 | 125° | 42km/h | 5339m | 5.6m/s | -12.6°C | 15.5% | 530.2hPa | 0V | 00:00:00 | 00:00:00 | 00:00:00 | |
| SQ9EZE-13 | 2026-09-03 23:23:42 | 48.99797 | 20.40710 | 117° | 47km/h | 5329m | 3.9m/s | -12.5°C | 15.6% | 531.0hPa | 0V | 00:00:00 | 00:00:00 | 00:00:00 | |
| SP9KGR-15 | 2026-09-03 23:23:29 | 48.99913 | 20.40493 | 124° | 57km/h | 5262m | 4.9m/s | -12.0°C | 16.8% | 535.5hPa | 0V | 00:00:00 | 00:00:00 | 00:00:00 | |
| SQ9EZE-13 | 2026-09-03 23:23:28 | 48.99931 | 20.40458 | 132° | 58km/h | 5249m | 8.1m/s | -11.9°C | 16.4% | 536.3hPa | 0V | 00:00:00 | 00:00:00 | 00:00:00 | |
| SP9KGR-15 | 2026-09-03 23:23:13 | 49.00056 | 20.40235 | 136° | 57km/h | 5175m | 6.0m/s | -11.4°C | 16.5% | 541.7hPa | 0V | 00:00:00 | 00:00:00 | 00:00:00 | |
| SQ9EZE-13 | 2026-09-03 23:23:12 | 49.00079 | 20.40209 | 150° | 53km/h | 5166m | 5.2m/s | -11.3°C | 16.3% | 542.4hPa | 0V | 00:00:00 | 00:00:00 | 00:00:00 | |
| SQ9EZE-14 | 2026-09-03 23:23:01 | 49.00167 | 20.40074 | 126° | 40km/h | 5116m | 4.1m/s | 0°C | 0% | 546.1hPa | 0V | 00:00:00 | 00:00:00 | 00:00:00 | |
| SP9KGR-15 | 2026-09-03 23:22:58 | 49.00191 | 20.40040 | 141° | 51km/h | 5103m | 4.8m/s | -10.9°C | 15.4% | 546.9hPa | 0V | 00:00:00 | 00:00:00 | 00:00:00 | |
| SQ9EZE-13 | 2026-09-03 23:22:56 | 49.00212 | 20.40010 | 135° | 62km/h | 5093m | 5.2m/s | -10.8°C | 15.0% | 547.7hPa | 0V | 00:00:00 | 00:00:00 | 00:00:00 | |
| SQ9EZE-14 | 2026-09-03 23:22:46 | 49.00301 | 20.39860 | 141° | 55km/h | 5042m | 6.5m/s | 0°C | 0% | 0hPa | 0V | 00:00:00 | 00:00:00 | 00:00:00 | |
| GYPAP8-17 | 2026-09-03 23:22:43 | 49.00331 | 20.39808 | 130° | 62km/h | 5023m | 8.4m/s | -10.3°C | 0% | 0hPa | 0V | 00:00:00 | 00:00:00 | 00:00:00 | |
| SP9KGR-15 | 2026-09-03 23:22:42 | 49.00341 | 20.39790 | 135° | 62km/h | 5014m | 8.3m/s | -10.2°C | 13.6% | 553.2hPa | 0V | 00:00:00 | 00:00:00 | 00:00:00 | |
| SQ9EZE-13 | 2026-09-03 23:22:40 | 49.00365 | 20.39760 | 145° | 57km/h | 5001m | 4.6m/s | -10.1°C | 13.0% | 554.1hPa | 0V | 00:00:00 | 00:00:00 | 00:00:00 | |
| SP9KGR-15 | 2026-09-03 23:22:27 | 49.00474 | 20.39576 | 127° | 57km/h | 4924m | 6.8m/s | -9.3°C | 7.9% | 559.6hPa | 0V | 00:00:00 | 00:00:00 | 00:00:00 | |
| SQ9EZE-13 | 2026-09-03 23:22:25 | 49.00493 | 20.39542 | 138° | 60km/h | 4911m | 5.0m/s | -9.2°C | 7.7% | 560.6hPa | 0V | 00:00:00 | 00:00:00 | 00:00:00 | |
| SP9KGR-15 | 2026-09-03 23:22:11 | 49.00623 | 20.39333 | 145° | 46km/h | 4839m | 5.7m/s | -8.6°C | 6.5% | 565.7hPa | 0V | 00:00:00 | 00:00:00 | 00:00:00 | |
| SQ9EZE-13 | 2026-09-03 23:22:09 | 49.00638 | 20.39310 | 129° | 42km/h | 4830m | 5.4m/s | -8.6°C | 6.6% | 566.5hPa | 0V | 00:00:00 | 00:00:00 | 00:00:00 | |
| GYPAP8-17 | 2026-09-03 23:21:59 | 49.00723 | 20.39167 | 134° | 53km/h | 4777m | 5.0m/s | -8.4°C | 0% | 0hPa | 0V | 00:00:00 | 00:00:00 | 00:00:00 | |
| SP9KGR-15 | 2026-09-03 23:21:56 | 49.00762 | 20.39121 | 146° | 44km/h | 4761m | 2.8m/s | -8.3°C | 7.9% | 571.6hPa | 0V | 00:00:00 | 00:00:00 | 00:00:00 | |
| SQ9EZE-13 | 2026-09-03 23:21:53 | 49.00782 | 20.39098 | 143° | 53km/h | 4753m | 5.0m/s | -8.3°C | 0% | 0hPa | 0V | 00:00:00 | 00:00:00 | 00:00:00 | |
| SP9KGR-15 | 2026-09-03 23:21:40 | 49.00908 | 20.38899 | 146° | 62km/h | 4691m | 4.2m/s | -7.9°C | 9.1% | 576.6hPa | 0V | 00:00:00 | 00:00:00 | 00:00:00 | |
| SQ9EZE-13 | 2026-09-03 23:21:38 | 49.00930 | 20.38874 | 145° | 47km/h | 4681m | 4.7m/s | -7.8°C | 0% | 0hPa | 0V | 00:00:00 | 00:00:00 | 00:00:00 | |
| OM5KV | 2026-09-03 23:21:28 | 49.01000 | 20.38730 | 133° | 46km/h | 4623m | 5.4m/s | 0°C | 0% | 0hPa | 0V | 00:00:00 | 00:00:00 | 00:00:00 | |
| SP9KGR-15 | 2026-09-03 23:21:25 | 49.01036 | 20.38677 | 135° | 60km/h | 4602m | 5.2m/s | -7.5°C | 11.4% | 583.2hPa | 0V | 00:00:00 | 00:00:00 | 00:00:00 | |
| GYPAP8-17 | 2026-09-03 23:21:14 | 49.01136 | 20.38504 | 128° | 51km/h | 4545m | 4.5m/s | -7.3°C | 0% | 0hPa | 0V | 00:00:00 | 00:00:00 | 00:00:00 | |
| SP9KGR-15 | 2026-09-03 23:21:09 | 49.01172 | 20.38443 | 135° | 42km/h | 4515m | 5.2m/s | -7.2°C | 0% | 0hPa | 0V | 00:00:00 | 00:00:00 | 00:00:00 | |
| SQ9EZE-13 | 2026-09-03 23:21:07 | 49.01186 | 20.38417 | 125° | 47km/h | 4504m | 4.9m/s | 0°C | 0% | 0hPa | 0V | 00:00:00 | 00:00:00 | 00:00:00 | |
| SP9KGR-15 | 2026-09-03 23:20:53 | 49.01306 | 20.38214 | 138° | 40km/h | 4425m | 7.8m/s | -6.6°C | 0% | 0hPa | 0V | 00:00:00 | 00:00:00 | 00:00:00 | |
| SQ9EZE-13 | 2026-09-03 23:20:51 | 49.01323 | 20.38188 | 136° | 51km/h | 4412m | 5.0m/s | 0°C | 0% | 0hPa | 0V | 00:00:00 | 00:00:00 | 00:00:00 | |
| SP9KGR-15 | 2026-09-03 23:20:38 | 49.01463 | 20.38002 | 149° | 57km/h | 4333m | 7.5m/s | -6.2°C | 0% | 0hPa | 0V | 00:00:00 | 00:00:00 | 00:00:00 | |
| SQ9EZE-13 | 2026-09-03 23:20:36 | 49.01494 | 20.37970 | 139° | 42km/h | 4315m | 4.6m/s | 0°C | 0% | 0hPa | 0V | 00:00:00 | 00:00:00 | 00:00:00 | |
| GYPAP8-17 | 2026-09-03 23:20:30 | 49.01538 | 20.37915 | 136° | 47km/h | 4278m | 7.3m/s | 0°C | 0% | 0hPa | 0V | 00:00:00 | 00:00:00 | 00:00:00 | |
| SP9KGR-15 | 2026-09-03 23:20:22 | 49.01609 | 20.37814 | 144° | 53km/h | 4225m | 8.2m/s | 0°C | 0% | 0hPa | 0V | 00:00:00 | 00:00:00 | 00:00:00 | |
| SP9KGR-15 | 2026-09-03 23:20:07 | 49.01784 | 20.37630 | 142° | 42km/h | 4129m | 4.4m/s | 0°C | 0% | 0hPa | 0V | 00:00:00 | 00:00:00 | 00:00:00 | |
| SP9KGR-15 | 2026-09-03 23:19:50 | 49.01938 | 20.37451 | 142° | 42km/h | 4033m | 5.4m/s | 0°C | 0% | 0hPa | 0V | 00:00:00 | 00:00:00 | 00:00:00 | |
| GYPAP8-17 | 2026-09-03 23:19:46 | 49.01960 | 20.37401 | 116° | 49km/h | 4008m | 5.8m/s | 0°C | 0% | 0hPa | 0V | 00:00:00 | 00:00:00 | 00:00:00 |